Darstellungsparameter: Aktuell verwendete Einstellungen:
Skalierung der Graphiken ... ?
xyx+y,   Skalierungsfaktor:      Skalierung: Modus: x, Faktor: 1
Darstellungszeitraum ... ?
Vom - - bis: - -   Zeitraum: 01.09.2004 - 01.12.2004
Min/Max/Avg-Anzeige ... ?
Zeige MMA aktuell
Zeige MMA Monat
Zeige MMA alles
Zeige --A aktuell
Zeige --A Monat
Zeige --A alles
Keine MMA-Anzeige
MMA:
Average (ber die Originaldaten)
MMA-Basis: 17.04.2019 - 19.05.2019
Quicknavigation für Darstellung... ?
Tage:      1T, 2T, 3T, 5T -1T -2T -3T -5T +1T +2T +3T +5T
Wochen: 1W, 2W, 3W -1W -2W -3W +1W +2W +3W
Monate: 1M, 3M, 6M -1M -3M -6M +1M +3M +6M
Jahre:    1J, 3J, 5J, 10J -1J -3J -5J -10J +1J +3J +5J +10J
Nutze für die Darstellung ... ?
Originaldaten oder Mittelwerte auf ...
Stundenbasis Tagesbasis Wochenbasis
Monatsbasis Jahresbasis      Datenbasis: Original-Daten
Darstellen als:
Statistik (Auto) Statistik J:M      Darstellung:
Zur Graphik,    zurück zur Übersicht aller Sensoren.
 
Tabellarische Datenbersicht: ?
 
Sensor: Nr:Datum:Temp:Abs-Feuchte:Windchill:Wind:
Aussen-T/F 1 01-09-2004 00:04:01 12.7 C 8.68 g/m*3 12.7 C 0 km/h
2 01-09-2004 00:16:01 12.6 C 8.63 g/m*3 12.6 C 0 km/h
3 01-09-2004 00:28:01 12.3 C 8.47 g/m*3 12.3 C 0 km/h
4 01-09-2004 00:40:01 12.1 C 8.36 g/m*3 12.1 C 0 km/h
5 01-09-2004 00:52:01 11.9 C 8.58 g/m*3 11.9 C 0 km/h
6 01-09-2004 01:04:01 11.7 C 8.47 g/m*3 11.7 C 0 km/h
7 01-09-2004 01:16:01 11.5 C 8.37 g/m*3 11.5 C 0 km/h
8 01-09-2004 01:28:01 11.1 C 8.16 g/m*3 11.1 C 0 km/h
9 01-09-2004 01:40:01 11 C 8.21 g/m*3 11 C 0 km/h
10 01-09-2004 01:52:01 11 C 8.31 g/m*3 11 C 0 km/h
11 01-09-2004 02:04:02 10.8 C 8.3 g/m*3 10.8 C 0 km/h
12 01-09-2004 02:16:02 10.8 C 8.4 g/m*3 10.8 C 0 km/h
13 01-09-2004 02:28:02 10.5 C 8.34 g/m*3 10.5 C 0 km/h
14 01-09-2004 02:40:01 10.2 C 8.18 g/m*3 10.2 C 0 km/h
15 01-09-2004 02:53:02 10.2 C 8.18 g/m*3 10.2 C 0 km/h
16 01-09-2004 03:05:02 10.1 C 8.23 g/m*3 10.1 C 0 km/h
17 01-09-2004 03:17:02 10 C 8.17 g/m*3 10 C 0 km/h
18 01-09-2004 03:29:02 9.8 C 8.16 g/m*3 9.8 C 0 km/h
19 01-09-2004 03:41:02 9.7 C 8.2 g/m*3 9.7 C 0 km/h
20 01-09-2004 03:53:02 9.8 C 8.26 g/m*3 9.8 C 0 km/h
21 01-09-2004 04:05:02 9.8 C 8.35 g/m*3 9.8 C 0 km/h
22 01-09-2004 04:17:01 9.8 C 8.35 g/m*3 9.8 C 0 km/h
23 01-09-2004 04:29:01 10 C 8.36 g/m*3 10 C 0 km/h
24 01-09-2004 04:41:01 10 C 8.36 g/m*3 10 C 0 km/h
25 01-09-2004 04:53:01 10 C 8.36 g/m*3 10 C 0 km/h
Sensor: Nr:Datum:Temp:Abs-Feuchte:Windchill:Wind:
Aussen-T/F 26 01-09-2004 05:05:01 9.8 C 8.35 g/m*3 9.8 C 0 km/h
27 01-09-2004 05:17:00 9.9 C 8.4 g/m*3 9.9 C 0 km/h
28 01-09-2004 05:29:00 10 C 8.36 g/m*3 10 C 0 km/h
29 01-09-2004 05:41:00 10 C 8.36 g/m*3 10 C 0 km/h
30 01-09-2004 05:53:02 10 C 8.36 g/m*3 10 C 0 km/h
31 01-09-2004 06:05:02 10 C 8.36 g/m*3 10 C 0 km/h
32 01-09-2004 06:17:01 10 C 8.46 g/m*3 10 C 0 km/h
33 01-09-2004 06:29:01 9.8 C 8.44 g/m*3 9.8 C 0 km/h
34 01-09-2004 06:41:01 9.8 C 8.44 g/m*3 9.8 C 0 km/h
35 01-09-2004 06:53:01 9.8 C 8.54 g/m*3 9.8 C 0 km/h
36 01-09-2004 07:05:01 9.9 C 8.59 g/m*3 9.9 C 0 km/h
37 01-09-2004 07:17:00 9.9 C 8.59 g/m*3 9.9 C 0 km/h
38 01-09-2004 07:29:00 9.8 C 8.44 g/m*3 9.8 C 0 km/h
39 01-09-2004 07:41:01 10 C 8.46 g/m*3 10 C 0 km/h
40 01-09-2004 07:53:01 10.3 C 8.71 g/m*3 10.3 C 0 km/h
41 01-09-2004 08:05:02 10.6 C 8.88 g/m*3 10.6 C 0 km/h
42 01-09-2004 08:17:01 11 C 9.11 g/m*3 11 C 0 km/h
43 01-09-2004 08:29:01 11.3 C 9.18 g/m*3 11.3 C 0 km/h
44 01-09-2004 08:41:01 11.7 C 9.31 g/m*3 11.7 C 0 km/h
45 01-09-2004 08:53:01 12.1 C 9.33 g/m*3 12.1 C 0 km/h
46 01-09-2004 09:05:01 12.2 C 8.96 g/m*3 12.2 C 0 km/h
47 01-09-2004 09:17:00 12.6 C 9.07 g/m*3 12.6 C 0 km/h
48 01-09-2004 09:29:00 13 C 8.96 g/m*3 13 C 0 km/h
49 01-09-2004 09:41:00 13.5 C 9.12 g/m*3 13.5 C 0 km/h
50 01-09-2004 09:53:01 13.2 C 8.84 g/m*3 13.2 C 0 km/h
Sensor: Nr:Datum:Temp:Abs-Feuchte:Windchill:Wind:
Aussen-T/F 51 01-09-2004 10:05:01 13.2 C 8.96 g/m*3 13.2 C 0 km/h
52 01-09-2004 10:17:01 13.6 C 9.3 g/m*3 13.6 C 0 km/h
53 01-09-2004 10:29:01 14.8 C 9.75 g/m*3 14.8 C 0 km/h
54 01-09-2004 10:41:01 15.4 C 9.72 g/m*3 15.4 C 0 km/h
55 01-09-2004 10:53:02 15.4 C 9.72 g/m*3 15.4 C 0 km/h
56 01-09-2004 11:05:02 16 C 9.95 g/m*3 16 C 0 km/h
57 01-09-2004 11:17:01 16.2 C 9.79 g/m*3 16.2 C 0 km/h
58 01-09-2004 11:29:01 17 C 9.84 g/m*3 17 C 0 km/h
59 01-09-2004 11:41:01 17.7 C 9.66 g/m*3 17.7 C 0 km/h
60 01-09-2004 11:53:01 17.8 C 9.41 g/m*3 17.8 C 0 km/h
61 01-09-2004 12:05:01 18.6 C 9.39 g/m*3 18.6 C 0 km/h
62 01-09-2004 12:17:56 19.1 C 9.34 g/m*3 19.1 C 0 km/h
63 01-09-2004 12:29:56 19.3 C 8.46 g/m*3 19.3 C 0 km/h
64 01-09-2004 12:41:56 19.9 C 8.08 g/m*3 19.9 C 0 km/h
65 01-09-2004 12:53:56 20.8 C 7.79 g/m*3 20.8 C 0 km/h
66 01-09-2004 13:05:56 20.8 C 7.97 g/m*3 20.8 C 0 km/h
67 01-09-2004 13:17:56 21.2 C 9.27 g/m*3 21.2 C 0 km/h
68 01-09-2004 13:29:56 21.2 C 9.27 g/m*3 21.2 C 0 km/h
69 01-09-2004 13:41:57 21 C 9.53 g/m*3 21 C 0 km/h
70 01-09-2004 13:53:57 21.2 C 9.82 g/m*3 21.2 C 0 km/h
71 01-09-2004 14:05:57 22.2 C 8.44 g/m*3 22.2 C 0 km/h
72 01-09-2004 14:17:57 22 C 7.96 g/m*3 22 C 0 km/h
73 01-09-2004 14:29:57 22.9 C 8.17 g/m*3 22.9 C 0 km/h
74 01-09-2004 14:41:57 22.7 C 8.69 g/m*3 22.7 C 0 km/h
75 01-09-2004 14:53:57 22.5 C 8.59 g/m*3 22.5 C 0 km/h
Sensor: Nr:Datum:Temp:Abs-Feuchte:Windchill:Wind:
Aussen-T/F 76 01-09-2004 15:05:57 22.8 C 8.13 g/m*3 22.8 C 0 km/h
77 01-09-2004 15:17:57 23.5 C 8.04 g/m*3 23.5 C 0 km/h
78 01-09-2004 15:29:57 23.9 C 8.44 g/m*3 23.9 C 0 km/h
79 01-09-2004 15:41:57 24.6 C 8.1 g/m*3 24.6 C 0 km/h
80 01-09-2004 15:53:57 25.7 C 7.42 g/m*3 25.7 C 0 km/h
81 01-09-2004 16:05:57 25.3 C 7.26 g/m*3 25.3 C 0 km/h
82 01-09-2004 16:17:57 25.4 C 7.3 g/m*3 25.4 C 0 km/h
83 01-09-2004 16:29:57 26 C 8.03 g/m*3 26 C 0 km/h
84 01-09-2004 16:41:57 26.4 C 7.47 g/m*3 26.4 C 0 km/h
85 01-09-2004 16:53:57 26.7 C 7.34 g/m*3 26.7 C 0 km/h
86 01-09-2004 17:05:57 25.9 C 6.78 g/m*3 25.9 C 0 km/h
87 01-09-2004 17:17:57 25.9 C 8.23 g/m*3 25.9 C 0 km/h
88 01-09-2004 17:29:57 26 C 6.82 g/m*3 26 C 0 km/h
89 01-09-2004 17:41:57 26.5 C 7.76 g/m*3 26.5 C 0 km/h
90 01-09-2004 17:53:01 26.3 C 7.18 g/m*3 26.3 C 0 km/h
91 01-09-2004 18:05:01 26.4 C 6.97 g/m*3 26.4 C 0 km/h
92 01-09-2004 18:17:01 26 C 7.79 g/m*3 26 C 0 km/h
93 01-09-2004 18:29:01 26.2 C 8.62 g/m*3 26.2 C 0 km/h
94 01-09-2004 18:41:01 24.5 C 8.95 g/m*3 24.5 C 0 km/h
95 01-09-2004 18:53:01 22.3 C 9.08 g/m*3 22.3 C 0 km/h
96 01-09-2004 19:05:00 20.4 C 8.85 g/m*3 20.4 C 0 km/h
97 01-09-2004 19:17:00 19.5 C 9.06 g/m*3 19.5 C 0 km/h
98 01-09-2004 19:29:00 19.3 C 8.96 g/m*3 19.3 C 0 km/h
99 01-09-2004 19:41:00 18.9 C 9.07 g/m*3 18.9 C 0 km/h
100 01-09-2004 19:53:00 18.4 C 8.81 g/m*3 18.4 C 0 km/h
Sensor: Nr:Datum:Temp:Abs-Feuchte:Windchill:Wind:
Aussen-T/F 101 01-09-2004 20:05:01 17.7 C 8.6 g/m*3 17.7 C 0 km/h
102 01-09-2004 20:17:01 17 C 8.39 g/m*3 17 C 0 km/h
103 01-09-2004 20:29:01 16.3 C 8.32 g/m*3 16.3 C 0 km/h
104 01-09-2004 20:41:01 15.8 C 8.35 g/m*3 15.8 C 0 km/h
105 01-09-2004 20:53:01 15.6 C 8.25 g/m*3 15.6 C 0 km/h
106 01-09-2004 21:05:01 15.4 C 8.41 g/m*3 15.4 C 0 km/h
107 01-09-2004 21:17:01 15.2 C 8.44 g/m*3 15.2 C 0 km/h
108 01-09-2004 21:29:01 15.2 C 8.44 g/m*3 15.2 C 0 km/h
109 01-09-2004 21:41:00 14.9 C 8.54 g/m*3 14.9 C 0 km/h
110 01-09-2004 21:53:00 14.7 C 8.44 g/m*3 14.7 C 0 km/h
111 01-09-2004 22:05:00 14.5 C 8.21 g/m*3 14.5 C 0 km/h
112 01-09-2004 22:17:00 14.3 C 8.35 g/m*3 14.3 C 0 km/h
113 01-09-2004 22:29:00 14.2 C 8.43 g/m*3 14.2 C 0 km/h
114 01-09-2004 22:41:00 14 C 8.2 g/m*3 14 C 0 km/h
115 01-09-2004 22:53:00 13.8 C 8.34 g/m*3 13.8 C 0 km/h
116 01-09-2004 23:05:00 13.6 C 8.47 g/m*3 13.6 C 0 km/h
117 01-09-2004 23:17:00 13.4 C 8.37 g/m*3 13.4 C 0 km/h
118 01-09-2004 23:29:00 13.3 C 8.66 g/m*3 13.3 C 0 km/h
119 01-09-2004 23:41:00 13.2 C 8.73 g/m*3 13.2 C 0 km/h
120 01-09-2004 23:53:00 13 C 8.62 g/m*3 13 C 0 km/h
121 02-09-2004 00:05:01 12.7 C 8.46 g/m*3 12.7 C 0 km/h
122 02-09-2004 00:17:01 12.5 C 8.36 g/m*3 12.5 C 0 km/h
123 02-09-2004 00:29:01 12.4 C 8.41 g/m*3 12.4 C 0 km/h
124 02-09-2004 00:41:00 12.2 C 8.42 g/m*3 12.2 C 0 km/h
125 02-09-2004 00:53:00 12.1 C 8.36 g/m*3 12.1 C 0 km/h
Sensor: Nr:Datum:Temp:Abs-Feuchte:Windchill:Wind:
Aussen-T/F 126 02-09-2004 01:05:00 12 C 8.53 g/m*3 12 C 0 km/h
127 02-09-2004 01:17:00 11.9 C 8.58 g/m*3 11.9 C 0 km/h
128 02-09-2004 01:29:00 11.7 C 8.58 g/m*3 11.7 C 0 km/h
129 02-09-2004 01:41:00 11.7 C 8.58 g/m*3 11.7 C 0 km/h
130 02-09-2004 01:53:00 11.5 C 8.57 g/m*3 11.5 C 0 km/h
131 02-09-2004 02:05:00 11.4 C 8.52 g/m*3 11.4 C 0 km/h
132 02-09-2004 02:17:59 11.2 C 8.41 g/m*3 11.2 C 0 km/h
133 02-09-2004 02:29:59 11 C 8.31 g/m*3 11 C 0 km/h
134 02-09-2004 02:40:59 10.7 C 8.25 g/m*3 10.7 C 0 km/h
135 02-09-2004 02:54:01 10.5 C 8.15 g/m*3 10.5 C 0 km/h
136 02-09-2004 03:06:01 10.3 C 8.14 g/m*3 10.3 C 0 km/h
137 02-09-2004 03:18:01 10.2 C 8.09 g/m*3 10.2 C 0 km/h
138 02-09-2004 03:30:01 10.1 C 8.13 g/m*3 10.1 C 0 km/h
139 02-09-2004 03:42:01 10 C 8.08 g/m*3 10 C 0 km/h
140 02-09-2004 03:54:01 9.8 C 8.07 g/m*3 9.8 C 0 km/h
141 02-09-2004 04:06:01 9.7 C 8.11 g/m*3 9.7 C 0 km/h
142 02-09-2004 04:18:01 9.5 C 8.01 g/m*3 9.5 C 0 km/h
143 02-09-2004 04:30:01 9.5 C 8.01 g/m*3 9.5 C 0 km/h
144 02-09-2004 04:42:01 9.4 C 7.96 g/m*3 9.4 C 0 km/h
145 02-09-2004 04:54:02 9.2 C 7.86 g/m*3 9.2 C 0 km/h
146 02-09-2004 05:06:01 9.2 C 7.86 g/m*3 9.2 C 0 km/h
147 02-09-2004 05:18:01 9.1 C 7.9 g/m*3 9.1 C 0 km/h
148 02-09-2004 05:30:01 9.1 C 7.9 g/m*3 9.1 C 0 km/h
149 02-09-2004 05:42:01 9.3 C 8 g/m*3 9.3 C 0 km/h
150 02-09-2004 05:54:01 9.5 C 8.19 g/m*3 9.5 C 0 km/h
Sensor: Nr:Datum:Temp:Abs-Feuchte:Windchill:Wind:
Aussen-T/F 151 02-09-2004 06:06:01 9.6 C 8.24 g/m*3 9.6 C 0 km/h
152 02-09-2004 06:18:01 9.7 C 8.3 g/m*3 9.7 C 0 km/h
153 02-09-2004 06:30:01 9.6 C 8.24 g/m*3 9.6 C 0 km/h
154 02-09-2004 06:42:01 9.6 C 8.24 g/m*3 9.6 C 0 km/h
155 02-09-2004 06:54:01 9.6 C 8.15 g/m*3 9.6 C 0 km/h
156 02-09-2004 07:06:02 9.8 C 8.26 g/m*3 9.8 C 0 km/h
157 02-09-2004 07:18:01 10 C 8.27 g/m*3 10 C 0 km/h
158 02-09-2004 07:30:01 10.2 C 8.37 g/m*3 10.2 C 0 km/h
159 02-09-2004 07:42:01 10.4 C 8.38 g/m*3 10.4 C 0 km/h
160 02-09-2004 07:54:00 10.5 C 8.34 g/m*3 10.5 C 0 km/h
161 02-09-2004 08:06:00 10.4 C 8.1 g/m*3 10.4 C 0 km/h
162 02-09-2004 08:18:00 10.7 C 8.25 g/m*3 10.7 C 0 km/h
163 02-09-2004 08:30:00 10.7 C 8.25 g/m*3 10.7 C 0 km/h
164 02-09-2004 08:42:01 10.7 C 8.25 g/m*3 10.7 C 0 km/h
165 02-09-2004 08:54:01 10.7 C 8.25 g/m*3 10.7 C 0 km/h
166 02-09-2004 09:06:02 10.7 C 8.35 g/m*3 10.7 C 0 km/h
167 02-09-2004 09:18:01 10.9 C 8.55 g/m*3 10.9 C 0 km/h
168 02-09-2004 09:30:01 11.2 C 8.72 g/m*3 11.2 C 0 km/h
169 02-09-2004 09:42:01 11.7 C 8.99 g/m*3 11.7 C 0 km/h
170 02-09-2004 09:54:01 12.2 C 9.06 g/m*3 12.2 C 0 km/h
171 02-09-2004 10:06:01 12.7 C 9.24 g/m*3 12.7 C 0 km/h
172 02-09-2004 10:18:01 13.3 C 9.47 g/m*3 13.3 C 0 km/h
173 02-09-2004 10:30:01 14 C 9.65 g/m*3 14 C 0 km/h
174 02-09-2004 10:42:00 14.5 C 9.7 g/m*3 14.5 C 0 km/h
175 02-09-2004 10:54:00 15.1 C 9.68 g/m*3 15.1 C 0 km/h
Sensor: Nr:Datum:Temp:Abs-Feuchte:Windchill:Wind:
Aussen-T/F 176 02-09-2004 11:06:00 15.6 C 9.84 g/m*3 15.6 C 0 km/h
177 02-09-2004 11:18:00 16.2 C 10.07 g/m*3 16.2 C 0 km/h
178 02-09-2004 11:30:00 17 C 9.98 g/m*3 17 C 0 km/h
179 02-09-2004 11:42:00 17.7 C 9.05 g/m*3 17.7 C 0 km/h
180 02-09-2004 11:54:00 18.7 C 9.29 g/m*3 18.7 C 0 km/h
181 02-09-2004 12:06:00 19.3 C 9.12 g/m*3 19.3 C 0 km/h
182 02-09-2004 12:18:00 19.8 C 8.54 g/m*3 19.8 C 0 km/h
183 02-09-2004 12:30:00 20.4 C 9.02 g/m*3 20.4 C 0 km/h
184 02-09-2004 12:42:01 20.8 C 8.87 g/m*3 20.8 C 0 km/h
185 02-09-2004 12:54:01 21.1 C 8.84 g/m*3 21.1 C 0 km/h
186 02-09-2004 13:06:01 21.6 C 9.1 g/m*3 21.6 C 0 km/h
187 02-09-2004 13:18:00 22.1 C 9.17 g/m*3 22.1 C 0 km/h
188 02-09-2004 13:30:00 22.6 C 9.24 g/m*3 22.6 C 0 km/h
189 02-09-2004 13:42:00 23.1 C 9.3 g/m*3 23.1 C 0 km/h
190 02-09-2004 13:54:00 23.7 C 8.98 g/m*3 23.7 C 0 km/h
191 02-09-2004 14:06:00 24.1 C 9.19 g/m*3 24.1 C 0 km/h
192 02-09-2004 14:18:00 24.9 C 9.39 g/m*3 24.9 C 0 km/h
193 02-09-2004 14:30:00 25.6 C 9.05 g/m*3 25.6 C 0 km/h
194 02-09-2004 14:42:00 26.5 C 10.26 g/m*3 26.5 C 0 km/h
195 02-09-2004 14:54:00 26.8 C 8.91 g/m*3 26.8 C 0 km/h
196 02-09-2004 15:06:00 27.1 C 8.02 g/m*3 27.1 C 0 km/h
197 02-09-2004 15:18:00 27.4 C 7.89 g/m*3 27.4 C 0 km/h
198 02-09-2004 15:30:00 27.5 C 8.2 g/m*3 27.5 C 0 km/h
199 02-09-2004 15:42:00 27.9 C 8.38 g/m*3 27.9 C 0 km/h
200 02-09-2004 15:54:00 27.4 C 6.84 g/m*3 27.4 C 0 km/h
Sensor: Nr:Datum:Temp:Abs-Feuchte:Windchill:Wind:
Aussen-T/F 201 02-09-2004 16:06:59 27.7 C 7.22 g/m*3 27.7 C 0 km/h
202 02-09-2004 16:29:59 27.4 C 6.84 g/m*3 27.4 C 0 km/h
203 02-09-2004 16:30:00 27.4 C 7.89 g/m*3 27.4 C 0 km/h
204 02-09-2004 16:42:00 27.5 C 7.41 g/m*3 27.5 C 0 km/h
205 02-09-2004 16:54:00 28.1 C 7.93 g/m*3 28.1 C 0 km/h
206 02-09-2004 17:06:00 28.2 C 7.7 g/m*3 28.2 C 0 km/h
207 02-09-2004 17:18:00 28.9 C 8.57 g/m*3 28.9 C 0 km/h
208 02-09-2004 17:30:00 29.3 C 9.63 g/m*3 29.3 C 0 km/h
209 02-09-2004 17:42:00 29.3 C 9.93 g/m*3 29.3 C 0 km/h
210 02-09-2004 17:54:00 29.3 C 9.05 g/m*3 29.3 C 0 km/h
211 02-09-2004 18:06:00 29.1 C 9.82 g/m*3 29.1 C 0 km/h
212 02-09-2004 18:18:00 28.6 C 10.12 g/m*3 28.6 C 0 km/h
213 02-09-2004 18:30:00 28.2 C 10.17 g/m*3 28.2 C 0 km/h
214 02-09-2004 18:42:00 27.4 C 10.26 g/m*3 27.4 C 0 km/h
215 02-09-2004 18:54:59 26.9 C 10.49 g/m*3 26.9 C 0 km/h
216 02-09-2004 19:06:59 25.9 C 10.17 g/m*3 25.9 C 0 km/h
217 02-09-2004 19:18:59 25.3 C 10.3 g/m*3 25.3 C 0 km/h
218 02-09-2004 19:30:59 24.5 C 10.07 g/m*3 24.5 C 0 km/h
219 02-09-2004 19:42:59 23.7 C 10.05 g/m*3 23.7 C 0 km/h
220 02-09-2004 19:54:59 22 C 10.09 g/m*3 22 C 0 km/h
221 02-09-2004 20:05:59 21 C 9.89 g/m*3 21 C 0 km/h
222 02-09-2004 20:30:00 19.8 C 10.08 g/m*3 19.8 C 0 km/h
223 02-09-2004 20:42:00 19.5 C 10.07 g/m*3 19.5 C 0 km/h
224 02-09-2004 20:54:00 19.1 C 10.16 g/m*3 19.1 C 0 km/h
225 02-09-2004 21:06:00 18.8 C 10.15 g/m*3 18.8 C 0 km/h
Sensor: Nr:Datum:Temp:Abs-Feuchte:Windchill:Wind:
Aussen-T/F 226 02-09-2004 21:18:59 18.6 C 10.19 g/m*3 18.6 C 0 km/h
227 02-09-2004 21:30:59 18.4 C 10.38 g/m*3 18.4 C 0 km/h
228 02-09-2004 21:42:59 18.3 C 10.32 g/m*3 18.3 C 0 km/h
229 02-09-2004 21:54:59 18 C 10.29 g/m*3 18 C 0 km/h
230 02-09-2004 22:05:59 17.9 C 10.38 g/m*3 17.9 C 0 km/h
231 02-09-2004 22:18:00 17.7 C 10.41 g/m*3 17.7 C 0 km/h
232 02-09-2004 22:30:00 17.4 C 10.37 g/m*3 17.4 C 0 km/h
233 02-09-2004 22:42:00 17.2 C 10.4 g/m*3 17.2 C 0 km/h
234 02-09-2004 22:54:59 17.1 C 10.48 g/m*3 17.1 C 0 km/h
235 02-09-2004 23:06:59 16.9 C 10.5 g/m*3 16.9 C 0 km/h
236 02-09-2004 23:18:59 16.6 C 10.45 g/m*3 16.6 C 0 km/h
237 02-09-2004 23:30:59 16.4 C 10.47 g/m*3 16.4 C 0 km/h
238 02-09-2004 23:42:59 16.3 C 10.41 g/m*3 16.3 C 0 km/h
239 02-09-2004 23:54:59 16 C 10.35 g/m*3 16 C 0 km/h
240 03-09-2004 00:06:59 15.9 C 10.56 g/m*3 15.9 C 0 km/h
241 03-09-2004 00:30:00 15.6 C 10.51 g/m*3 15.6 C 0 km/h
242 03-09-2004 00:30:59 15.4 C 10.51 g/m*3 15.4 C 0 km/h
243 03-09-2004 00:42:59 15.4 C 10.64 g/m*3 15.4 C 0 km/h
244 03-09-2004 00:54:59 15.1 C 10.45 g/m*3 15.1 C 0 km/h
245 03-09-2004 01:06:59 15.1 C 10.45 g/m*3 15.1 C 0 km/h
246 03-09-2004 01:18:59 14.9 C 10.45 g/m*3 14.9 C 0 km/h
247 03-09-2004 01:30:59 14.9 C 10.45 g/m*3 14.9 C 0 km/h
248 03-09-2004 01:42:59 14.7 C 10.45 g/m*3 14.7 C 0 km/h
249 03-09-2004 01:54:59 14.5 C 10.32 g/m*3 14.5 C 0 km/h
250 03-09-2004 02:06:58 14.4 C 10.26 g/m*3 14.4 C 0 km/h
Sensor: Nr:Datum:Temp:Abs-Feuchte:Windchill:Wind:
Aussen-T/F 251 03-09-2004 02:18:58 14.3 C 10.2 g/m*3 14.3 C 0 km/h
252 03-09-2004 02:30:58 14.2 C 10.26 g/m*3 14.2 C 0 km/h
253 03-09-2004 02:42:58 14 C 10.01 g/m*3 14 C 0 km/h
254 03-09-2004 02:55:00 14 C 10.13 g/m*3 14 C 0 km/h
255 03-09-2004 03:07:00 13.9 C 10.07 g/m*3 13.9 C 0 km/h
256 03-09-2004 03:19:00 13.9 C 10.19 g/m*3 13.9 C 0 km/h
257 03-09-2004 03:31:00 13.7 C 9.95 g/m*3 13.7 C 0 km/h
258 03-09-2004 03:43:00 13.6 C 10 g/m*3 13.6 C 0 km/h
259 03-09-2004 03:55:00 13.5 C 9.94 g/m*3 13.5 C 0 km/h
260 03-09-2004 04:07:00 13.4 C 9.88 g/m*3 13.4 C 0 km/h
261 03-09-2004 04:19:00 13.4 C 10 g/m*3 13.4 C 0 km/h
262 03-09-2004 04:31:00 13.2 C 9.76 g/m*3 13.2 C 0 km/h
263 03-09-2004 04:43:00 13.1 C 9.7 g/m*3 13.1 C 0 km/h
264 03-09-2004 04:55:00 13.2 C 9.87 g/m*3 13.2 C 0 km/h
265 03-09-2004 05:07:00 13 C 9.75 g/m*3 13 C 0 km/h
266 03-09-2004 05:19:00 12.9 C 9.81 g/m*3 12.9 C 0 km/h
267 03-09-2004 05:31:00 12.8 C 9.74 g/m*3 12.8 C 0 km/h
268 03-09-2004 05:43:00 12.7 C 9.68 g/m*3 12.7 C 0 km/h
269 03-09-2004 05:55:00 12.7 C 9.68 g/m*3 12.7 C 0 km/h
270 03-09-2004 06:07:00 12.8 C 9.86 g/m*3 12.8 C 0 km/h
271 03-09-2004 06:19:00 12.7 C 9.68 g/m*3 12.7 C 0 km/h
272 03-09-2004 06:31:00 12.7 C 9.8 g/m*3 12.7 C 0 km/h
273 03-09-2004 06:43:01 13 C 9.87 g/m*3 13 C 0 km/h
274 03-09-2004 06:55:00 13 C 9.75 g/m*3 13 C 0 km/h
275 03-09-2004 07:07:00 13 C 9.64 g/m*3 13 C 0 km/h
Sensor: Nr:Datum:Temp:Abs-Feuchte:Windchill:Wind:
Aussen-T/F 276 03-09-2004 07:19:00 13 C 9.64 g/m*3 13 C 0 km/h
277 03-09-2004 07:31:59 12.9 C 9.69 g/m*3 12.9 C 0 km/h
278 03-09-2004 07:43:59 13.1 C 9.81 g/m*3 13.1 C 0 km/h
279 03-09-2004 07:55:59 13.3 C 9.94 g/m*3 13.3 C 0 km/h
280 03-09-2004 08:07:59 13.5 C 9.94 g/m*3 13.5 C 0 km/h
281 03-09-2004 08:18:59 13.8 C 10.13 g/m*3 13.8 C 0 km/h
282 03-09-2004 08:31:00 13.8 C 10.01 g/m*3 13.8 C 0 km/h
283 03-09-2004 08:43:00 14.1 C 10.19 g/m*3 14.1 C 0 km/h
284 03-09-2004 08:55:00 14.8 C 10.64 g/m*3 14.8 C 0 km/h
285 03-09-2004 09:07:00 15.4 C 10.51 g/m*3 15.4 C 0 km/h
286 03-09-2004 09:19:00 15.2 C 10.25 g/m*3 15.2 C 0 km/h
287 03-09-2004 09:31:00 15.7 C 10.57 g/m*3 15.7 C 0 km/h
288 03-09-2004 09:43:00 15.7 C 10.3 g/m*3 15.7 C 0 km/h
289 03-09-2004 09:55:00 15.7 C 10.57 g/m*3 15.7 C 0 km/h
290 03-09-2004 10:07:00 16.3 C 10.41 g/m*3 16.3 C 0 km/h
291 03-09-2004 10:19:59 17.3 C 10.9 g/m*3 17.3 C 0 km/h
292 03-09-2004 10:31:59 18.2 C 10.57 g/m*3 18.2 C 0 km/h
293 03-09-2004 10:43:59 19.1 C 10.82 g/m*3 19.1 C 0 km/h
294 03-09-2004 10:55:59 19.7 C 11.21 g/m*3 19.7 C 0 km/h
295 03-09-2004 11:07:59 19.7 C 10.87 g/m*3 19.7 C 0 km/h
296 03-09-2004 11:19:59 20 C 11.58 g/m*3 20 C 0 km/h
297 03-09-2004 11:31:59 20.6 C 11.63 g/m*3 20.6 C 0 km/h
298 03-09-2004 11:43:59 21.1 C 11.98 g/m*3 21.1 C 0 km/h
299 03-09-2004 11:55:59 21.5 C 12.07 g/m*3 21.5 C 0 km/h
300 03-09-2004 12:07:59 22 C 12.42 g/m*3 22 C 0 km/h
Sensor: Nr:Datum:Temp:Abs-Feuchte:Windchill:Wind:
Aussen-T/F 301 03-09-2004 12:19:00 22.7 C 12.73 g/m*3 22.7 C 0 km/h
302 03-09-2004 12:31:00 22.9 C 12.47 g/m*3 22.9 C 0 km/h
303 03-09-2004 12:43:00 23.1 C 12.61 g/m*3 23.1 C 0 km/h
304 03-09-2004 12:55:00 23.4 C 13.25 g/m*3 23.4 C 0 km/h
305 03-09-2004 13:07:59 23.8 C 13.12 g/m*3 23.8 C 0 km/h
306 03-09-2004 13:19:59 24.3 C 13.28 g/m*3 24.3 C 0 km/h
307 03-09-2004 13:31:59 24.9 C 13.28 g/m*3 24.9 C 0 km/h
308 03-09-2004 13:43:59 25.5 C 11.84 g/m*3 25.5 C 0 km/h
309 03-09-2004 13:55:59 26.1 C 11.26 g/m*3 26.1 C 0 km/h
310 03-09-2004 14:07:59 26.5 C 12.02 g/m*3 26.5 C 0 km/h
311 03-09-2004 14:19:59 26.9 C 11.26 g/m*3 26.9 C 0 km/h
312 03-09-2004 14:31:59 27.6 C 10.64 g/m*3 27.6 C 0 km/h
313 03-09-2004 14:43:59 28.3 C 11.06 g/m*3 28.3 C 0 km/h
314 03-09-2004 14:55:59 28.6 C 11.24 g/m*3 28.6 C 0 km/h
315 03-09-2004 15:07:59 29.1 C 10.97 g/m*3 29.1 C 0 km/h
316 03-09-2004 15:19:59 29.6 C 11.28 g/m*3 29.6 C 0 km/h
317 03-09-2004 15:31:59 30 C 12.13 g/m*3 30 C 0 km/h
318 03-09-2004 15:43:59 30.2 C 11.96 g/m*3 30.2 C 0 km/h
319 03-09-2004 15:55:59 30.6 C 10.02 g/m*3 30.6 C 0 km/h
320 03-09-2004 16:07:58 30.6 C 10.65 g/m*3 30.6 C 0 km/h
321 03-09-2004 16:19:59 30.7 C 11.97 g/m*3 30.7 C 0 km/h
322 03-09-2004 16:31:59 30.4 C 12.39 g/m*3 30.4 C 0 km/h
323 03-09-2004 16:43:59 30.4 C 12.08 g/m*3 30.4 C 0 km/h
324 03-09-2004 16:55:59 28.9 C 12.86 g/m*3 28.9 C 0 km/h
325 03-09-2004 17:07:59 27.6 C 13.04 g/m*3 27.6 C 0 km/h
Sensor: Nr:Datum:Temp:Abs-Feuchte:Windchill:Wind:
Aussen-T/F 326 03-09-2004 17:19:59 27.5 C 12.7 g/m*3 27.5 C 0 km/h
327 03-09-2004 17:31:59 28.6 C 12.93 g/m*3 28.6 C 0 km/h
328 03-09-2004 17:43:59 29.3 C 12.85 g/m*3 29.3 C 0 km/h
329 03-09-2004 17:55:59 29.5 C 12.69 g/m*3 29.5 C 0 km/h
330 03-09-2004 18:07:59 29.4 C 12.62 g/m*3 29.4 C 0 km/h
331 03-09-2004 18:19:58 28.9 C 13.14 g/m*3 28.9 C 0 km/h
332 03-09-2004 18:31:58 28.6 C 12.65 g/m*3 28.6 C 0 km/h
333 03-09-2004 18:43:58 28.5 C 12.02 g/m*3 28.5 C 0 km/h
334 03-09-2004 18:55:58 28.6 C 12.65 g/m*3 28.6 C 0 km/h
335 03-09-2004 19:07:58 28.3 C 11.89 g/m*3 28.3 C 0 km/h
336 03-09-2004 19:19:58 27.5 C 12.7 g/m*3 27.5 C 0 km/h
337 03-09-2004 19:31:58 26.6 C 12.59 g/m*3 26.6 C 0 km/h
338 03-09-2004 19:43:58 25.6 C 13.09 g/m*3 25.6 C 0 km/h
339 03-09-2004 19:55:59 24 C 12.84 g/m*3 24 C 0 km/h
340 03-09-2004 20:07:59 23.5 C 13.11 g/m*3 23.5 C 0 km/h
341 03-09-2004 20:19:59 23.1 C 12.61 g/m*3 23.1 C 0 km/h
342 03-09-2004 20:31:59 22.7 C 12.73 g/m*3 22.7 C 0 km/h
343 03-09-2004 20:43:59 22.1 C 12.49 g/m*3 22.1 C 0 km/h
344 03-09-2004 20:55:59 21.9 C 12.93 g/m*3 21.9 C 0 km/h
345 03-09-2004 21:07:58 21.5 C 12.82 g/m*3 21.5 C 0 km/h
346 03-09-2004 21:19:58 21.3 C 12.68 g/m*3 21.3 C 0 km/h
347 03-09-2004 21:31:58 21.1 C 12.71 g/m*3 21.1 C 0 km/h
348 03-09-2004 21:43:58 21.1 C 12.53 g/m*3 21.1 C 0 km/h
349 03-09-2004 21:55:58 20.8 C 12.49 g/m*3 20.8 C 0 km/h
350 03-09-2004 22:07:58 20.7 C 12.78 g/m*3 20.7 C 0 km/h
Sensor: Nr:Datum:Temp:Abs-Feuchte:Windchill:Wind:
Aussen-T/F 351 03-09-2004 22:19:58 20.3 C 12.49 g/m*3 20.3 C 0 km/h
352 03-09-2004 22:31:58 20 C 12.44 g/m*3 20 C 0 km/h
353 03-09-2004 22:43:58 20 C 12.62 g/m*3 20 C 0 km/h
354 03-09-2004 22:55:58 19.7 C 12.57 g/m*3 19.7 C 0 km/h
355 03-09-2004 23:07:58 19.6 C 12.66 g/m*3 19.6 C 0 km/h
356 03-09-2004 23:19:58 19.4 C 12.51 g/m*3 19.4 C 0 km/h
357 03-09-2004 23:31:58 19.1 C 12.46 g/m*3 19.1 C 0 km/h
358 03-09-2004 23:43:58 18.9 C 12.64 g/m*3 18.9 C 0 km/h
359 03-09-2004 23:55:57 18.8 C 12.56 g/m*3 18.8 C 0 km/h
360 04-09-2004 00:07:58 18.6 C 12.57 g/m*3 18.6 C 0 km/h
361 04-09-2004 00:19:58 18.3 C 12.35 g/m*3 18.3 C 0 km/h
362 04-09-2004 00:31:57 18.2 C 12.43 g/m*3 18.2 C 0 km/h
363 04-09-2004 00:43:57 18.1 C 12.36 g/m*3 18.1 C 0 km/h
364 04-09-2004 00:55:58 18 C 12.44 g/m*3 18 C 0 km/h
365 04-09-2004 01:07:58 17.8 C 12.6 g/m*3 17.8 C 0 km/h
366 04-09-2004 01:19:58 17.7 C 12.52 g/m*3 17.7 C 0 km/h
367 04-09-2004 01:31:58 17.5 C 12.37 g/m*3 17.5 C 0 km/h
368 04-09-2004 01:43:58 17.5 C 12.37 g/m*3 17.5 C 0 km/h
369 04-09-2004 01:55:58 17.2 C 12.3 g/m*3 17.2 C 0 km/h
370 04-09-2004 02:07:58 17.1 C 12.23 g/m*3 17.1 C 0 km/h
371 04-09-2004 02:19:58 16.9 C 12.23 g/m*3 16.9 C 0 km/h
372 04-09-2004 02:31:58 16.8 C 12.15 g/m*3 16.8 C 0 km/h
373 04-09-2004 02:43:58 16.5 C 12.08 g/m*3 16.5 C 0 km/h
374 04-09-2004 02:56:00 16.5 C 12.08 g/m*3 16.5 C 0 km/h
375 04-09-2004 03:08:00 16.4 C 12 g/m*3 16.4 C 0 km/h
Sensor: Nr:Datum:Temp:Abs-Feuchte:Windchill:Wind:
Aussen-T/F 376 04-09-2004 03:20:59 16.3 C 11.93 g/m*3 16.3 C 0 km/h
377 04-09-2004 03:32:59 16.2 C 11.86 g/m*3 16.2 C 0 km/h
378 04-09-2004 03:44:59 16 C 11.72 g/m*3 16 C 0 km/h
379 04-09-2004 03:56:59 16 C 11.72 g/m*3 16 C 0 km/h
380 04-09-2004 04:08:59 15.9 C 11.78 g/m*3 15.9 C 0 km/h
381 04-09-2004 04:20:59 15.8 C 11.71 g/m*3 15.8 C 0 km/h
382 04-09-2004 04:32:59 15.6 C 11.44 g/m*3 15.6 C 0 km/h
383 04-09-2004 04:44:59 15.6 C 11.57 g/m*3 15.6 C 0 km/h
384 04-09-2004 04:57:00 15.4 C 11.43 g/m*3 15.4 C 0 km/h
385 04-09-2004 05:08:59 15.2 C 11.29 g/m*3 15.2 C 0 km/h
386 04-09-2004 05:20:59 15.2 C 11.29 g/m*3 15.2 C 0 km/h
387 04-09-2004 05:32:59 15.2 C 11.29 g/m*3 15.2 C 0 km/h
388 04-09-2004 05:44:58 15 C 11.28 g/m*3 15 C 0 km/h
389 04-09-2004 05:56:58 14.9 C 11.22 g/m*3 14.9 C 0 km/h
390 04-09-2004 06:08:58 14.7 C 11.21 g/m*3 14.7 C 0 km/h
391 04-09-2004 06:20:58 14.6 C 11.14 g/m*3 14.6 C 0 km/h
392 04-09-2004 06:32:59 14.7 C 11.21 g/m*3 14.7 C 0 km/h
393 04-09-2004 06:44:59 14.5 C 11.07 g/m*3 14.5 C 0 km/h
394 04-09-2004 06:56:59 14.2 C 10.99 g/m*3 14.2 C 0 km/h
395 04-09-2004 07:08:59 14.3 C 11.06 g/m*3 14.3 C 0 km/h
396 04-09-2004 07:20:59 14.3 C 11.06 g/m*3 14.3 C 0 km/h
397 04-09-2004 07:32:59 14.2 C 11.11 g/m*3 14.2 C 0 km/h
398 04-09-2004 07:44:59 14.5 C 11.32 g/m*3 14.5 C 0 km/h
399 04-09-2004 07:56:59 14.6 C 11.26 g/m*3 14.6 C 0 km/h
400 04-09-2004 08:08:59 15 C 11.41 g/m*3 15 C 0 km/h
Sensor: Nr:Datum:Temp:Abs-Feuchte:Windchill:Wind:
Aussen-T/F 401 04-09-2004 08:20:59 14.9 C 11.22 g/m*3 14.9 C 0 km/h
402 04-09-2004 08:32:58 15.4 C 11.43 g/m*3 15.4 C 0 km/h
403 04-09-2004 08:43:59 15.5 C 11.24 g/m*3 15.5 C 0 km/h
404 04-09-2004 08:55:59 15.4 C 11.04 g/m*3 15.4 C 0 km/h
405 04-09-2004 09:08:58 15.6 C 11.17 g/m*3 15.6 C 0 km/h
406 04-09-2004 09:20:58 16 C 11.31 g/m*3 16 C 0 km/h
407 04-09-2004 09:32:58 16.4 C 11.45 g/m*3 16.4 C 0 km/h
408 04-09-2004 09:44:58 16.7 C 11.37 g/m*3 16.7 C 0 km/h
409 04-09-2004 09:56:58 17.2 C 11.57 g/m*3 17.2 C 0 km/h
410 04-09-2004 10:08:58 17 C 11.43 g/m*3 17 C 0 km/h
411 04-09-2004 10:20:59 17.3 C 11.79 g/m*3 17.3 C 0 km/h
412 04-09-2004 10:32:59 17.8 C 11.99 g/m*3 17.8 C 0 km/h
413 04-09-2004 10:44:59 18.2 C 12.12 g/m*3 18.2 C 0 km/h
414 04-09-2004 10:56:59 18.7 C 12.33 g/m*3 18.7 C 0 km/h
415 04-09-2004 11:08:59 19.2 C 12.37 g/m*3 19.2 C 0 km/h
416 04-09-2004 11:20:59 19.8 C 12.47 g/m*3 19.8 C 0 km/h
417 04-09-2004 11:32:00 20.5 C 12.63 g/m*3 20.5 C 0 km/h
418 04-09-2004 11:44:00 21.3 C 12.12 g/m*3 21.3 C 0 km/h
419 04-09-2004 11:56:58 21.9 C 13.12 g/m*3 21.9 C 0 km/h
420 04-09-2004 12:08:58 22.6 C 12.86 g/m*3 22.6 C 0 km/h
421 04-09-2004 12:20:58 23.2 C 13.1 g/m*3 23.2 C 0 km/h
422 04-09-2004 12:32:58 23.6 C 13.4 g/m*3 23.6 C 0 km/h
423 04-09-2004 12:44:58 24 C 13.05 g/m*3 24 C 0 km/h
424 04-09-2004 12:56:58 24.6 C 13.95 g/m*3 24.6 C 0 km/h
425 04-09-2004 13:08:58 24.8 C 12.97 g/m*3 24.8 C 0 km/h
Sensor: Nr:Datum:Temp:Abs-Feuchte:Windchill:Wind:
Aussen-T/F 426 04-09-2004 13:20:58 25.4 C 13.18 g/m*3 25.4 C 0 km/h
427 04-09-2004 13:32:58 25.8 C 12.52 g/m*3 25.8 C 0 km/h
428 04-09-2004 13:44:58 26 C 12.17 g/m*3 26 C 0 km/h
429 04-09-2004 13:56:58 26.6 C 12.84 g/m*3 26.6 C 0 km/h
430 04-09-2004 14:08:58 27.2 C 12.49 g/m*3 27.2 C 0 km/h
431 04-09-2004 14:20:58 27.8 C 13.72 g/m*3 27.8 C 0 km/h
432 04-09-2004 14:32:58 28.2 C 12.65 g/m*3 28.2 C 0 km/h
433 04-09-2004 14:44:58 28.6 C 12.65 g/m*3 28.6 C 0 km/h
434 04-09-2004 14:56:58 29.4 C 13.21 g/m*3 29.4 C 0 km/h
435 04-09-2004 15:08:58 29.4 C 12.33 g/m*3 29.4 C 0 km/h
436 04-09-2004 15:20:58 30 C 12.13 g/m*3 30 C 0 km/h
437 04-09-2004 15:32:58 30.1 C 11.89 g/m*3 30.1 C 0 km/h
438 04-09-2004 15:44:58 30.2 C 11.96 g/m*3 30.2 C 0 km/h
439 04-09-2004 15:56:58 30.6 C 10.96 g/m*3 30.6 C 0 km/h
440 04-09-2004 16:08:57 30.6 C 10.65 g/m*3 30.6 C 0 km/h
441 04-09-2004 16:20:57 30.6 C 10.65 g/m*3 30.6 C 0 km/h
442 04-09-2004 16:32:57 30.7 C 11.34 g/m*3 30.7 C 0 km/h
443 04-09-2004 16:44:57 30.7 C 10.39 g/m*3 30.7 C 0 km/h
444 04-09-2004 16:56:57 30.8 C 10.13 g/m*3 30.8 C 0 km/h
445 04-09-2004 17:08:58 31 C 11.52 g/m*3 31 C 0 km/h
446 04-09-2004 17:20:58 31.2 C 11.32 g/m*3 31.2 C 0 km/h
447 04-09-2004 17:32:58 30.9 C 10.19 g/m*3 30.9 C 0 km/h
448 04-09-2004 17:44:58 30.9 C 10.82 g/m*3 30.9 C 0 km/h
449 04-09-2004 17:56:58 30 C 9.7 g/m*3 30 C 0 km/h
450 04-09-2004 18:08:58 30.1 C 10.67 g/m*3 30.1 C 0 km/h
Sensor: Nr:Datum:Temp:Abs-Feuchte:Windchill:Wind:
Aussen-T/F 451 04-09-2004 18:20:58 30.2 C 10.73 g/m*3 30.2 C 0 km/h
452 04-09-2004 18:32:58 30 C 11.22 g/m*3 30 C 0 km/h
453 04-09-2004 18:44:57 29.8 C 11.7 g/m*3 29.8 C 0 km/h
454 04-09-2004 18:56:57 29 C 11.49 g/m*3 29 C 0 km/h
455 04-09-2004 19:08:57 27.6 C 11.97 g/m*3 27.6 C 0 km/h
456 04-09-2004 19:20:57 26.9 C 12.29 g/m*3 26.9 C 0 km/h
457 04-09-2004 19:32:57 25.7 C 12.45 g/m*3 25.7 C 0 km/h
458 04-09-2004 19:44:57 24.8 C 12.52 g/m*3 24.8 C 0 km/h
459 04-09-2004 19:56:57 24.1 C 12.25 g/m*3 24.1 C 0 km/h
460 04-09-2004 20:08:57 23.3 C 11.92 g/m*3 23.3 C 0 km/h
461 04-09-2004 20:20:57 23.1 C 12.2 g/m*3 23.1 C 0 km/h
462 04-09-2004 20:32:57 22.6 C 12.25 g/m*3 22.6 C 0 km/h
463 04-09-2004 20:44:58 22.2 C 12.17 g/m*3 22.2 C 0 km/h
464 04-09-2004 20:56:58 22 C 12.42 g/m*3 22 C 0 km/h
465 04-09-2004 21:08:58 22.1 C 12.49 g/m*3 22.1 C 0 km/h
466 04-09-2004 21:20:58 21.7 C 12.78 g/m*3 21.7 C 0 km/h
467 04-09-2004 21:32:57 21.7 C 12.97 g/m*3 21.7 C 0 km/h
468 04-09-2004 21:44:57 21.4 C 12.94 g/m*3 21.4 C 0 km/h
469 04-09-2004 21:56:57 21.3 C 13.05 g/m*3 21.3 C 0 km/h
470 04-09-2004 22:08:57 20.9 C 12.93 g/m*3 20.9 C 0 km/h
471 04-09-2004 22:20:57 20.8 C 13.04 g/m*3 20.8 C 0 km/h
472 04-09-2004 22:32:57 20.6 C 13.07 g/m*3 20.6 C 0 km/h
473 04-09-2004 22:44:57 20.4 C 12.91 g/m*3 20.4 C 0 km/h
474 04-09-2004 22:56:57 20.3 C 13.01 g/m*3 20.3 C 0 km/h
475 04-09-2004 23:08:57 20 C 12.96 g/m*3 20 C 0 km/h
Sensor: Nr:Datum:Temp:Abs-Feuchte:Windchill:Wind:
Aussen-T/F 476 04-09-2004 23:20:57 19.8 C 13.15 g/m*3 19.8 C 0 km/h
477 04-09-2004 23:32:57 19.7 C 13.08 g/m*3 19.7 C 0 km/h
478 04-09-2004 23:44:57 19.4 C 12.85 g/m*3 19.4 C 0 km/h
479 04-09-2004 23:56:57 19.3 C 12.94 g/m*3 19.3 C 0 km/h
480 05-09-2004 00:08:57 19.1 C 12.95 g/m*3 19.1 C 0 km/h
481 05-09-2004 00:20:58 18.9 C 12.96 g/m*3 18.9 C 0 km/h
482 05-09-2004 00:32:57 18.8 C 13.05 g/m*3 18.8 C 0 km/h
483 05-09-2004 00:44:57 18.6 C 12.89 g/m*3 18.6 C 0 km/h
484 05-09-2004 00:56:57 18.5 C 12.82 g/m*3 18.5 C 0 km/h
485 05-09-2004 01:08:57 18.3 C 12.66 g/m*3 18.3 C 0 km/h
486 05-09-2004 01:20:56 18.2 C 12.59 g/m*3 18.2 C 0 km/h
487 05-09-2004 01:32:56 18.1 C 12.52 g/m*3 18.1 C 0 km/h
488 05-09-2004 01:44:56 17.9 C 12.67 g/m*3 17.9 C 0 km/h
489 05-09-2004 01:56:56 17.7 C 12.52 g/m*3 17.7 C 0 km/h
490 05-09-2004 02:08:56 17.6 C 12.45 g/m*3 17.6 C 0 km/h
491 05-09-2004 02:20:57 17.5 C 12.37 g/m*3 17.5 C 0 km/h
492 05-09-2004 02:32:57 17.3 C 12.23 g/m*3 17.3 C 0 km/h
493 05-09-2004 02:45:58 17.2 C 12.3 g/m*3 17.2 C 0 km/h
494 05-09-2004 02:57:58 17.1 C 12.08 g/m*3 17.1 C 0 km/h
495 05-09-2004 03:09:58 17 C 12.15 g/m*3 17 C 0 km/h
496 05-09-2004 03:21:58 16.7 C 12.22 g/m*3 16.7 C 0 km/h
497 05-09-2004 03:33:58 16.6 C 12.15 g/m*3 16.6 C 0 km/h
498 05-09-2004 03:45:58 16.6 C 12.01 g/m*3 16.6 C 0 km/h
499 05-09-2004 03:57:58 16.5 C 12.08 g/m*3 16.5 C 0 km/h
500 05-09-2004 04:09:58 16.4 C 12 g/m*3 16.4 C 0 km/h
Sensor: Nr:Datum:Temp:Abs-Feuchte:Windchill:Wind:
Aussen-T/F 501 05-09-2004 04:21:58 16.4 C 12 g/m*3 16.4 C 0 km/h
502 05-09-2004 04:33:58 16.2 C 11.86 g/m*3 16.2 C 0 km/h
503 05-09-2004 04:45:58 16 C 11.72 g/m*3 16 C 0 km/h
504 05-09-2004 04:57:58 15.9 C 11.78 g/m*3 15.9 C 0 km/h
505 05-09-2004 05:09:58 15.8 C 11.85 g/m*3 15.8 C 0 km/h
506 05-09-2004 05:21:58 15.8 C 11.85 g/m*3 15.8 C 0 km/h
507 05-09-2004 05:33:58 15.6 C 11.7 g/m*3 15.6 C 0 km/h
508 05-09-2004 05:45:58 15.5 C 11.63 g/m*3 15.5 C 0 km/h
509 05-09-2004 05:57:58 15.5 C 11.63 g/m*3 15.5 C 0 km/h
510 05-09-2004 06:09:58 15.3 C 11.36 g/m*3 15.3 C 0 km/h
511 05-09-2004 06:21:58 15.2 C 11.29 g/m*3 15.2 C 0 km/h
512 05-09-2004 06:33:58 15.1 C 11.35 g/m*3 15.1 C 0 km/h
513 05-09-2004 06:45:57 15.1 C 11.48 g/m*3 15.1 C 0 km/h
514 05-09-2004 06:57:57 15.2 C 11.55 g/m*3 15.2 C 0 km/h
515 05-09-2004 07:09:57 15.4 C 11.69 g/m*3 15.4 C 0 km/h
516 05-09-2004 07:21:58 15.6 C 11.7 g/m*3 15.6 C 0 km/h
517 05-09-2004 07:33:58 15.8 C 11.85 g/m*3 15.8 C 0 km/h
518 05-09-2004 07:45:58 15.9 C 12.05 g/m*3 15.9 C 0 km/h
519 05-09-2004 07:57:59 15.8 C 11.98 g/m*3 15.8 C 0 km/h
520 05-09-2004 08:09:58 16.1 C 12.2 g/m*3 16.1 C 0 km/h
521 05-09-2004 08:21:58 16.5 C 12.5 g/m*3 16.5 C 0 km/h
522 05-09-2004 08:33:58 16.8 C 12.44 g/m*3 16.8 C 0 km/h
523 05-09-2004 08:45:58 16.9 C 12.37 g/m*3 16.9 C 0 km/h
524 05-09-2004 08:57:58 17.1 C 12.37 g/m*3 17.1 C 0 km/h
525 05-09-2004 09:09:58 17.2 C 12.3 g/m*3 17.2 C 0 km/h
Sensor: Nr:Datum:Temp:Abs-Feuchte:Windchill:Wind:
Aussen-T/F 526 05-09-2004 09:21:57 17.4 C 12.45 g/m*3 17.4 C 0 km/h
527 05-09-2004 09:33:57 17.6 C 12.6 g/m*3 17.6 C 0 km/h
528 05-09-2004 09:45:57 17.7 C 12.52 g/m*3 17.7 C 0 km/h
529 05-09-2004 09:57:57 18.1 C 12.67 g/m*3 18.1 C 0 km/h
530 05-09-2004 10:09:57 18.3 C 12.66 g/m*3 18.3 C 0 km/h
531 05-09-2004 10:21:57 18.2 C 12.43 g/m*3 18.2 C 0 km/h
532 05-09-2004 10:33:57 18.1 C 12.98 g/m*3 18.1 C 0 km/h
533 05-09-2004 10:45:57 18.7 C 13.29 g/m*3 18.7 C 0 km/h
534 05-09-2004 10:57:57 19.6 C 13.51 g/m*3 19.6 C 0 km/h
535 05-09-2004 11:09:57 20.3 C 13.37 g/m*3 20.3 C 0 km/h
536 05-09-2004 11:21:58 21.2 C 13.53 g/m*3 21.2 C 0 km/h
537 05-09-2004 11:33:58 21.8 C 13.43 g/m*3 21.8 C 0 km/h
538 05-09-2004 11:45:57 22.3 C 13.62 g/m*3 22.3 C 0 km/h
539 05-09-2004 11:57:57 22.9 C 14.1 g/m*3 22.9 C 0 km/h
540 05-09-2004 12:09:57 23.5 C 14.38 g/m*3 23.5 C 0 km/h
541 05-09-2004 12:21:57 24.2 C 13.86 g/m*3 24.2 C 0 km/h
542 05-09-2004 12:33:57 24.6 C 14.18 g/m*3 24.6 C 0 km/h
543 05-09-2004 12:45:57 24.9 C 14.42 g/m*3 24.9 C 0 km/h
544 05-09-2004 12:57:57 25.1 C 14.12 g/m*3 25.1 C 0 km/h
545 05-09-2004 13:09:57 25.8 C 13.96 g/m*3 25.8 C 0 km/h
546 05-09-2004 13:21:57 26.6 C 13.84 g/m*3 26.6 C 0 km/h
547 05-09-2004 13:33:57 26.8 C 13.74 g/m*3 26.8 C 0 km/h
548 05-09-2004 13:45:57 27.5 C 12.17 g/m*3 27.5 C 0 km/h
549 05-09-2004 13:57:57 27.9 C 11.63 g/m*3 27.9 C 0 km/h
550 05-09-2004 14:09:57 28.2 C 11.27 g/m*3 28.2 C 0 km/h
Sensor: Nr:Datum:Temp:Abs-Feuchte:Windchill:Wind:
Aussen-T/F 551 05-09-2004 14:21:57 28.8 C 10.51 g/m*3 28.8 C 0 km/h
552 05-09-2004 14:33:56 29.4 C 10.57 g/m*3 29.4 C 0 km/h
553 05-09-2004 14:45:56 29.4 C 10.57 g/m*3 29.4 C 0 km/h
554 05-09-2004 14:57:56 29.9 C 11.46 g/m*3 29.9 C 0 km/h
555 05-09-2004 15:09:56 30.1 C 10.98 g/m*3 30.1 C 0 km/h
556 05-09-2004 15:21:57 30.3 C 10.17 g/m*3 30.3 C 0 km/h
557 05-09-2004 15:33:57 30.4 C 10.54 g/m*3 30.4 C 0 km/h
558 05-09-2004 15:45:57 30.3 C 10.48 g/m*3 30.3 C 0 km/h
559 05-09-2004 15:57:57 30 C 11.83 g/m*3 30 C 0 km/h
560 05-09-2004 16:09:57 30.4 C 9.92 g/m*3 30.4 C 0 km/h
561 05-09-2004 16:21:57 31 C 9.6 g/m*3 31 C 0 km/h
562 05-09-2004 16:33:57 31.3 C 9.76 g/m*3 31.3 C 0 km/h
563 05-09-2004 16:45:57 31.2 C 9.06 g/m*3 31.2 C 0 km/h
564 05-09-2004 16:57:57 31 C 9.92 g/m*3 31 C 0 km/h
565 05-09-2004 17:09:57 31 C 9.92 g/m*3 31 C 0 km/h
566 05-09-2004 17:21:56 31 C 9.92 g/m*3 31 C 0 km/h
567 05-09-2004 17:33:56 30.7 C 9.76 g/m*3 30.7 C 0 km/h
568 05-09-2004 17:45:56 30.8 C 9.81 g/m*3 30.8 C 0 km/h
569 05-09-2004 17:57:56 30.8 C 10.13 g/m*3 30.8 C 0 km/h
570 05-09-2004 18:09:56 30.7 C 10.39 g/m*3 30.7 C 0 km/h
571 05-09-2004 18:21:56 30.4 C 11.47 g/m*3 30.4 C 0 km/h
572 05-09-2004 18:33:56 30.1 C 11.59 g/m*3 30.1 C 0 km/h
573 05-09-2004 18:45:56 29.7 C 11.93 g/m*3 29.7 C 0 km/h
574 05-09-2004 18:57:57 29.3 C 11.68 g/m*3 29.3 C 0 km/h
575 05-09-2004 19:09:57 28.6 C 11.52 g/m*3 28.6 C 0 km/h
Sensor: Nr:Datum:Temp:Abs-Feuchte:Windchill:Wind:
Aussen-T/F 576 05-09-2004 19:21:57 27.6 C 11.17 g/m*3 27.6 C 0 km/h
577 05-09-2004 19:33:57 26.6 C 11.33 g/m*3 26.6 C 0 km/h
578 05-09-2004 19:45:56 25.6 C 10.95 g/m*3 25.6 C 0 km/h
579 05-09-2004 19:57:56 24.8 C 10.93 g/m*3 24.8 C 0 km/h
580 05-09-2004 20:09:56 24.2 C 10.78 g/m*3 24.2 C 0 km/h
581 05-09-2004 20:21:56 23.5 C 11 g/m*3 23.5 C 0 km/h
582 05-09-2004 20:33:56 22.9 C 11.04 g/m*3 22.9 C 0 km/h
583 05-09-2004 20:45:56 22.1 C 10.74 g/m*3 22.1 C 0 km/h
584 05-09-2004 20:57:56 22 C 10.87 g/m*3 22 C 0 km/h
585 05-09-2004 21:09:56 21.5 C 11.13 g/m*3 21.5 C 0 km/h
586 05-09-2004 21:21:56 21.3 C 11 g/m*3 21.3 C 0 km/h
587 05-09-2004 21:33:56 21 C 10.81 g/m*3 21 C 0 km/h
588 05-09-2004 21:45:56 20.9 C 11.29 g/m*3 20.9 C 0 km/h
589 05-09-2004 21:57:56 20.4 C 10.97 g/m*3 20.4 C 0 km/h
590 05-09-2004 22:09:56 20 C 11.41 g/m*3 20 C 0 km/h
591 05-09-2004 22:21:56 19.7 C 11.55 g/m*3 19.7 C 0 km/h
592 05-09-2004 22:33:55 19.5 C 11.41 g/m*3 19.5 C 0 km/h
593 05-09-2004 22:45:56 19.3 C 11.61 g/m*3 19.3 C 0 km/h
594 05-09-2004 22:57:56 19.1 C 11.64 g/m*3 19.1 C 0 km/h
595 05-09-2004 23:09:56 18.9 C 11.66 g/m*3 18.9 C 0 km/h
596 05-09-2004 23:21:56 18.6 C 11.46 g/m*3 18.6 C 0 km/h
597 05-09-2004 23:33:56 18.5 C 11.39 g/m*3 18.5 C 0 km/h
598 05-09-2004 23:45:56 18.3 C 11.41 g/m*3 18.3 C 0 km/h
599 05-09-2004 23:57:56 18.1 C 11.43 g/m*3 18.1 C 0 km/h
600 06-09-2004 00:09:56 18.2 C 11.35 g/m*3 18.2 C 0 km/h
Sensor: Nr:Datum:Temp:Abs-Feuchte:Windchill:Wind:
Aussen-T/F 601 06-09-2004 00:21:56 17.8 C 10.93 g/m*3 17.8 C 0 km/h
602 06-09-2004 00:33:55 17.5 C 11.03 g/m*3 17.5 C 0 km/h
603 06-09-2004 00:45:56 17.2 C 10.98 g/m*3 17.2 C 0 km/h
604 06-09-2004 00:57:56 17 C 10.71 g/m*3 17 C 0 km/h
605 06-09-2004 01:09:56 16.8 C 10.87 g/m*3 16.8 C 0 km/h
606 06-09-2004 01:21:56 16.5 C 10.81 g/m*3 16.5 C 0 km/h
607 06-09-2004 01:33:56 16.3 C 10.82 g/m*3 16.3 C 0 km/h
608 06-09-2004 01:45:56 16.1 C 10.69 g/m*3 16.1 C 0 km/h
609 06-09-2004 01:57:56 16 C 10.63 g/m*3 16 C 0 km/h
610 06-09-2004 02:09:56 15.9 C 10.7 g/m*3 15.9 C 0 km/h
611 06-09-2004 02:21:56 15.8 C 10.5 g/m*3 15.8 C 0 km/h
612 06-09-2004 02:33:55 15.7 C 10.57 g/m*3 15.7 C 0 km/h
613 06-09-2004 02:46:57 15.6 C 10.51 g/m*3 15.6 C 0 km/h
614 06-09-2004 02:58:57 15.4 C 10.38 g/m*3 15.4 C 0 km/h
615 06-09-2004 03:10:57 15.1 C 10.06 g/m*3 15.1 C 0 km/h
616 06-09-2004 03:22:57 14.9 C 10.2 g/m*3 14.9 C 0 km/h
617 06-09-2004 03:34:57 14.8 C 10.13 g/m*3 14.8 C 0 km/h
618 06-09-2004 03:46:57 14.6 C 10.01 g/m*3 14.6 C 0 km/h
619 06-09-2004 03:58:57 14.4 C 9.77 g/m*3 14.4 C 0 km/h
620 06-09-2004 04:10:57 14.4 C 9.89 g/m*3 14.4 C 0 km/h
621 06-09-2004 04:22:57 14.3 C 9.83 g/m*3 14.3 C 0 km/h
622 06-09-2004 04:34:57 14.1 C 9.71 g/m*3 14.1 C 0 km/h
623 06-09-2004 04:46:57 14.1 C 9.83 g/m*3 14.1 C 0 km/h
624 06-09-2004 04:58:57 13.8 C 9.65 g/m*3 13.8 C 0 km/h
625 06-09-2004 05:10:57 13.8 C 9.77 g/m*3 13.8 C 0 km/h
Sensor: Nr:Datum:Temp:Abs-Feuchte:Windchill:Wind:
Aussen-T/F 626 06-09-2004 05:22:56 13.8 C 9.77 g/m*3 13.8 C 0 km/h
627 06-09-2004 05:34:56 13.6 C 9.65 g/m*3 13.6 C 0 km/h
628 06-09-2004 05:46:56 13.6 C 9.65 g/m*3 13.6 C 0 km/h
629 06-09-2004 05:58:56 13.5 C 9.71 g/m*3 13.5 C 0 km/h
630 06-09-2004 06:10:56 13.4 C 9.65 g/m*3 13.4 C 0 km/h
631 06-09-2004 06:22:56 13.4 C 9.76 g/m*3 13.4 C 0 km/h
632 06-09-2004 06:34:57 13.1 C 9.59 g/m*3 13.1 C 0 km/h
633 06-09-2004 06:46:57 13.2 C 9.64 g/m*3 13.2 C 0 km/h
634 06-09-2004 06:58:57 13 C 9.64 g/m*3 13 C 0 km/h
635 06-09-2004 07:10:57 13 C 9.64 g/m*3 13 C 0 km/h
636 06-09-2004 07:22:57 12.9 C 9.81 g/m*3 12.9 C 0 km/h
637 06-09-2004 07:34:57 12.9 C 9.81 g/m*3 12.9 C 0 km/h
638 06-09-2004 07:46:57 12.9 C 9.81 g/m*3 12.9 C 0 km/h
639 06-09-2004 07:58:57 12.9 C 9.92 g/m*3 12.9 C 0 km/h
640 06-09-2004 08:10:56 13 C 9.87 g/m*3 13 C 0 km/h
641 06-09-2004 08:22:56 13.3 C 10.05 g/m*3 13.3 C 0 km/h
642 06-09-2004 08:34:56 13.3 C 10.05 g/m*3 13.3 C 0 km/h
643 06-09-2004 08:46:56 13.3 C 10.05 g/m*3 13.3 C 0 km/h
644 06-09-2004 08:58:56 13.7 C 10.3 g/m*3 13.7 C 0 km/h
645 06-09-2004 09:10:56 13.9 C 10.43 g/m*3 13.9 C 0 km/h
646 06-09-2004 09:22:56 14.2 C 10.5 g/m*3 14.2 C 0 km/h
647 06-09-2004 09:34:56 14.6 C 10.76 g/m*3 14.6 C 0 km/h
648 06-09-2004 09:46:56 15.2 C 10.9 g/m*3 15.2 C 0 km/h
649 06-09-2004 09:58:56 15.9 C 10.97 g/m*3 15.9 C 0 km/h
650 06-09-2004 10:10:56 16.5 C 11.09 g/m*3 16.5 C 0 km/h
Sensor: Nr:Datum:Temp:Abs-Feuchte:Windchill:Wind:
Aussen-T/F 651 06-09-2004 10:22:57 17 C 11.29 g/m*3 17 C 0 km/h
652 06-09-2004 10:34:57 17.5 C 11.48 g/m*3 17.5 C 0 km/h
653 06-09-2004 10:46:56 18.3 C 11.57 g/m*3 18.3 C 0 km/h
654 06-09-2004 10:58:56 18.8 C 11.76 g/m*3 18.8 C 0 km/h
655 06-09-2004 11:10:56 19.3 C 11.61 g/m*3 19.3 C 0 km/h
656 06-09-2004 11:22:56 19.8 C 11.79 g/m*3 19.8 C 0 km/h
657 06-09-2004 11:34:56 20.4 C 11.68 g/m*3 20.4 C 0 km/h
658 06-09-2004 11:46:56 21.4 C 11.62 g/m*3 21.4 C 0 km/h
659 06-09-2004 11:58:56 22.1 C 11.52 g/m*3 22.1 C 0 km/h
660 06-09-2004 12:10:56 22.7 C 11.52 g/m*3 22.7 C 0 km/h
661 06-09-2004 12:22:56 23 C 12.33 g/m*3 23 C 0 km/h
662 06-09-2004 12:34:56 23.2 C 11.23 g/m*3 23.2 C 0 km/h
663 06-09-2004 12:46:56 23.8 C 10.97 g/m*3 23.8 C 0 km/h
664 06-09-2004 12:58:56 24 C 10.01 g/m*3 24 C 0 km/h
665 06-09-2004 13:10:56 24.5 C 9.4 g/m*3 24.5 C 0 km/h
666 06-09-2004 13:22:56 24.8 C 9.33 g/m*3 24.8 C 0 km/h
667 06-09-2004 13:34:55 25.2 C 9.08 g/m*3 25.2 C 0 km/h
668 06-09-2004 13:46:55 25.8 C 9.63 g/m*3 25.8 C 0 km/h
669 06-09-2004 13:58:55 26.4 C 9.21 g/m*3 26.4 C 0 km/h
670 06-09-2004 14:10:55 26.5 C 9.01 g/m*3 26.5 C 0 km/h
671 06-09-2004 14:22:56 27.2 C 9.37 g/m*3 27.2 C 0 km/h
672 06-09-2004 14:34:56 27.4 C 8.42 g/m*3 27.4 C 0 km/h
673 06-09-2004 14:46:56 27.8 C 8.34 g/m*3 27.8 C 0 km/h
674 06-09-2004 14:58:56 28.4 C 8.9 g/m*3 28.4 C 0 km/h
675 06-09-2004 15:10:56 28.9 C 8.57 g/m*3 28.9 C 0 km/h
Sensor: Nr:Datum:Temp:Abs-Feuchte:Windchill:Wind:
Aussen-T/F 676 06-09-2004 15:22:56 29.4 C 8.51 g/m*3 29.4 C 0 km/h
677 06-09-2004 15:34:56 29.4 C 8.81 g/m*3 29.4 C 0 km/h
678 06-09-2004 15:46:56 29.5 C 8.56 g/m*3 29.5 C 0 km/h
679 06-09-2004 15:58:56 30 C 8.79 g/m*3 30 C 0 km/h
680 06-09-2004 16:10:56 30.3 C 8.63 g/m*3 30.3 C 0 km/h
681 06-09-2004 16:22:55 30.6 C 8.14 g/m*3 30.6 C 0 km/h
682 06-09-2004 16:34:55 30.3 C 8.63 g/m*3 30.3 C 0 km/h
683 06-09-2004 16:46:55 30.4 C 8.37 g/m*3 30.4 C 0 km/h
684 06-09-2004 16:58:55 30.6 C 8.46 g/m*3 30.6 C 0 km/h
685 06-09-2004 17:10:56 30.9 C 8.59 g/m*3 30.9 C 0 km/h
686 06-09-2004 17:22:55 30.7 C 8.19 g/m*3 30.7 C 0 km/h
687 06-09-2004 17:34:55 30.9 C 8.59 g/m*3 30.9 C 0 km/h
688 06-09-2004 17:46:55 30.6 C 8.46 g/m*3 30.6 C 0 km/h
689 06-09-2004 17:58:55 30.7 C 8.5 g/m*3 30.7 C 0 km/h
690 06-09-2004 18:10:56 30.7 C 9.45 g/m*3 30.7 C 0 km/h
691 06-09-2004 18:22:56 30.3 C 8.94 g/m*3 30.3 C 0 km/h
692 06-09-2004 18:34:56 30.1 C 9.45 g/m*3 30.1 C 0 km/h
693 06-09-2004 18:46:56 29.6 C 8.9 g/m*3 29.6 C 0 km/h
694 06-09-2004 18:58:56 29.1 C 10.11 g/m*3 29.1 C 0 km/h
695 06-09-2004 19:10:55 28.2 C 10.17 g/m*3 28.2 C 0 km/h
696 06-09-2004 19:22:55 27.3 C 10.2 g/m*3 27.3 C 0 km/h
697 06-09-2004 19:34:56 26.4 C 10.21 g/m*3 26.4 C 0 km/h
698 06-09-2004 19:46:55 25.2 C 10.24 g/m*3 25.2 C 0 km/h
699 06-09-2004 19:58:55 24.3 C 10.4 g/m*3 24.3 C 0 km/h
700 06-09-2004 20:10:55 23.7 C 10.91 g/m*3 23.7 C 0 km/h
Sensor: Nr:Datum:Temp:Abs-Feuchte:Windchill:Wind:
Aussen-T/F 701 06-09-2004 20:22:55 22.6 C 10.65 g/m*3 22.6 C 0 km/h
702 06-09-2004 20:34:55 22.1 C 10.54 g/m*3 22.1 C 0 km/h
703 06-09-2004 20:46:55 21.5 C 10.94 g/m*3 21.5 C 0 km/h
704 06-09-2004 20:58:55 21.3 C 10.81 g/m*3 21.3 C 0 km/h
705 06-09-2004 21:10:55 21.2 C 10.93 g/m*3 21.2 C 0 km/h
706 06-09-2004 21:22:55 20.9 C 11.11 g/m*3 20.9 C 0 km/h
707 06-09-2004 21:34:55 20.7 C 10.98 g/m*3 20.7 C 0 km/h
708 06-09-2004 21:46:55 20.4 C 10.61 g/m*3 20.4 C 0 km/h
709 06-09-2004 21:58:55 20 C 10.37 g/m*3 20 C 0 km/h
710 06-09-2004 22:10:55 20 C 10.71 g/m*3 20 C 0 km/h
711 06-09-2004 22:22:55 19.7 C 10.7 g/m*3 19.7 C 0 km/h
712 06-09-2004 22:34:55 19.5 C 10.74 g/m*3 19.5 C 0 km/h
713 06-09-2004 22:46:55 19.2 C 10.72 g/m*3 19.2 C 0 km/h
714 06-09-2004 22:58:55 19.1 C 10.66 g/m*3 19.1 C 0 km/h
715 06-09-2004 23:10:55 18.9 C 10.85 g/m*3 18.9 C 0 km/h
716 06-09-2004 23:22:55 18.6 C 10.82 g/m*3 18.6 C 0 km/h
717 06-09-2004 23:34:55 18.4 C 10.54 g/m*3 18.4 C 0 km/h
718 06-09-2004 23:46:55 18.1 C 10.97 g/m*3 18.1 C 0 km/h
719 06-09-2004 23:58:55 18.2 C 10.72 g/m*3 18.2 C 0 km/h
720 07-09-2004 00:10:55 18.3 C 11.1 g/m*3 18.3 C 0 km/h
721 07-09-2004 00:22:55 17.9 C 10.84 g/m*3 17.9 C 0 km/h
722 07-09-2004 00:34:55 17.6 C 10.65 g/m*3 17.6 C 0 km/h
723 07-09-2004 00:46:55 17.6 C 10.8 g/m*3 17.6 C 0 km/h
724 07-09-2004 00:58:56 17.5 C 10.73 g/m*3 17.5 C 0 km/h
725 07-09-2004 01:10:55 17.4 C 10.97 g/m*3 17.4 C 0 km/h
Sensor: Nr:Datum:Temp:Abs-Feuchte:Windchill:Wind:
Aussen-T/F 726 07-09-2004 01:22:55 17.3 C 10.9 g/m*3 17.3 C 0 km/h
727 07-09-2004 01:34:55 17.3 C 10.75 g/m*3 17.3 C 0 km/h
728 07-09-2004 01:46:55 17 C 10.56 g/m*3 17 C 0 km/h
729 07-09-2004 01:58:55 16.8 C 10.72 g/m*3 16.8 C 0 km/h
730 07-09-2004 02:10:55 16.5 C 10.53 g/m*3 16.5 C 0 km/h
731 07-09-2004 02:22:54 16.4 C 10.61 g/m*3 16.4 C 0 km/h
732 07-09-2004 02:34:54 16.1 C 10.42 g/m*3 16.1 C 0 km/h
733 07-09-2004 02:47:56 15.9 C 10.56 g/m*3 15.9 C 0 km/h
734 07-09-2004 02:59:56 15.8 C 10.5 g/m*3 15.8 C 0 km/h
735 07-09-2004 03:11:56 15.8 C 10.63 g/m*3 15.8 C 0 km/h
736 07-09-2004 03:23:56 15.6 C 10.64 g/m*3 15.6 C 0 km/h
737 07-09-2004 03:35:56 15.3 C 10.45 g/m*3 15.3 C 0 km/h
738 07-09-2004 03:47:56 15.2 C 10.64 g/m*3 15.2 C 0 km/h
739 07-09-2004 03:59:57 15.1 C 10.45 g/m*3 15.1 C 0 km/h
740 07-09-2004 04:11:56 14.9 C 10.45 g/m*3 14.9 C 0 km/h
741 07-09-2004 04:23:56 14.8 C 10.51 g/m*3 14.8 C 0 km/h
742 07-09-2004 04:35:56 14.7 C 10.45 g/m*3 14.7 C 0 km/h
743 07-09-2004 04:47:56 14.6 C 10.39 g/m*3 14.6 C 0 km/h
744 07-09-2004 04:59:56 14.5 C 10.45 g/m*3 14.5 C 0 km/h
745 07-09-2004 05:11:55 14.4 C 10.38 g/m*3 14.4 C 0 km/h
746 07-09-2004 05:23:55 14.3 C 10.32 g/m*3 14.3 C 0 km/h
747 07-09-2004 05:35:55 14.2 C 10.26 g/m*3 14.2 C 0 km/h
748 07-09-2004 05:47:55 14.2 C 10.26 g/m*3 14.2 C 0 km/h
749 07-09-2004 05:59:55 14.1 C 10.32 g/m*3 14.1 C 0 km/h
750 07-09-2004 06:11:55 14 C 10.25 g/m*3 14 C 0 km/h
Sensor: Nr:Datum:Temp:Abs-Feuchte:Windchill:Wind:
Aussen-T/F 751 07-09-2004 06:23:56 14 C 10.13 g/m*3 14 C 0 km/h
752 07-09-2004 06:35:56 14 C 10.25 g/m*3 14 C 0 km/h
753 07-09-2004 06:47:57 13.8 C 10.25 g/m*3 13.8 C 0 km/h
754 07-09-2004 06:59:58 13.8 C 10.25 g/m*3 13.8 C 0 km/h
755 07-09-2004 07:11:56 13.8 C 10.25 g/m*3 13.8 C 0 km/h
756 07-09-2004 07:23:55 13.7 C 10.18 g/m*3 13.7 C 0 km/h
757 07-09-2004 07:35:55 13.7 C 10.3 g/m*3 13.7 C 0 km/h
758 07-09-2004 07:47:55 14 C 10.37 g/m*3 14 C 0 km/h
759 07-09-2004 07:59:55 14 C 10.37 g/m*3 14 C 0 km/h
760 07-09-2004 08:11:55 14.1 C 10.32 g/m*3 14.1 C 0 km/h
761 07-09-2004 08:23:55 14.2 C 10.5 g/m*3 14.2 C 0 km/h
762 07-09-2004 08:35:55 14.3 C 10.57 g/m*3 14.3 C 0 km/h
763 07-09-2004 08:47:55 14.7 C 10.83 g/m*3 14.7 C 0 km/h
764 07-09-2004 08:59:55 15 C 10.77 g/m*3 15 C 0 km/h
765 07-09-2004 09:11:55 15.3 C 10.84 g/m*3 15.3 C 0 km/h
766 07-09-2004 09:23:55 15.6 C 11.04 g/m*3 15.6 C 0 km/h
767 07-09-2004 09:35:55 15.9 C 10.97 g/m*3 15.9 C 0 km/h
768 07-09-2004 09:47:56 16.3 C 10.82 g/m*3 16.3 C 0 km/h
769 07-09-2004 09:59:56 17.1 C 11.21 g/m*3 17.1 C 0 km/h
770 07-09-2004 10:11:56 17.8 C 11.38 g/m*3 17.8 C 0 km/h
771 07-09-2004 10:23:55 18.9 C 11.66 g/m*3 18.9 C 0 km/h
772 07-09-2004 10:35:55 20 C 11.23 g/m*3 20 C 0 km/h
773 07-09-2004 10:47:55 20.6 C 11.28 g/m*3 20.6 C 0 km/h
774 07-09-2004 10:59:55 21 C 11.91 g/m*3 21 C 0 km/h
775 07-09-2004 11:11:55 21.3 C 12.12 g/m*3 21.3 C 0 km/h
Sensor: Nr:Datum:Temp:Abs-Feuchte:Windchill:Wind:
Aussen-T/F 776 07-09-2004 11:23:55 21.4 C 12.19 g/m*3 21.4 C 0 km/h
777 07-09-2004 11:35:55 21.8 C 11.13 g/m*3 21.8 C 0 km/h
778 07-09-2004 11:47:55 22.1 C 10.93 g/m*3 22.1 C 0 km/h
779 07-09-2004 11:59:56 22.7 C 11.11 g/m*3 22.7 C 0 km/h
780 07-09-2004 12:11:55 23.3 C 11.08 g/m*3 23.3 C 0 km/h
781 07-09-2004 12:23:55 23.8 C 10.76 g/m*3 23.8 C 0 km/h
782 07-09-2004 12:35:55 24.2 C 10.34 g/m*3 24.2 C 0 km/h
783 07-09-2004 12:47:55 24.7 C 10.64 g/m*3 24.7 C 0 km/h
784 07-09-2004 12:59:55 25 C 10.59 g/m*3 25 C 0 km/h
785 07-09-2004 13:11:54 25.3 C 10.3 g/m*3 25.3 C 0 km/h
786 07-09-2004 13:23:54 25.6 C 9.28 g/m*3 25.6 C 0 km/h
787 07-09-2004 13:35:55 26.1 C 9.55 g/m*3 26.1 C 0 km/h
788 07-09-2004 13:47:55 26.6 C 9.82 g/m*3 26.6 C 0 km/h
789 07-09-2004 13:59:55 26.9 C 9.21 g/m*3 26.9 C 0 km/h
790 07-09-2004 14:11:55 27.3 C 9.16 g/m*3 27.3 C 0 km/h
791 07-09-2004 14:23:55 27.7 C 9.36 g/m*3 27.7 C 0 km/h
792 07-09-2004 14:35:55 28.2 C 8.52 g/m*3 28.2 C 0 km/h
793 07-09-2004 14:47:55 28.7 C 9.32 g/m*3 28.7 C 0 km/h
794 07-09-2004 14:59:55 28.9 C 9.14 g/m*3 28.9 C 0 km/h
795 07-09-2004 15:11:55 29.3 C 9.05 g/m*3 29.3 C 0 km/h
796 07-09-2004 15:23:55 29.6 C 8.9 g/m*3 29.6 C 0 km/h
797 07-09-2004 15:35:55 29.9 C 8.75 g/m*3 29.9 C 0 km/h
798 07-09-2004 15:47:54 30.3 C 8.63 g/m*3 30.3 C 0 km/h
799 07-09-2004 15:59:54 30.4 C 8.68 g/m*3 30.4 C 0 km/h
800 07-09-2004 16:11:54 30.4 C 8.37 g/m*3 30.4 C 0 km/h
Sensor: Nr:Datum:Temp:Abs-Feuchte:Windchill:Wind:
Aussen-T/F 801 07-09-2004 16:23:54 30.3 C 8.01 g/m*3 30.3 C 0 km/h
802 07-09-2004 16:35:54 30.2 C 8.28 g/m*3 30.2 C 0 km/h
803 07-09-2004 16:47:54 30.4 C 8.37 g/m*3 30.4 C 0 km/h
804 07-09-2004 16:59:54 30.6 C 8.46 g/m*3 30.6 C 0 km/h
805 07-09-2004 17:11:54 30.7 C 8.19 g/m*3 30.7 C 0 km/h
806 07-09-2004 17:23:54 30.7 C 7.87 g/m*3 30.7 C 0 km/h
807 07-09-2004 17:35:55 30.6 C 7.83 g/m*3 30.6 C 0 km/h
808 07-09-2004 17:47:55 30.3 C 8.01 g/m*3 30.3 C 0 km/h
809 07-09-2004 17:59:55 30.4 C 8.37 g/m*3 30.4 C 0 km/h
810 07-09-2004 18:11:55 30.4 C 8.68 g/m*3 30.4 C 0 km/h
811 07-09-2004 18:23:55 30.3 C 8.32 g/m*3 30.3 C 0 km/h
812 07-09-2004 18:35:54 30.2 C 9.2 g/m*3 30.2 C 0 km/h
813 07-09-2004 18:47:54 29.8 C 9.6 g/m*3 29.8 C 0 km/h
814 07-09-2004 18:59:54 29.6 C 9.79 g/m*3 29.6 C 0 km/h
815 07-09-2004 19:11:54 28.8 C 9.94 g/m*3 28.8 C 0 km/h
816 07-09-2004 19:23:54 28.1 C 9.57 g/m*3 28.1 C 0 km/h
817 07-09-2004 19:35:54 26.7 C 9.87 g/m*3 26.7 C 0 km/h
818 07-09-2004 19:47:54 25.7 C 10.06 g/m*3 25.7 C 0 km/h
819 07-09-2004 19:59:54 24.7 C 9.96 g/m*3 24.7 C 0 km/h
820 07-09-2004 20:11:54 24 C 10.44 g/m*3 24 C 0 km/h
821 07-09-2004 20:23:54 23.4 C 10.72 g/m*3 23.4 C 0 km/h
822 07-09-2004 20:35:54 22.9 C 11.04 g/m*3 22.9 C 0 km/h
823 07-09-2004 20:47:54 22.5 C 10.79 g/m*3 22.5 C 0 km/h
824 07-09-2004 20:59:54 22.1 C 10.93 g/m*3 22.1 C 0 km/h
825 07-09-2004 21:11:54 21.8 C 11.13 g/m*3 21.8 C 0 km/h
Sensor: Nr:Datum:Temp:Abs-Feuchte:Windchill:Wind:
Aussen-T/F 826 07-09-2004 21:23:53 21.4 C 10.69 g/m*3 21.4 C 0 km/h
827 07-09-2004 21:35:54 21.1 C 10.87 g/m*3 21.1 C 0 km/h
828 07-09-2004 21:47:54 20.8 C 10.68 g/m*3 20.8 C 0 km/h
829 07-09-2004 21:59:54 20.5 C 10.68 g/m*3 20.5 C 0 km/h
830 07-09-2004 22:11:54 20.3 C 10.73 g/m*3 20.3 C 0 km/h
831 07-09-2004 22:23:54 20 C 10.71 g/m*3 20 C 0 km/h
832 07-09-2004 22:35:54 19.6 C 10.8 g/m*3 19.6 C 0 km/h
833 07-09-2004 22:47:54 19.4 C 11.01 g/m*3 19.4 C 0 km/h
834 07-09-2004 22:59:54 19.3 C 10.95 g/m*3 19.3 C 0 km/h
835 07-09-2004 23:11:54 19.3 C 11.11 g/m*3 19.3 C 0 km/h
836 07-09-2004 23:23:54 18.9 C 10.85 g/m*3 18.9 C 0 km/h
837 07-09-2004 23:35:54 18.8 C 11.11 g/m*3 18.8 C 0 km/h
838 07-09-2004 23:47:54 18.8 C 11.11 g/m*3 18.8 C 0 km/h
839 07-09-2004 23:59:54 18.6 C 11.14 g/m*3 18.6 C 0 km/h
840 08-09-2004 00:11:53 18.5 C 11.08 g/m*3 18.5 C 0 km/h
841 08-09-2004 00:23:54 18.4 C 11.17 g/m*3 18.4 C 0 km/h
842 08-09-2004 00:35:54 18.2 C 11.04 g/m*3 18.2 C 0 km/h
843 08-09-2004 00:47:54 18.1 C 10.97 g/m*3 18.1 C 0 km/h
844 08-09-2004 00:59:54 17.8 C 11.23 g/m*3 17.8 C 0 km/h
845 08-09-2004 01:11:54 17.7 C 11.16 g/m*3 17.7 C 0 km/h
846 08-09-2004 01:23:53 17.5 C 11.03 g/m*3 17.5 C 0 km/h
847 08-09-2004 01:35:53 17.4 C 11.12 g/m*3 17.4 C 0 km/h
848 08-09-2004 01:47:53 17.2 C 10.98 g/m*3 17.2 C 0 km/h
849 08-09-2004 01:59:53 17.1 C 11.06 g/m*3 17.1 C 0 km/h
850 08-09-2004 02:11:53 16.9 C 11.08 g/m*3 16.9 C 0 km/h
Sensor: Nr:Datum:Temp:Abs-Feuchte:Windchill:Wind:
Aussen-T/F 851 08-09-2004 02:23:53 16.9 C 11.22 g/m*3 16.9 C 0 km/h
852 08-09-2004 02:35:53 16.8 C 11.15 g/m*3 16.8 C 0 km/h
853 08-09-2004 02:48:55 16.5 C 11.09 g/m*3 16.5 C 0 km/h
854 08-09-2004 03:00:56 16.4 C 11.03 g/m*3 16.4 C 0 km/h
855 08-09-2004 03:12:56 16.2 C 11.03 g/m*3 16.2 C 0 km/h
856 08-09-2004 03:24:56 16 C 11.04 g/m*3 16 C 0 km/h
857 08-09-2004 03:36:56 15.8 C 11.04 g/m*3 15.8 C 0 km/h
858 08-09-2004 03:48:56 15.9 C 11.1 g/m*3 15.9 C 0 km/h
859 08-09-2004 04:00:55 15.5 C 10.97 g/m*3 15.5 C 0 km/h
860 08-09-2004 04:12:55 15.7 C 10.97 g/m*3 15.7 C 0 km/h
861 08-09-2004 04:24:55 15.3 C 10.71 g/m*3 15.3 C 0 km/h
862 08-09-2004 04:36:55 15.3 C 10.84 g/m*3 15.3 C 0 km/h
863 08-09-2004 04:48:55 15.2 C 10.77 g/m*3 15.2 C 0 km/h
864 08-09-2004 05:00:55 15.1 C 10.71 g/m*3 15.1 C 0 km/h
865 08-09-2004 05:12:55 15.1 C 10.71 g/m*3 15.1 C 0 km/h
866 08-09-2004 05:24:55 14.9 C 10.71 g/m*3 14.9 C 0 km/h
867 08-09-2004 05:36:55 14.8 C 10.64 g/m*3 14.8 C 0 km/h
868 08-09-2004 05:48:55 14.7 C 10.58 g/m*3 14.7 C 0 km/h
869 08-09-2004 06:00:55 14.7 C 10.7 g/m*3 14.7 C 0 km/h
870 08-09-2004 06:12:55 14.6 C 10.76 g/m*3 14.6 C 0 km/h
871 08-09-2004 06:24:55 14.4 C 10.63 g/m*3 14.4 C 0 km/h
872 08-09-2004 06:36:55 14.3 C 10.57 g/m*3 14.3 C 0 km/h
873 08-09-2004 06:48:54 14.2 C 10.5 g/m*3 14.2 C 0 km/h
874 08-09-2004 07:00:55 14.2 C 10.5 g/m*3 14.2 C 0 km/h
875 08-09-2004 07:12:55 14.1 C 10.44 g/m*3 14.1 C 0 km/h
Sensor: Nr:Datum:Temp:Abs-Feuchte:Windchill:Wind:
Aussen-T/F 876 08-09-2004 07:24:55 14.2 C 10.5 g/m*3 14.2 C 0 km/h
877 08-09-2004 07:36:55 14 C 10.49 g/m*3 14 C 0 km/h
878 08-09-2004 07:48:55 14.3 C 10.69 g/m*3 14.3 C 0 km/h
879 08-09-2004 08:00:55 14.5 C 10.7 g/m*3 14.5 C 0 km/h
880 08-09-2004 08:12:55 14.7 C 10.83 g/m*3 14.7 C 0 km/h
881 08-09-2004 08:24:55 14.9 C 10.96 g/m*3 14.9 C 0 km/h
882 08-09-2004 08:36:55 15 C 10.77 g/m*3 15 C 0 km/h
883 08-09-2004 08:48:55 15.2 C 10.77 g/m*3 15.2 C 0 km/h
884 08-09-2004 09:00:55 15.4 C 10.9 g/m*3 15.4 C 0 km/h
885 08-09-2004 09:12:55 15.8 C 11.17 g/m*3 15.8 C 0 km/h
886 08-09-2004 09:24:54 16.3 C 11.38 g/m*3 16.3 C 0 km/h
887 08-09-2004 09:36:54 16.8 C 11.58 g/m*3 16.8 C 0 km/h
888 08-09-2004 09:48:54 17.1 C 11.5 g/m*3 17.1 C 0 km/h
889 08-09-2004 10:00:55 17.6 C 11.7 g/m*3 17.6 C 0 km/h
890 08-09-2004 10:12:55 18 C 11.52 g/m*3 18 C 0 km/h
891 08-09-2004 10:24:54 18.3 C 11.73 g/m*3 18.3 C 0 km/h
892 08-09-2004 10:36:54 18.7 C 11.85 g/m*3 18.7 C 0 km/h
893 08-09-2004 10:48:54 19.2 C 11.71 g/m*3 19.2 C 0 km/h
894 08-09-2004 11:00:54 19.5 C 11.41 g/m*3 19.5 C 0 km/h
895 08-09-2004 11:12:54 20 C 11.41 g/m*3 20 C 0 km/h
896 08-09-2004 11:24:55 20.5 C 11.39 g/m*3 20.5 C 0 km/h
897 08-09-2004 11:36:55 20.8 C 11.41 g/m*3 20.8 C 0 km/h
898 08-09-2004 11:48:55 21.1 C 10.87 g/m*3 21.1 C 0 km/h
899 08-09-2004 12:00:55 21.5 C 11.13 g/m*3 21.5 C 0 km/h
900 08-09-2004 12:12:55 21.8 C 11.32 g/m*3 21.8 C 0 km/h
Sensor: Nr:Datum:Temp:Abs-Feuchte:Windchill:Wind:
Aussen-T/F 901 08-09-2004 12:24:55 21.9 C 11.19 g/m*3 21.9 C 0 km/h
902 08-09-2004 12:36:54 22 C 11.65 g/m*3 22 C 0 km/h
903 08-09-2004 12:48:54 22.2 C 11.19 g/m*3 22.2 C 0 km/h
904 08-09-2004 13:00:54 22.5 C 10.99 g/m*3 22.5 C 0 km/h
905 08-09-2004 13:12:54 22.9 C 11.24 g/m*3 22.9 C 0 km/h
906 08-09-2004 13:24:54 23.3 C 11.29 g/m*3 23.3 C 0 km/h
907 08-09-2004 13:36:54 23.7 C 10.27 g/m*3 23.7 C 0 km/h
908 08-09-2004 13:48:54 24.3 C 10.84 g/m*3 24.3 C 0 km/h
909 08-09-2004 14:00:54 24.8 C 10.47 g/m*3 24.8 C 0 km/h
910 08-09-2004 14:12:54 25.2 C 9.08 g/m*3 25.2 C 0 km/h
911 08-09-2004 14:24:54 25.2 C 8.85 g/m*3 25.2 C 0 km/h
912 08-09-2004 14:36:54 25.5 C 8.52 g/m*3 25.5 C 0 km/h
913 08-09-2004 14:48:54 26.1 C 8.08 g/m*3 26.1 C 0 km/h
914 08-09-2004 15:00:54 26.5 C 7.76 g/m*3 26.5 C 0 km/h
915 08-09-2004 15:12:54 27.9 C 8.11 g/m*3 27.9 C 0 km/h
916 08-09-2004 15:24:54 28.4 C 6.95 g/m*3 28.4 C 0 km/h
917 08-09-2004 15:36:54 28.6 C 7.59 g/m*3 28.6 C 0 km/h
918 08-09-2004 15:48:54 28.8 C 6.82 g/m*3 28.8 C 0 km/h
919 08-09-2004 16:00:54 28.8 C 7.39 g/m*3 28.8 C 0 km/h
920 08-09-2004 16:12:54 29.2 C 7.84 g/m*3 29.2 C 0 km/h
921 08-09-2004 16:24:54 29.3 C 7.59 g/m*3 29.3 C 0 km/h
922 08-09-2004 16:36:54 29 C 7.18 g/m*3 29 C 0 km/h
923 08-09-2004 16:48:54 28.9 C 7.43 g/m*3 28.9 C 0 km/h
924 08-09-2004 17:00:54 29.3 C 7.01 g/m*3 29.3 C 0 km/h
925 08-09-2004 17:12:54 29.4 C 6.75 g/m*3 29.4 C 0 km/h
Sensor: Nr:Datum:Temp:Abs-Feuchte:Windchill:Wind:
Aussen-T/F 926 08-09-2004 17:24:54 29.6 C 6.53 g/m*3 29.6 C 0 km/h
927 08-09-2004 17:36:54 29.7 C 6.86 g/m*3 29.7 C 0 km/h
928 08-09-2004 17:48:54 29.8 C 6.9 g/m*3 29.8 C 0 km/h
929 08-09-2004 18:00:53 29.6 C 7.12 g/m*3 29.6 C 0 km/h
930 08-09-2004 18:12:53 29 C 7.18 g/m*3 29 C 0 km/h
931 08-09-2004 18:24:53 28.1 C 6.56 g/m*3 28.1 C 0 km/h
932 08-09-2004 18:36:53 28.2 C 7.15 g/m*3 28.2 C 0 km/h
933 08-09-2004 18:48:53 27.8 C 6.99 g/m*3 27.8 C 0 km/h
934 08-09-2004 19:00:53 27.4 C 7.37 g/m*3 27.4 C 0 km/h
935 08-09-2004 19:12:53 27 C 7.21 g/m*3 27 C 0 km/h
936 08-09-2004 19:24:54 25.6 C 6.9 g/m*3 25.6 C 0 km/h
937 08-09-2004 19:36:54 24.5 C 7.83 g/m*3 24.5 C 0 km/h
938 08-09-2004 19:48:54 23.8 C 7.53 g/m*3 23.8 C 0 km/h
939 08-09-2004 20:00:54 22.8 C 7.92 g/m*3 22.8 C 0 km/h
940 08-09-2004 20:12:54 22 C 7.76 g/m*3 22 C 0 km/h
941 08-09-2004 20:24:54 21.2 C 7.97 g/m*3 21.2 C 0 km/h
942 08-09-2004 20:36:54 20.7 C 8.28 g/m*3 20.7 C 0 km/h
943 08-09-2004 20:48:53 19.7 C 8.32 g/m*3 19.7 C 0 km/h
944 08-09-2004 21:00:53 19.5 C 8.22 g/m*3 19.5 C 0 km/h
945 08-09-2004 21:12:53 19.3 C 8.29 g/m*3 19.3 C 0 km/h
946 08-09-2004 21:24:53 18.9 C 8.26 g/m*3 18.9 C 0 km/h
947 08-09-2004 21:36:53 18.5 C 8.23 g/m*3 18.5 C 0 km/h
948 08-09-2004 21:48:53 18.2 C 8.24 g/m*3 18.2 C 0 km/h
949 08-09-2004 22:00:53 17.9 C 8.55 g/m*3 17.9 C 0 km/h
950 08-09-2004 22:12:53 17.8 C 8.65 g/m*3 17.8 C 0 km/h
Sensor: Nr:Datum:Temp:Abs-Feuchte:Windchill:Wind:
Aussen-T/F 951 08-09-2004 22:24:53 17.6 C 8.55 g/m*3 17.6 C 0 km/h
952 08-09-2004 22:36:53 17.6 C 8.7 g/m*3 17.6 C 0 km/h
953 08-09-2004 22:48:53 17.3 C 8.25 g/m*3 17.3 C 0 km/h
954 08-09-2004 23:00:54 17.2 C 8.49 g/m*3 17.2 C 0 km/h
955 08-09-2004 23:12:54 16.9 C 8.77 g/m*3 16.9 C 0 km/h
956 08-09-2004 23:24:54 16.5 C 8.71 g/m*3 16.5 C 0 km/h
957 08-09-2004 23:36:53 16.3 C 8.6 g/m*3 16.3 C 0 km/h
958 08-09-2004 23:48:53 15.9 C 8.67 g/m*3 15.9 C 0 km/h
959 09-09-2004 00:00:53 15.7 C 8.7 g/m*3 15.7 C 0 km/h
960 09-09-2004 00:12:53 15.8 C 8.48 g/m*3 15.8 C 0 km/h
961 09-09-2004 00:24:53 15.7 C 8.3 g/m*3 15.7 C 0 km/h
962 09-09-2004 00:36:53 16.1 C 8.22 g/m*3 16.1 C 0 km/h
963 09-09-2004 00:48:53 16 C 7.77 g/m*3 16 C 0 km/h
964 09-09-2004 01:00:53 16 C 7.49 g/m*3 16 C 0 km/h
965 09-09-2004 01:12:53 15.9 C 7.72 g/m*3 15.9 C 0 km/h
966 09-09-2004 01:24:53 15.8 C 7.67 g/m*3 15.8 C 0 km/h
967 09-09-2004 01:36:53 15.7 C 7.89 g/m*3 15.7 C 0 km/h
968 09-09-2004 01:48:53 15.4 C 7.88 g/m*3 15.4 C 0 km/h
969 09-09-2004 02:00:53 15.1 C 7.87 g/m*3 15.1 C 0 km/h
970 09-09-2004 02:12:53 14.8 C 7.98 g/m*3 14.8 C 0 km/h
971 09-09-2004 02:24:53 14.4 C 7.91 g/m*3 14.4 C 0 km/h
972 09-09-2004 02:36:53 14.3 C 7.86 g/m*3 14.3 C 0 km/h
973 09-09-2004 02:49:54 14 C 7.84 g/m*3 14 C 0 km/h
974 09-09-2004 03:01:54 13.7 C 7.82 g/m*3 13.7 C 0 km/h
975 09-09-2004 03:13:54 13.6 C 7.89 g/m*3 13.6 C 0 km/h
Sensor: Nr:Datum:Temp:Abs-Feuchte:Windchill:Wind:
Aussen-T/F 976 09-09-2004 03:25:54 13.5 C 7.95 g/m*3 13.5 C 0 km/h
977 09-09-2004 03:37:54 13.5 C 7.95 g/m*3 13.5 C 0 km/h
978 09-09-2004 03:49:54 13.4 C 7.9 g/m*3 13.4 C 0 km/h
979 09-09-2004 04:01:54 13.4 C 7.9 g/m*3 13.4 C 0 km/h
980 09-09-2004 04:13:54 13.3 C 7.86 g/m*3 13.3 C 0 km/h
981 09-09-2004 04:25:54 13.1 C 7.87 g/m*3 13.1 C 0 km/h
982 09-09-2004 04:37:54 13 C 7.83 g/m*3 13 C 0 km/h
983 09-09-2004 04:49:54 12.7 C 7.9 g/m*3 12.7 C 0 km/h
984 09-09-2004 05:01:54 12.6 C 7.97 g/m*3 12.6 C 0 km/h
985 09-09-2004 05:13:54 12.4 C 7.87 g/m*3 12.4 C 0 km/h
986 09-09-2004 05:25:54 12.1 C 7.72 g/m*3 12.1 C 0 km/h
987 09-09-2004 05:37:54 12 C 7.78 g/m*3 12 C 0 km/h
988 09-09-2004 05:49:54 11.8 C 7.79 g/m*3 11.8 C 0 km/h
989 09-09-2004 06:01:54 11.8 C 7.89 g/m*3 11.8 C 0 km/h
990 09-09-2004 06:13:54 11.5 C 7.85 g/m*3 11.5 C 0 km/h
991 09-09-2004 06:25:54 11.4 C 8.01 g/m*3 11.4 C 0 km/h
992 09-09-2004 06:37:54 11.2 C 8.01 g/m*3 11.2 C 0 km/h
993 09-09-2004 06:49:54 11 C 8.01 g/m*3 11 C 0 km/h
994 09-09-2004 07:01:54 11 C 8.01 g/m*3 11 C 0 km/h
995 09-09-2004 07:13:55 11 C 8.01 g/m*3 11 C 0 km/h
996 09-09-2004 07:25:54 11 C 8.11 g/m*3 11 C 0 km/h
997 09-09-2004 07:37:54 11 C 8.01 g/m*3 11 C 0 km/h
998 09-09-2004 07:49:54 11 C 8.01 g/m*3 11 C 0 km/h
999 09-09-2004 08:01:54 11 C 8.01 g/m*3 11 C 0 km/h
1000 09-09-2004 08:13:54 11.1 C 8.06 g/m*3 11.1 C 0 km/h
Sensor: Nr:Datum:Temp:Abs-Feuchte:Windchill:Wind:
Aussen-T/F 1001 09-09-2004 08:25:53 11.2 C 8.11 g/m*3 11.2 C 0 km/h
1002 09-09-2004 08:37:53 11.2 C 8.11 g/m*3 11.2 C 0 km/h
1003 09-09-2004 08:49:53 11.4 C 8.21 g/m*3 11.4 C 0 km/h
1004 09-09-2004 09:01:53 11.6 C 8.21 g/m*3 11.6 C 0 km/h
1005 09-09-2004 09:13:53 11.8 C 8.31 g/m*3 11.8 C 0 km/h
1006 09-09-2004 09:25:53 12.1 C 8.26 g/m*3 12.1 C 0 km/h
1007 09-09-2004 09:37:54 12.5 C 8.47 g/m*3 12.5 C 0 km/h
1008 09-09-2004 09:49:54 13.2 C 8.61 g/m*3 13.2 C 0 km/h
1009 09-09-2004 10:01:54 13.8 C 8.7 g/m*3 13.8 C 0 km/h
1010 09-09-2004 10:13:54 14.7 C 8.56 g/m*3 14.7 C 0 km/h
1011 09-09-2004 10:25:54 15.4 C 8.54 g/m*3 15.4 C 0 km/h
1012 09-09-2004 10:37:54 16.1 C 8.36 g/m*3 16.1 C 0 km/h
1013 09-09-2004 10:49:54 16.8 C 8.29 g/m*3 16.8 C 0 km/h
1014 09-09-2004 11:01:53 17.5 C 8.2 g/m*3 17.5 C 0 km/h
1015 09-09-2004 11:13:53 18 C 8.6 g/m*3 18 C 0 km/h
1016 09-09-2004 11:25:53 18.7 C 8.81 g/m*3 18.7 C 0 km/h
1017 09-09-2004 11:37:53 19.1 C 8.03 g/m*3 19.1 C 0 km/h
1018 09-09-2004 11:49:53 19.7 C 8.15 g/m*3 19.7 C 0 km/h
1019 09-09-2004 12:01:53 20.2 C 7.69 g/m*3 20.2 C 0 km/h
1020 09-09-2004 12:13:53 20.7 C 7.38 g/m*3 20.7 C 0 km/h
1021 09-09-2004 12:25:53 21.2 C 6.67 g/m*3 21.2 C 0 km/h
1022 09-09-2004 12:37:53 21.4 C 6.94 g/m*3 21.4 C 0 km/h
1023 09-09-2004 12:49:53 21.6 C 6.45 g/m*3 21.6 C 0 km/h
1024 09-09-2004 13:01:53 21.9 C 6.37 g/m*3 21.9 C 0 km/h
1025 09-09-2004 13:13:53 22.4 C 6.55 g/m*3 22.4 C 0 km/h
Sensor: Nr:Datum:Temp:Abs-Feuchte:Windchill:Wind:
Aussen-T/F 1026 09-09-2004 13:25:53 22.7 C 6.26 g/m*3 22.7 C 0 km/h
1027 09-09-2004 13:37:54 23.1 C 6.41 g/m*3 23.1 C 0 km/h
1028 09-09-2004 13:49:53 23.6 C 6.38 g/m*3 23.6 C 0 km/h
1029 09-09-2004 14:01:53 24 C 5.87 g/m*3 24 C 0 km/h
1030 09-09-2004 14:13:53 24.3 C 6.42 g/m*3 24.3 C 0 km/h
1031 09-09-2004 14:25:53 25 C 5.99 g/m*3 25 C 0 km/h
1032 09-09-2004 14:37:53 25.6 C 6.43 g/m*3 25.6 C 0 km/h
1033 09-09-2004 14:49:53 25.9 C 6.29 g/m*3 25.9 C 0 km/h
1034 09-09-2004 15:01:53 26.6 C 6.29 g/m*3 26.6 C 0 km/h
1035 09-09-2004 15:13:53 27.1 C 6.73 g/m*3 27.1 C 0 km/h
1036 09-09-2004 15:25:53 27.7 C 6.42 g/m*3 27.7 C 0 km/h
1037 09-09-2004 15:37:53 28.4 C 6.67 g/m*3 28.4 C 0 km/h
1038 09-09-2004 15:49:53 28.5 C 6.43 g/m*3 28.5 C 0 km/h
1039 09-09-2004 16:01:53 28.5 C 6.15 g/m*3 28.5 C 0 km/h
1040 09-09-2004 16:13:53 28.8 C 7.1 g/m*3 28.8 C 0 km/h
1041 09-09-2004 16:25:53 29 C 6.03 g/m*3 29 C 0 km/h
1042 09-09-2004 16:37:52 29.2 C 6.1 g/m*3 29.2 C 0 km/h
1043 09-09-2004 16:49:52 29.4 C 6.16 g/m*3 29.4 C 0 km/h
1044 09-09-2004 17:01:52 29.7 C 6.56 g/m*3 29.7 C 0 km/h
1045 09-09-2004 17:13:52 29.4 C 6.16 g/m*3 29.4 C 0 km/h
1046 09-09-2004 17:25:52 30.1 C 6.4 g/m*3 30.1 C 0 km/h
1047 09-09-2004 17:37:53 29.8 C 6 g/m*3 29.8 C 0 km/h
1048 09-09-2004 17:49:53 29.8 C 6 g/m*3 29.8 C 0 km/h
1049 09-09-2004 18:01:53 30 C 6.06 g/m*3 30 C 0 km/h
1050 09-09-2004 18:13:53 29.3 C 5.84 g/m*3 29.3 C 0 km/h
Sensor: Nr:Datum:Temp:Abs-Feuchte:Windchill:Wind:
Aussen-T/F 1051 09-09-2004 18:25:53 28.2 C 5.5 g/m*3 28.2 C 0 km/h
1052 09-09-2004 18:37:53 27.9 C 5.95 g/m*3 27.9 C 0 km/h
1053 09-09-2004 18:49:53 27.9 C 7.3 g/m*3 27.9 C 0 km/h
1054 09-09-2004 19:01:53 27 C 7.46 g/m*3 27 C 0 km/h
1055 09-09-2004 19:13:53 26.3 C 6.93 g/m*3 26.3 C 0 km/h
1056 09-09-2004 19:25:52 25.3 C 7.26 g/m*3 25.3 C 0 km/h
1057 09-09-2004 19:37:52 23.9 C 7.57 g/m*3 23.9 C 0 km/h
1058 09-09-2004 19:49:52 22.2 C 7.66 g/m*3 22.2 C 0 km/h
1059 09-09-2004 20:01:52 20.8 C 7.24 g/m*3 20.8 C 0 km/h
1060 09-09-2004 20:13:52 19.8 C 7.17 g/m*3 19.8 C 0 km/h
1061 09-09-2004 20:25:52 19.3 C 7.13 g/m*3 19.3 C 0 km/h
1062 09-09-2004 20:37:52 19 C 7.17 g/m*3 19 C 0 km/h
1063 09-09-2004 20:49:52 18.8 C 7.25 g/m*3 18.8 C 0 km/h
1064 09-09-2004 21:01:52 18.6 C 7 g/m*3 18.6 C 0 km/h
1065 09-09-2004 21:13:52 18.4 C 6.76 g/m*3 18.4 C 0 km/h
1066 09-09-2004 21:25:53 18.2 C 6.84 g/m*3 18.2 C 0 km/h
1067 09-09-2004 21:37:53 17.9 C 6.72 g/m*3 17.9 C 0 km/h
1068 09-09-2004 21:49:53 17.6 C 6.75 g/m*3 17.6 C 0 km/h
1069 09-09-2004 22:01:52 17.4 C 6.67 g/m*3 17.4 C 0 km/h
1070 09-09-2004 22:13:52 17.2 C 6.74 g/m*3 17.2 C 0 km/h
1071 09-09-2004 22:25:52 16.9 C 6.76 g/m*3 16.9 C 0 km/h
1072 09-09-2004 22:37:52 16.7 C 6.68 g/m*3 16.7 C 0 km/h
1073 09-09-2004 22:49:52 16.2 C 6.62 g/m*3 16.2 C 0 km/h
1074 09-09-2004 23:01:52 15.9 C 6.77 g/m*3 15.9 C 0 km/h
1075 09-09-2004 23:13:52 15.8 C 6.87 g/m*3 15.8 C 0 km/h
Sensor: Nr:Datum:Temp:Abs-Feuchte:Windchill:Wind:
Aussen-T/F 1076 09-09-2004 23:25:52 15.6 C 6.65 g/m*3 15.6 C 0 km/h
1077 09-09-2004 23:37:52 15.3 C 6.66 g/m*3 15.3 C 0 km/h
1078 09-09-2004 23:49:52 15.2 C 6.88 g/m*3 15.2 C 0 km/h
1079 10-09-2004 00:01:52 14.9 C 6.75 g/m*3 14.9 C 0 km/h
1080 10-09-2004 00:13:52 14.6 C 6.63 g/m*3 14.6 C 0 km/h
1081 10-09-2004 00:25:53 14.4 C 6.43 g/m*3 14.4 C 0 km/h
1082 10-09-2004 00:37:52 14.4 C 6.43 g/m*3 14.4 C 0 km/h
1083 10-09-2004 00:49:52 14.2 C 6.35 g/m*3 14.2 C 0 km/h
1084 10-09-2004 01:01:52 14.1 C 6.19 g/m*3 14.1 C 0 km/h
1085 10-09-2004 01:13:52 13.8 C 6.55 g/m*3 13.8 C 0 km/h
1086 10-09-2004 01:25:51 13.6 C 6.47 g/m*3 13.6 C 0 km/h
1087 10-09-2004 01:37:51 13.2 C 6.43 g/m*3 13.2 C 0 km/h
1088 10-09-2004 01:49:52 13.2 C 6.2 g/m*3 13.2 C 0 km/h
1089 10-09-2004 02:01:52 13 C 6.35 g/m*3 13 C 0 km/h
1090 10-09-2004 02:13:52 12.8 C 6.38 g/m*3 12.8 C 0 km/h
1091 10-09-2004 02:25:52 12.5 C 6.38 g/m*3 12.5 C 0 km/h
1092 10-09-2004 02:37:52 12.3 C 6.3 g/m*3 12.3 C 0 km/h
1093 10-09-2004 02:50:53 12.1 C 6.65 g/m*3 12.1 C 0 km/h
1094 10-09-2004 03:02:53 12.1 C 6.54 g/m*3 12.1 C 0 km/h
1095 10-09-2004 03:14:53 11.7 C 6.38 g/m*3 11.7 C 0 km/h
1096 10-09-2004 03:26:53 11.4 C 6.26 g/m*3 11.4 C 0 km/h
1097 10-09-2004 03:38:53 11.2 C 6.28 g/m*3 11.2 C 0 km/h
1098 10-09-2004 03:50:53 11.2 C 6.39 g/m*3 11.2 C 0 km/h
1099 10-09-2004 04:02:53 11.1 C 6.45 g/m*3 11.1 C 0 km/h
1100 10-09-2004 04:14:53 10.9 C 6.56 g/m*3 10.9 C 0 km/h
Sensor: Nr:Datum:Temp:Abs-Feuchte:Windchill:Wind:
Aussen-T/F 1101 10-09-2004 04:26:53 10.7 C 6.68 g/m*3 10.7 C 0 km/h
1102 10-09-2004 04:38:53 10.6 C 6.54 g/m*3 10.6 C 0 km/h
1103 10-09-2004 04:50:53 10.3 C 6.7 g/m*3 10.3 C 0 km/h
1104 10-09-2004 05:02:53 10.2 C 6.76 g/m*3 10.2 C 0 km/h
1105 10-09-2004 05:14:53 10 C 6.86 g/m*3 10 C 0 km/h
1106 10-09-2004 05:26:53 9.7 C 6.82 g/m*3 9.7 C 0 km/h
1107 10-09-2004 05:38:53 9.5 C 6.83 g/m*3 9.5 C 0 km/h
1108 10-09-2004 05:50:53 9.4 C 6.96 g/m*3 9.4 C 0 km/h
1109 10-09-2004 06:02:53 9.2 C 6.61 g/m*3 9.2 C 0 km/h
1110 10-09-2004 06:14:53 9.1 C 6.92 g/m*3 9.1 C 0 km/h
1111 10-09-2004 06:26:53 8.9 C 7.1 g/m*3 8.9 C 0 km/h
1112 10-09-2004 06:38:53 8.9 C 6.83 g/m*3 8.9 C 0 km/h
1113 10-09-2004 06:50:53 8.8 C 6.61 g/m*3 8.8 C 0 km/h
1114 10-09-2004 07:02:52 8.7 C 7.01 g/m*3 8.7 C 0 km/h
1115 10-09-2004 07:14:53 8.6 C 6.79 g/m*3 8.6 C 0 km/h
1116 10-09-2004 07:26:53 8.6 C 6.7 g/m*3 8.6 C 0 km/h
1117 10-09-2004 07:38:53 8.9 C 6.83 g/m*3 8.9 C 0 km/h
1118 10-09-2004 07:50:53 8.7 C 6.66 g/m*3 8.7 C 0 km/h
1119 10-09-2004 08:02:53 8.8 C 6.79 g/m*3 8.8 C 0 km/h
1120 10-09-2004 08:14:53 8.8 C 6.88 g/m*3 8.8 C 0 km/h
1121 10-09-2004 08:26:53 9 C 6.96 g/m*3 9 C 0 km/h
1122 10-09-2004 08:38:53 9.3 C 7.01 g/m*3 9.3 C 0 km/h
1123 10-09-2004 08:50:53 9.5 C 7.1 g/m*3 9.5 C 0 km/h
1124 10-09-2004 09:02:53 9.9 C 7.19 g/m*3 9.9 C 0 km/h
1125 10-09-2004 09:14:52 10.2 C 7.23 g/m*3 10.2 C 0 km/h
Sensor: Nr:Datum:Temp:Abs-Feuchte:Windchill:Wind:
Aussen-T/F 1126 10-09-2004 09:26:52 10.6 C 7.32 g/m*3 10.6 C 0 km/h
1127 10-09-2004 09:38:52 11.3 C 7.34 g/m*3 11.3 C 0 km/h
1128 10-09-2004 09:50:52 12 C 7.35 g/m*3 12 C 0 km/h
1129 10-09-2004 10:02:52 12.9 C 7.44 g/m*3 12.9 C 0 km/h
1130 10-09-2004 10:14:52 13.6 C 7.65 g/m*3 13.6 C 0 km/h
1131 10-09-2004 10:26:52 14.1 C 7.52 g/m*3 14.1 C 0 km/h
1132 10-09-2004 10:38:52 15 C 7.69 g/m*3 15 C 0 km/h
1133 10-09-2004 10:50:52 16.2 C 7.03 g/m*3 16.2 C 0 km/h
1134 10-09-2004 11:02:52 17 C 6.51 g/m*3 17 C 0 km/h
1135 10-09-2004 11:14:52 17.8 C 6.68 g/m*3 17.8 C 0 km/h
1136 10-09-2004 11:26:52 18.3 C 6.1 g/m*3 18.3 C 0 km/h
1137 10-09-2004 11:38:53 19 C 6.52 g/m*3 19 C 0 km/h
1138 10-09-2004 11:50:53 19.5 C 6.55 g/m*3 19.5 C 0 km/h
1139 10-09-2004 12:02:53 20.2 C 6.29 g/m*3 20.2 C 0 km/h
1140 10-09-2004 12:14:52 20.6 C 6.44 g/m*3 20.6 C 0 km/h
1141 10-09-2004 12:26:52 21 C 6.41 g/m*3 21 C 0 km/h
1142 10-09-2004 12:38:52 21.6 C 6.64 g/m*3 21.6 C 0 km/h
1143 10-09-2004 12:50:52 21.8 C 6.72 g/m*3 21.8 C 0 km/h
1144 10-09-2004 13:02:52 22.2 C 6.87 g/m*3 22.2 C 0 km/h
1145 10-09-2004 13:14:52 22.7 C 7.27 g/m*3 22.7 C 0 km/h
1146 10-09-2004 13:26:52 23.2 C 6.65 g/m*3 23.2 C 0 km/h
1147 10-09-2004 13:38:52 23.6 C 6.81 g/m*3 23.6 C 0 km/h
1148 10-09-2004 13:50:52 24.3 C 6.86 g/m*3 24.3 C 0 km/h
1149 10-09-2004 14:02:52 24.5 C 6.71 g/m*3 24.5 C 0 km/h
1150 10-09-2004 14:14:52 25 C 6.91 g/m*3 25 C 0 km/h
Sensor: Nr:Datum:Temp:Abs-Feuchte:Windchill:Wind:
Aussen-T/F 1151 10-09-2004 14:26:52 24.9 C 6.87 g/m*3 24.9 C 0 km/h
1152 10-09-2004 14:38:52 25.3 C 7.02 g/m*3 25.3 C 0 km/h
1153 10-09-2004 14:50:52 25.7 C 6.7 g/m*3 25.7 C 0 km/h
1154 10-09-2004 15:02:52 26.4 C 7.47 g/m*3 26.4 C 0 km/h
1155 10-09-2004 15:14:52 27.2 C 7.81 g/m*3 27.2 C 0 km/h
1156 10-09-2004 15:26:52 27.2 C 7.29 g/m*3 27.2 C 0 km/h
1157 10-09-2004 15:38:52 26.1 C 8.32 g/m*3 26.1 C 0 km/h
1158 10-09-2004 15:50:52 27 C 7.98 g/m*3 27 C 0 km/h
1159 10-09-2004 16:02:52 28.5 C 8.38 g/m*3 28.5 C 0 km/h
1160 10-09-2004 16:14:52 29.2 C 7.84 g/m*3 29.2 C 0 km/h
1161 10-09-2004 16:26:52 29.5 C 7.67 g/m*3 29.5 C 0 km/h
1162 10-09-2004 16:38:52 29.9 C 8.14 g/m*3 29.9 C 0 km/h
1163 10-09-2004 16:50:52 29.3 C 7.88 g/m*3 29.3 C 0 km/h
1164 10-09-2004 17:02:52 28.8 C 7.96 g/m*3 28.8 C 0 km/h
1165 10-09-2004 17:14:52 28.8 C 8.81 g/m*3 28.8 C 0 km/h
1166 10-09-2004 17:26:52 30.1 C 8.54 g/m*3 30.1 C 0 km/h
1167 10-09-2004 17:38:52 29.8 C 9.6 g/m*3 29.8 C 0 km/h
1168 10-09-2004 17:50:51 29.8 C 9.9 g/m*3 29.8 C 0 km/h
1169 10-09-2004 18:02:51 28.1 C 9.84 g/m*3 28.1 C 0 km/h
1170 10-09-2004 18:14:51 26.2 C 10.09 g/m*3 26.2 C 0 km/h
1171 10-09-2004 18:26:51 25.8 C 10.11 g/m*3 25.8 C 0 km/h
1172 10-09-2004 18:38:51 27.1 C 10.09 g/m*3 27.1 C 0 km/h
1173 10-09-2004 18:50:51 27.3 C 10.47 g/m*3 27.3 C 0 km/h
1174 10-09-2004 19:02:52 26.7 C 10.12 g/m*3 26.7 C 0 km/h
1175 10-09-2004 19:14:52 25.6 C 10.48 g/m*3 25.6 C 0 km/h
Sensor: Nr:Datum:Temp:Abs-Feuchte:Windchill:Wind:
Aussen-T/F 1176 10-09-2004 19:26:52 24.5 C 10.74 g/m*3 24.5 C 0 km/h
1177 10-09-2004 19:38:52 23.3 C 10.45 g/m*3 23.3 C 0 km/h
1178 10-09-2004 19:50:52 22.6 C 10.45 g/m*3 22.6 C 0 km/h
1179 10-09-2004 20:02:52 22.2 C 10.41 g/m*3 22.2 C 0 km/h
1180 10-09-2004 20:14:51 21.8 C 10.36 g/m*3 21.8 C 0 km/h
1181 10-09-2004 20:26:51 21.7 C 10.3 g/m*3 21.7 C 0 km/h
1182 10-09-2004 20:38:51 21.6 C 10.24 g/m*3 21.6 C 0 km/h
1183 10-09-2004 20:50:51 21.6 C 10.24 g/m*3 21.6 C 0 km/h
1184 10-09-2004 21:02:51 21.3 C 10.07 g/m*3 21.3 C 0 km/h
1185 10-09-2004 21:14:51 20.9 C 10.2 g/m*3 20.9 C 0 km/h
1186 10-09-2004 21:26:51 20.8 C 10.5 g/m*3 20.8 C 0 km/h
1187 10-09-2004 21:38:51 20.5 C 10.5 g/m*3 20.5 C 0 km/h
1188 10-09-2004 21:50:51 20.3 C 10.55 g/m*3 20.3 C 0 km/h
1189 10-09-2004 22:02:51 20.3 C 10.73 g/m*3 20.3 C 0 km/h
1190 10-09-2004 22:14:51 20.4 C 10.97 g/m*3 20.4 C 0 km/h
1191 10-09-2004 22:26:51 20.3 C 10.9 g/m*3 20.3 C 0 km/h
1192 10-09-2004 22:38:51 20.2 C 11.02 g/m*3 20.2 C 0 km/h
1193 10-09-2004 22:50:51 20.3 C 11.08 g/m*3 20.3 C 0 km/h
1194 10-09-2004 23:02:50 20 C 11.06 g/m*3 20 C 0 km/h
1195 10-09-2004 23:14:51 19.7 C 11.21 g/m*3 19.7 C 0 km/h
1196 10-09-2004 23:26:51 19.6 C 11.48 g/m*3 19.6 C 0 km/h
1197 10-09-2004 23:38:51 19.4 C 11.51 g/m*3 19.4 C 0 km/h
1198 10-09-2004 23:50:51 19.3 C 11.61 g/m*3 19.3 C 0 km/h
1199 11-09-2004 00:02:51 19.2 C 11.54 g/m*3 19.2 C 0 km/h
1200 11-09-2004 00:14:53 19.1 C 11.47 g/m*3 19.1 C 0 km/h
Sensor: Nr:Datum:Temp:Abs-Feuchte:Windchill:Wind:
Aussen-T/F 1201 11-09-2004 00:26:54 19.1 C 11.8 g/m*3 19.1 C 0 km/h
1202 11-09-2004 00:38:51 19.2 C 11.71 g/m*3 19.2 C 0 km/h
1203 11-09-2004 00:50:51 19.1 C 11.64 g/m*3 19.1 C 0 km/h
1204 11-09-2004 01:02:51 18.9 C 11.66 g/m*3 18.9 C 0 km/h
1205 11-09-2004 01:14:50 18.9 C 11.83 g/m*3 18.9 C 0 km/h
1206 11-09-2004 01:26:50 18.8 C 11.76 g/m*3 18.8 C 0 km/h
1207 11-09-2004 01:38:50 18.5 C 11.71 g/m*3 18.5 C 0 km/h
1208 11-09-2004 01:50:50 18.7 C 11.85 g/m*3 18.7 C 0 km/h
1209 11-09-2004 02:02:51 18.8 C 11.92 g/m*3 18.8 C 0 km/h
1210 11-09-2004 02:14:51 18.9 C 11.99 g/m*3 18.9 C 0 km/h
1211 11-09-2004 02:26:51 18.8 C 11.92 g/m*3 18.8 C 0 km/h
1212 11-09-2004 02:38:51 18.5 C 12.02 g/m*3 18.5 C 0 km/h
1213 11-09-2004 02:51:52 18.4 C 13.21 g/m*3 18.4 C 0 km/h
1214 11-09-2004 03:03:52 18.4 C 13.53 g/m*3 18.4 C 0 km/h
1215 11-09-2004 03:15:52 18.1 C 13.75 g/m*3 18.1 C 0 km/h
1216 11-09-2004 03:27:52 18 C 13.82 g/m*3 18 C 0 km/h
1217 11-09-2004 03:39:52 17.9 C 14.05 g/m*3 17.9 C 0 km/h
1218 11-09-2004 03:51:52 17.9 C 14.05 g/m*3 17.9 C 0 km/h
1219 11-09-2004 04:03:52 17.9 C 13.89 g/m*3 17.9 C 0 km/h
1220 11-09-2004 04:15:52 17.9 C 13.89 g/m*3 17.9 C 0 km/h
1221 11-09-2004 04:27:52 17.8 C 13.96 g/m*3 17.8 C 0 km/h
1222 11-09-2004 04:39:52 17.5 C 13.72 g/m*3 17.5 C 0 km/h
1223 11-09-2004 04:51:52 17.3 C 13.55 g/m*3 17.3 C 0 km/h
1224 11-09-2004 05:03:52 17.2 C 13.47 g/m*3 17.2 C 0 km/h
1225 11-09-2004 05:15:52 17.1 C 13.39 g/m*3 17.1 C 0 km/h
Sensor: Nr:Datum:Temp:Abs-Feuchte:Windchill:Wind:
Aussen-T/F 1226 11-09-2004 05:27:52 17.2 C 13.62 g/m*3 17.2 C 0 km/h
1227 11-09-2004 05:39:52 16.9 C 13.38 g/m*3 16.9 C 0 km/h
1228 11-09-2004 05:51:52 16.8 C 13.3 g/m*3 16.8 C 0 km/h
1229 11-09-2004 06:03:52 16.9 C 13.52 g/m*3 16.9 C 0 km/h
1230 11-09-2004 06:15:52 16.9 C 13.52 g/m*3 16.9 C 0 km/h
1231 11-09-2004 06:27:52 16.8 C 13.44 g/m*3 16.8 C 0 km/h
1232 11-09-2004 06:39:52 16.8 C 13.44 g/m*3 16.8 C 0 km/h
1233 11-09-2004 06:51:51 16.7 C 13.36 g/m*3 16.7 C 0 km/h
1234 11-09-2004 07:03:51 16.6 C 13.28 g/m*3 16.6 C 0 km/h
1235 11-09-2004 07:15:51 16.9 C 13.52 g/m*3 16.9 C 0 km/h
1236 11-09-2004 07:27:51 17 C 13.6 g/m*3 17 C 0 km/h
1237 11-09-2004 07:39:51 17.1 C 13.68 g/m*3 17.1 C 0 km/h
1238 11-09-2004 07:51:52 17.1 C 13.54 g/m*3 17.1 C 0 km/h
1239 11-09-2004 08:03:52 17.1 C 13.54 g/m*3 17.1 C 0 km/h
1240 11-09-2004 08:15:01 17.5 C 13.72 g/m*3 17.5 C 0 km/h
1241 11-09-2004 08:27:01 17.9 C 13.89 g/m*3 17.9 C 0 km/h
1242 11-09-2004 08:39:01 18.7 C 13.61 g/m*3 18.7 C 0 km/h
1243 11-09-2004 08:51:01 18.9 C 13.45 g/m*3 18.9 C 0 km/h
1244 11-09-2004 09:03:01 19.1 C 13.28 g/m*3 19.1 C 0 km/h
1245 11-09-2004 09:15:01 19.1 C 13.28 g/m*3 19.1 C 0 km/h
1246 11-09-2004 09:27:01 19.4 C 13.51 g/m*3 19.4 C 0 km/h
1247 11-09-2004 09:39:01 19.5 C 13.43 g/m*3 19.5 C 0 km/h
1248 11-09-2004 09:51:01 19.9 C 13.57 g/m*3 19.9 C 0 km/h
1249 11-09-2004 10:03:00 20.3 C 13.72 g/m*3 20.3 C 0 km/h
1250 11-09-2004 10:15:00 20.4 C 13.44 g/m*3 20.4 C 0 km/h
Sensor: Nr:Datum:Temp:Abs-Feuchte:Windchill:Wind:
Aussen-T/F 1251 11-09-2004 10:27:00 20.4 C 13.27 g/m*3 20.4 C 0 km/h
1252 11-09-2004 10:39:00 20.7 C 13.14 g/m*3 20.7 C 0 km/h
1253 11-09-2004 10:51:00 20.5 C 13.17 g/m*3 20.5 C 0 km/h
1254 11-09-2004 11:03:00 20.8 C 13.04 g/m*3 20.8 C 0 km/h
1255 11-09-2004 11:15:00 21.1 C 12.9 g/m*3 21.1 C 0 km/h
1256 11-09-2004 11:27:00 21.5 C 12.82 g/m*3 21.5 C 0 km/h
1257 11-09-2004 11:39:00 21.8 C 12.85 g/m*3 21.8 C 0 km/h
1258 11-09-2004 11:51:00 21.9 C 12.54 g/m*3 21.9 C 0 km/h
1259 11-09-2004 12:03:00 22.2 C 12.57 g/m*3 22.2 C 0 km/h
1260 11-09-2004 12:15:00 22.5 C 12.38 g/m*3 22.5 C 0 km/h
1261 11-09-2004 12:27:00 22.8 C 12.6 g/m*3 22.8 C 0 km/h
1262 11-09-2004 12:39:01 23.1 C 12.2 g/m*3 23.1 C 0 km/h
1263 11-09-2004 12:51:00 23.4 C 11.99 g/m*3 23.4 C 0 km/h
1264 11-09-2004 13:03:00 23.3 C 11.5 g/m*3 23.3 C 0 km/h
1265 11-09-2004 13:15:00 23.5 C 11.63 g/m*3 23.5 C 0 km/h
1266 11-09-2004 13:27:00 23.3 C 11.29 g/m*3 23.3 C 0 km/h
1267 11-09-2004 13:39:00 23.7 C 11.34 g/m*3 23.7 C 0 km/h
1268 11-09-2004 13:51:00 24.1 C 11.16 g/m*3 24.1 C 0 km/h
1269 11-09-2004 14:03:00 24.2 C 11.22 g/m*3 24.2 C 0 km/h
1270 11-09-2004 14:15:00 24.5 C 11.19 g/m*3 24.5 C 0 km/h
1271 11-09-2004 14:27:00 24.8 C 10.47 g/m*3 24.8 C 0 km/h
1272 11-09-2004 14:39:00 25.2 C 10.71 g/m*3 25.2 C 0 km/h
1273 11-09-2004 14:51:00 25.2 C 10.71 g/m*3 25.2 C 0 km/h
1274 11-09-2004 15:03:00 24.5 C 10.74 g/m*3 24.5 C 0 km/h
1275 11-09-2004 15:15:59 24.4 C 10.68 g/m*3 24.4 C 0 km/h
Sensor: Nr:Datum:Temp:Abs-Feuchte:Windchill:Wind:
Aussen-T/F 1276 11-09-2004 15:27:59 24.8 C 10.7 g/m*3 24.8 C 0 km/h
1277 11-09-2004 15:39:59 24.3 C 10.62 g/m*3 24.3 C 0 km/h
1278 11-09-2004 15:50:59 24.6 C 11.03 g/m*3 24.6 C 0 km/h
1279 11-09-2004 16:03:00 24.1 C 10.72 g/m*3 24.1 C 0 km/h
1280 11-09-2004 16:15:00 24.3 C 10.62 g/m*3 24.3 C 0 km/h
1281 11-09-2004 16:27:00 24.7 C 10.86 g/m*3 24.7 C 0 km/h
1282 11-09-2004 16:39:00 24.6 C 10.35 g/m*3 24.6 C 0 km/h
1283 11-09-2004 16:51:00 24.6 C 10.13 g/m*3 24.6 C 0 km/h
1284 11-09-2004 17:03:00 24.7 C 10.19 g/m*3 24.7 C 0 km/h
1285 11-09-2004 17:15:00 24.1 C 10.06 g/m*3 24.1 C 0 km/h
1286 11-09-2004 17:27:00 24.1 C 10.06 g/m*3 24.1 C 0 km/h
1287 11-09-2004 17:39:00 23.9 C 9.95 g/m*3 23.9 C 0 km/h
1288 11-09-2004 17:51:59 23.7 C 10.05 g/m*3 23.7 C 0 km/h
1289 11-09-2004 18:03:59 23.5 C 10.15 g/m*3 23.5 C 0 km/h
1290 11-09-2004 18:15:59 23.8 C 10.33 g/m*3 23.8 C 0 km/h
1291 11-09-2004 18:27:59 23.6 C 10.21 g/m*3 23.6 C 0 km/h
1292 11-09-2004 18:39:00 23.8 C 9.9 g/m*3 23.8 C 0 km/h
1293 11-09-2004 18:51:59 23.9 C 10.17 g/m*3 23.9 C 0 km/h
1294 11-09-2004 19:03:59 23.7 C 10.05 g/m*3 23.7 C 0 km/h
1295 11-09-2004 19:15:00 23.2 C 11.02 g/m*3 23.2 C 0 km/h
1296 11-09-2004 19:27:00 22.3 C 11.26 g/m*3 22.3 C 0 km/h
1297 11-09-2004 19:39:01 21.7 C 11.64 g/m*3 21.7 C 0 km/h
1298 11-09-2004 19:51:00 21.3 C 11.74 g/m*3 21.3 C 0 km/h
1299 11-09-2004 20:03:00 20.9 C 11.29 g/m*3 20.9 C 0 km/h
1300 11-09-2004 20:15:00 20.7 C 11.34 g/m*3 20.7 C 0 km/h
Sensor: Nr:Datum:Temp:Abs-Feuchte:Windchill:Wind:
Aussen-T/F 1301 11-09-2004 20:27:00 20.4 C 10.97 g/m*3 20.4 C 0 km/h
1302 11-09-2004 20:39:00 20.5 C 10.85 g/m*3 20.5 C 0 km/h
1303 11-09-2004 20:51:00 20.5 C 10.85 g/m*3 20.5 C 0 km/h
1304 11-09-2004 21:03:01 20.3 C 10.9 g/m*3 20.3 C 0 km/h
1305 11-09-2004 21:15:00 20.1 C 10.95 g/m*3 20.1 C 0 km/h
1306 11-09-2004 21:27:00 20.1 C 10.95 g/m*3 20.1 C 0 km/h
1307 11-09-2004 21:39:59 20.1 C 10.95 g/m*3 20.1 C 0 km/h
1308 11-09-2004 21:51:59 20.3 C 10.9 g/m*3 20.3 C 0 km/h
1309 11-09-2004 22:03:59 20.4 C 11.14 g/m*3 20.4 C 0 km/h
1310 11-09-2004 22:15:59 20 C 11.23 g/m*3 20 C 0 km/h
1311 11-09-2004 22:27:59 19.8 C 11.44 g/m*3 19.8 C 0 km/h
1312 11-09-2004 22:39:59 19.7 C 11.38 g/m*3 19.7 C 0 km/h
1313 11-09-2004 22:51:59 19.8 C 11.44 g/m*3 19.8 C 0 km/h
1314 11-09-2004 23:03:59 19.7 C 11.55 g/m*3 19.7 C 0 km/h
1315 11-09-2004 23:15:59 19.6 C 11.65 g/m*3 19.6 C 0 km/h
1316 11-09-2004 23:27:59 19.5 C 11.58 g/m*3 19.5 C 0 km/h
1317 11-09-2004 23:39:59 19.5 C 11.75 g/m*3 19.5 C 0 km/h
1318 11-09-2004 23:51:59 19.5 C 11.58 g/m*3 19.5 C 0 km/h
1319 12-09-2004 00:03:59 19.8 C 11.44 g/m*3 19.8 C 0 km/h
1320 12-09-2004 00:15:59 20.2 C 10.84 g/m*3 20.2 C 0 km/h
1321 12-09-2004 00:27:59 20.1 C 11.13 g/m*3 20.1 C 0 km/h
1322 12-09-2004 00:39:59 20 C 11.06 g/m*3 20 C 0 km/h
1323 12-09-2004 00:51:59 19.8 C 11.27 g/m*3 19.8 C 0 km/h
1324 12-09-2004 01:03:59 19.7 C 11.55 g/m*3 19.7 C 0 km/h
1325 12-09-2004 01:15:59 19.2 C 11.87 g/m*3 19.2 C 0 km/h
Sensor: Nr:Datum:Temp:Abs-Feuchte:Windchill:Wind:
Aussen-T/F 1326 12-09-2004 01:28:00 19 C 11.9 g/m*3 19 C 0 km/h
1327 12-09-2004 01:39:59 18.9 C 11.99 g/m*3 18.9 C 0 km/h
1328 12-09-2004 01:51:59 18.9 C 11.99 g/m*3 18.9 C 0 km/h
1329 12-09-2004 02:03:59 18.8 C 11.92 g/m*3 18.8 C 0 km/h
1330 12-09-2004 02:15:58 18.8 C 11.92 g/m*3 18.8 C 0 km/h
1331 12-09-2004 02:27:58 18.8 C 12.08 g/m*3 18.8 C 0 km/h
1332 12-09-2004 02:39:58 18.7 C 11.85 g/m*3 18.7 C 0 km/h
1333 12-09-2004 02:52:00 18.9 C 11.99 g/m*3 18.9 C 0 km/h
1334 12-09-2004 03:04:00 18.9 C 11.83 g/m*3 18.9 C 0 km/h
1335 12-09-2004 03:16:00 18.2 C 12.12 g/m*3 18.2 C 0 km/h
1336 12-09-2004 03:28:00 17.9 C 12.52 g/m*3 17.9 C 0 km/h
1337 12-09-2004 03:40:00 17.9 C 12.37 g/m*3 17.9 C 0 km/h
1338 12-09-2004 03:52:01 17.3 C 12.37 g/m*3 17.3 C 0 km/h
1339 12-09-2004 04:04:00 16.9 C 12.51 g/m*3 16.9 C 0 km/h
1340 12-09-2004 04:16:00 16.8 C 12.44 g/m*3 16.8 C 0 km/h
1341 12-09-2004 04:28:00 17 C 12.44 g/m*3 17 C 0 km/h
1342 12-09-2004 04:40:00 17 C 12.59 g/m*3 17 C 0 km/h
1343 12-09-2004 04:52:59 17 C 12.44 g/m*3 17 C 0 km/h
1344 12-09-2004 05:04:59 16.9 C 11.79 g/m*3 16.9 C 0 km/h
1345 12-09-2004 05:15:59 16.6 C 11.16 g/m*3 16.6 C 0 km/h
1346 12-09-2004 05:27:59 16 C 10.49 g/m*3 16 C 0 km/h
1347 12-09-2004 05:40:00 15.9 C 10.83 g/m*3 15.9 C 0 km/h
1348 12-09-2004 05:52:00 15.6 C 10.51 g/m*3 15.6 C 0 km/h
1349 12-09-2004 06:04:00 15.2 C 10.38 g/m*3 15.2 C 0 km/h
1350 12-09-2004 06:16:00 14.8 C 10.39 g/m*3 14.8 C 0 km/h
Sensor: Nr:Datum:Temp:Abs-Feuchte:Windchill:Wind:
Aussen-T/F 1351 12-09-2004 06:28:01 14.6 C 10.39 g/m*3 14.6 C 0 km/h
1352 12-09-2004 06:40:00 14.5 C 10.45 g/m*3 14.5 C 0 km/h
1353 12-09-2004 06:52:00 14.3 C 10.44 g/m*3 14.3 C 0 km/h
1354 12-09-2004 07:04:00 14.1 C 10.44 g/m*3 14.1 C 0 km/h
1355 12-09-2004 07:16:59 13.9 C 10.55 g/m*3 13.9 C 0 km/h
1356 12-09-2004 07:28:59 14 C 10.61 g/m*3 14 C 0 km/h
1357 12-09-2004 07:40:59 14 C 10.61 g/m*3 14 C 0 km/h
1358 12-09-2004 07:52:59 14.1 C 10.68 g/m*3 14.1 C 0 km/h
1359 12-09-2004 08:04:59 14.1 C 10.56 g/m*3 14.1 C 0 km/h
1360 12-09-2004 08:16:00 14.2 C 10.5 g/m*3 14.2 C 0 km/h
1361 12-09-2004 08:28:00 14.3 C 10.32 g/m*3 14.3 C 0 km/h
1362 12-09-2004 08:40:59 14.7 C 10.58 g/m*3 14.7 C 0 km/h
1363 12-09-2004 08:51:59 14.7 C 10.45 g/m*3 14.7 C 0 km/h
1364 12-09-2004 09:04:00 14.8 C 10.26 g/m*3 14.8 C 0 km/h
1365 12-09-2004 09:16:00 15.4 C 9.99 g/m*3 15.4 C 0 km/h
1366 12-09-2004 09:28:00 15.7 C 9.9 g/m*3 15.7 C 0 km/h
1367 12-09-2004 09:40:00 15.8 C 9.69 g/m*3 15.8 C 0 km/h
1368 12-09-2004 09:52:00 15.5 C 9.78 g/m*3 15.5 C 0 km/h
1369 12-09-2004 10:04:59 15.6 C 9.71 g/m*3 15.6 C 0 km/h
1370 12-09-2004 10:16:59 16.3 C 9.71 g/m*3 16.3 C 0 km/h
1371 12-09-2004 10:28:59 16.6 C 8.05 g/m*3 16.6 C 0 km/h
1372 12-09-2004 10:40:59 16.5 C 7.3 g/m*3 16.5 C 0 km/h
1373 12-09-2004 10:52:59 16 C 7.36 g/m*3 16 C 0 km/h
1374 12-09-2004 11:04:59 16.8 C 7.72 g/m*3 16.8 C 0 km/h
1375 12-09-2004 11:16:01 16.5 C 7.16 g/m*3 16.5 C 0 km/h
Sensor: Nr:Datum:Temp:Abs-Feuchte:Windchill:Wind:
Aussen-T/F 1376 12-09-2004 11:28:01 17.2 C 6.88 g/m*3 17.2 C 0 km/h
1377 12-09-2004 11:40:01 16.8 C 7.01 g/m*3 16.8 C 0 km/h
1378 12-09-2004 11:52:01 18 C 7.07 g/m*3 18 C 0 km/h
1379 12-09-2004 12:04:01 17.9 C 6.87 g/m*3 17.9 C 0 km/h
1380 12-09-2004 12:16:01 17.4 C 6.82 g/m*3 17.4 C 0 km/h
1381 12-09-2004 12:28:01 17.7 C 6.94 g/m*3 17.7 C 0 km/h
1382 12-09-2004 12:40:00 18 C 6.76 g/m*3 18 C 0 km/h
1383 12-09-2004 12:52:00 18.3 C 6.41 g/m*3 18.3 C 0 km/h
1384 12-09-2004 13:04:00 17.9 C 6.57 g/m*3 17.9 C 0 km/h
1385 12-09-2004 13:16:00 18.3 C 6.88 g/m*3 18.3 C 0 km/h
1386 12-09-2004 13:28:00 18.7 C 6.56 g/m*3 18.7 C 0 km/h
1387 12-09-2004 13:40:00 18.9 C 6.8 g/m*3 18.9 C 0 km/h
1388 12-09-2004 13:52:00 18.9 C 6.64 g/m*3 18.9 C 0 km/h
1389 12-09-2004 14:04:01 18.4 C 6.61 g/m*3 18.4 C 0 km/h
1390 12-09-2004 14:16:01 19.2 C 6.27 g/m*3 19.2 C 0 km/h
1391 12-09-2004 14:28:01 19 C 6.03 g/m*3 19 C 0 km/h
1392 12-09-2004 14:40:01 20.4 C 6.19 g/m*3 20.4 C 0 km/h
1393 12-09-2004 14:52:00 21 C 5.86 g/m*3 21 C 0 km/h
1394 12-09-2004 15:04:00 21.2 C 6.12 g/m*3 21.2 C 0 km/h
1395 12-09-2004 15:16:00 20.8 C 6.16 g/m*3 20.8 C 0 km/h
1396 12-09-2004 15:28:00 20.5 C 6.23 g/m*3 20.5 C 0 km/h
1397 12-09-2004 15:40:01 20.7 C 5.58 g/m*3 20.7 C 0 km/h
1398 12-09-2004 15:52:01 19.7 C 6.11 g/m*3 19.7 C 0 km/h
1399 12-09-2004 16:04:01 19.7 C 6.11 g/m*3 19.7 C 0 km/h
1400 12-09-2004 16:16:01 19.4 C 6.17 g/m*3 19.4 C 0 km/h
Sensor: Nr:Datum:Temp:Abs-Feuchte:Windchill:Wind:
Aussen-T/F 1401 12-09-2004 16:28:01 18.8 C 6.44 g/m*3 18.8 C 0 km/h
1402 12-09-2004 16:40:00 18.2 C 6.37 g/m*3 18.2 C 0 km/h
1403 12-09-2004 16:52:00 18 C 6.45 g/m*3 18 C 0 km/h
1404 12-09-2004 17:04:00 18.9 C 7.13 g/m*3 18.9 C 0 km/h
1405 12-09-2004 17:16:00 19.8 C 6.49 g/m*3 19.8 C 0 km/h
1406 12-09-2004 17:28:00 20 C 6.57 g/m*3 20 C 0 km/h
1407 12-09-2004 17:40:00 19.7 C 6.45 g/m*3 19.7 C 0 km/h
1408 12-09-2004 17:52:00 19.9 C 6.7 g/m*3 19.9 C 0 km/h
1409 12-09-2004 18:04:00 19.1 C 6.72 g/m*3 19.1 C 0 km/h
1410 12-09-2004 18:16:00 18.7 C 6.56 g/m*3 18.7 C 0 km/h
1411 12-09-2004 18:28:00 18.4 C 6.76 g/m*3 18.4 C 0 km/h
1412 12-09-2004 18:40:00 18.3 C 7.04 g/m*3 18.3 C 0 km/h
1413 12-09-2004 18:52:00 18.9 C 7.29 g/m*3 18.9 C 0 km/h
1414 12-09-2004 19:04:59 19.2 C 7.42 g/m*3 19.2 C 0 km/h
1415 12-09-2004 19:16:00 18.2 C 7.15 g/m*3 18.2 C 0 km/h
1416 12-09-2004 19:28:00 17.5 C 7.16 g/m*3 17.5 C 0 km/h
1417 12-09-2004 19:40:00 17 C 7.23 g/m*3 17 C 0 km/h
1418 12-09-2004 19:52:00 16.6 C 7.35 g/m*3 16.6 C 0 km/h
1419 12-09-2004 20:04:00 16.3 C 7.49 g/m*3 16.3 C 0 km/h
1420 12-09-2004 20:16:00 15.8 C 7.81 g/m*3 15.8 C 0 km/h
1421 12-09-2004 20:28:00 15.5 C 7.8 g/m*3 15.5 C 0 km/h
1422 12-09-2004 20:40:00 15.2 C 7.79 g/m*3 15.2 C 0 km/h
1423 12-09-2004 20:52:00 15.1 C 8 g/m*3 15.1 C 0 km/h
1424 12-09-2004 21:04:00 15.1 C 8 g/m*3 15.1 C 0 km/h
1425 12-09-2004 21:16:00 15 C 8.08 g/m*3 15 C 0 km/h
Sensor: Nr:Datum:Temp:Abs-Feuchte:Windchill:Wind:
Aussen-T/F 1426 12-09-2004 21:28:00 14.8 C 8.23 g/m*3 14.8 C 0 km/h
1427 12-09-2004 21:40:00 14.8 C 8.23 g/m*3 14.8 C 0 km/h
1428 12-09-2004 21:52:59 14.8 C 8.36 g/m*3 14.8 C 0 km/h
1429 12-09-2004 22:04:59 14.5 C 8.33 g/m*3 14.5 C 0 km/h
1430 12-09-2004 22:16:59 14.4 C 8.41 g/m*3 14.4 C 0 km/h
1431 12-09-2004 22:28:59 14.5 C 8.46 g/m*3 14.5 C 0 km/h
1432 12-09-2004 22:40:59 14.6 C 8.63 g/m*3 14.6 C 0 km/h
1433 12-09-2004 22:51:59 14.6 C 8.63 g/m*3 14.6 C 0 km/h
1434 12-09-2004 23:04:00 14.5 C 8.58 g/m*3 14.5 C 0 km/h
1435 12-09-2004 23:16:00 14.4 C 8.53 g/m*3 14.4 C 0 km/h
1436 12-09-2004 23:28:00 14.2 C 8.55 g/m*3 14.2 C 0 km/h
1437 12-09-2004 23:40:00 14 C 8.44 g/m*3 14 C 0 km/h
1438 12-09-2004 23:52:00 13.9 C 8.51 g/m*3 13.9 C 0 km/h
1439 13-09-2004 00:04:00 13.9 C 8.51 g/m*3 13.9 C 0 km/h
1440 13-09-2004 00:16:00 13.7 C 8.53 g/m*3 13.7 C 0 km/h
1441 13-09-2004 00:28:00 13.5 C 8.42 g/m*3 13.5 C 0 km/h
1442 13-09-2004 00:40:00 13.3 C 8.2 g/m*3 13.3 C 0 km/h
1443 13-09-2004 00:52:00 13.1 C 8.22 g/m*3 13.1 C 0 km/h
1444 13-09-2004 01:04:59 13 C 8.17 g/m*3 13 C 0 km/h
1445 13-09-2004 01:16:59 13 C 8.17 g/m*3 13 C 0 km/h
1446 13-09-2004 01:28:59 13.1 C 8.22 g/m*3 13.1 C 0 km/h
1447 13-09-2004 01:40:59 13.2 C 8.27 g/m*3 13.2 C 0 km/h
1448 13-09-2004 01:52:59 13.1 C 8.22 g/m*3 13.1 C 0 km/h
1449 13-09-2004 02:04:59 13.1 C 8.22 g/m*3 13.1 C 0 km/h
1450 13-09-2004 02:16:59 13.1 C 8.22 g/m*3 13.1 C 0 km/h
Sensor: Nr:Datum:Temp:Abs-Feuchte:Windchill:Wind:
Aussen-T/F 1451 13-09-2004 02:28:59 13.2 C 8.38 g/m*3 13.2 C 0 km/h
1452 13-09-2004 02:40:59 13.2 C 8.27 g/m*3 13.2 C 0 km/h
1453 13-09-2004 02:53:01 13.4 C 8.37 g/m*3 13.4 C 0 km/h
1454 13-09-2004 03:05:01 13.4 C 8.37 g/m*3 13.4 C 0 km/h
1455 13-09-2004 03:17:01 13.2 C 8.27 g/m*3 13.2 C 0 km/h
1456 13-09-2004 03:29:01 13.1 C 8.1 g/m*3 13.1 C 0 km/h
1457 13-09-2004 03:41:00 13 C 8.05 g/m*3 13 C 0 km/h
1458 13-09-2004 03:53:00 12.9 C 8.11 g/m*3 12.9 C 0 km/h
1459 13-09-2004 04:05:00 13 C 8.05 g/m*3 13 C 0 km/h
1460 13-09-2004 04:17:00 13 C 8.05 g/m*3 13 C 0 km/h
1461 13-09-2004 04:29:00 13 C 7.94 g/m*3 13 C 0 km/h
1462 13-09-2004 04:41:00 12.9 C 8.11 g/m*3 12.9 C 0 km/h
1463 13-09-2004 04:53:00 12.9 C 8 g/m*3 12.9 C 0 km/h
1464 13-09-2004 05:05:01 13 C 8.05 g/m*3 13 C 0 km/h
1465 13-09-2004 05:17:01 13 C 8.05 g/m*3 13 C 0 km/h
1466 13-09-2004 05:29:01 13 C 7.94 g/m*3 13 C 0 km/h
1467 13-09-2004 05:41:01 13.1 C 8.1 g/m*3 13.1 C 0 km/h
1468 13-09-2004 05:53:01 13.1 C 8.1 g/m*3 13.1 C 0 km/h
1469 13-09-2004 06:05:00 13.1 C 8.1 g/m*3 13.1 C 0 km/h
1470 13-09-2004 06:17:00 13.1 C 8.1 g/m*3 13.1 C 0 km/h
1471 13-09-2004 06:29:00 13.1 C 8.1 g/m*3 13.1 C 0 km/h
1472 13-09-2004 06:41:00 13.1 C 8.22 g/m*3 13.1 C 0 km/h
1473 13-09-2004 06:53:00 13.1 C 8.1 g/m*3 13.1 C 0 km/h
1474 13-09-2004 07:05:00 13 C 8.17 g/m*3 13 C 0 km/h
1475 13-09-2004 07:17:00 13 C 8.28 g/m*3 13 C 0 km/h
Sensor: Nr:Datum:Temp:Abs-Feuchte:Windchill:Wind:
Aussen-T/F 1476 13-09-2004 07:29:00 13.1 C 8.33 g/m*3 13.1 C 0 km/h
1477 13-09-2004 07:41:00 13.2 C 8.38 g/m*3 13.2 C 0 km/h
1478 13-09-2004 07:53:00 13.3 C 8.32 g/m*3 13.3 C 0 km/h
1479 13-09-2004 08:05:00 13.6 C 8.47 g/m*3 13.6 C 0 km/h
1480 13-09-2004 08:17:00 13.5 C 8.42 g/m*3 13.5 C 0 km/h
1481 13-09-2004 08:29:00 13.7 C 8.53 g/m*3 13.7 C 0 km/h
1482 13-09-2004 08:41:00 14 C 8.68 g/m*3 14 C 0 km/h
1483 13-09-2004 08:53:00 14.5 C 9.08 g/m*3 14.5 C 0 km/h
1484 13-09-2004 09:05:00 14.9 C 8.92 g/m*3 14.9 C 0 km/h
1485 13-09-2004 09:17:00 15.1 C 8.77 g/m*3 15.1 C 0 km/h
1486 13-09-2004 09:29:00 15.2 C 8.96 g/m*3 15.2 C 0 km/h
1487 13-09-2004 09:41:00 15.2 C 9.35 g/m*3 15.2 C 0 km/h
1488 13-09-2004 09:53:00 15.1 C 9.16 g/m*3 15.1 C 0 km/h
1489 13-09-2004 10:05:00 15.1 C 9.03 g/m*3 15.1 C 0 km/h
1490 13-09-2004 10:17:00 15.2 C 9.09 g/m*3 15.2 C 0 km/h
1491 13-09-2004 10:29:00 15.5 C 9.25 g/m*3 15.5 C 0 km/h
1492 13-09-2004 10:41:00 15.9 C 9.62 g/m*3 15.9 C 0 km/h
1493 13-09-2004 10:53:00 16.2 C 9.1 g/m*3 16.2 C 0 km/h
1494 13-09-2004 11:05:59 17 C 8.83 g/m*3 17 C 0 km/h
1495 13-09-2004 11:17:59 17.4 C 8.89 g/m*3 17.4 C 0 km/h
1496 13-09-2004 11:29:59 18.2 C 8.86 g/m*3 18.2 C 0 km/h
1497 13-09-2004 11:41:59 18.9 C 8.75 g/m*3 18.9 C 0 km/h
1498 13-09-2004 11:53:00 18.9 C 8.75 g/m*3 18.9 C 0 km/h
1499 13-09-2004 12:05:00 19.1 C 8.69 g/m*3 19.1 C 0 km/h
1500 13-09-2004 12:17:00 19.3 C 8.79 g/m*3 19.3 C 0 km/h
Sensor: Nr:Datum:Temp:Abs-Feuchte:Windchill:Wind:
Aussen-T/F 1501 13-09-2004 12:29:00 19.5 C 9.06 g/m*3 19.5 C 0 km/h
1502 13-09-2004 12:41:00 19.2 C 8.57 g/m*3 19.2 C 0 km/h
1503 13-09-2004 12:53:00 18.9 C 8.91 g/m*3 18.9 C 0 km/h
1504 13-09-2004 13:05:00 18.6 C 8.91 g/m*3 18.6 C 0 km/h
1505 13-09-2004 13:17:00 18.6 C 8.59 g/m*3 18.6 C 0 km/h
1506 13-09-2004 13:29:00 18.5 C 8.7 g/m*3 18.5 C 0 km/h
1507 13-09-2004 13:41:59 18.5 C 8.7 g/m*3 18.5 C 0 km/h
1508 13-09-2004 13:53:59 18.8 C 8.86 g/m*3 18.8 C 0 km/h
1509 13-09-2004 14:05:59 19.2 C 9.07 g/m*3 19.2 C 0 km/h
1510 13-09-2004 14:17:59 19.3 C 9.12 g/m*3 19.3 C 0 km/h
1511 13-09-2004 14:29:59 19.5 C 8.56 g/m*3 19.5 C 0 km/h
1512 13-09-2004 14:41:59 20.1 C 8.52 g/m*3 20.1 C 0 km/h
1513 13-09-2004 14:53:59 20.9 C 8.56 g/m*3 20.9 C 0 km/h
1514 13-09-2004 15:04:59 21.6 C 8.53 g/m*3 21.6 C 0 km/h
1515 13-09-2004 15:17:00 22.2 C 8.64 g/m*3 22.2 C 0 km/h
1516 13-09-2004 15:29:00 22.1 C 8.59 g/m*3 22.1 C 0 km/h
1517 13-09-2004 15:41:00 22.2 C 8.83 g/m*3 22.2 C 0 km/h
1518 13-09-2004 15:53:00 21.7 C 8.58 g/m*3 21.7 C 0 km/h
1519 13-09-2004 16:05:59 22.3 C 8.89 g/m*3 22.3 C 0 km/h
1520 13-09-2004 16:17:59 23 C 8.43 g/m*3 23 C 0 km/h
1521 13-09-2004 16:29:59 22.6 C 8.04 g/m*3 22.6 C 0 km/h
1522 13-09-2004 16:41:59 22.6 C 8.04 g/m*3 22.6 C 0 km/h
1523 13-09-2004 16:53:59 22.4 C 7.75 g/m*3 22.4 C 0 km/h
1524 13-09-2004 17:05:59 22.9 C 8.17 g/m*3 22.9 C 0 km/h
1525 13-09-2004 17:17:59 22.8 C 8.33 g/m*3 22.8 C 0 km/h
Sensor: Nr:Datum:Temp:Abs-Feuchte:Windchill:Wind:
Aussen-T/F 1526 13-09-2004 17:29:59 22.1 C 8.2 g/m*3 22.1 C 0 km/h
1527 13-09-2004 17:41:59 21.6 C 8.53 g/m*3 21.6 C 0 km/h
1528 13-09-2004 17:53:59 21.6 C 8.72 g/m*3 21.6 C 0 km/h
1529 13-09-2004 18:05:59 22.5 C 9.19 g/m*3 22.5 C 0 km/h
1530 13-09-2004 18:17:59 23.1 C 8.68 g/m*3 23.1 C 0 km/h
1531 13-09-2004 18:28:59 22.8 C 9.14 g/m*3 22.8 C 0 km/h
1532 13-09-2004 18:41:59 22.8 C 9.35 g/m*3 22.8 C 0 km/h
1533 13-09-2004 18:53:59 22.2 C 9.23 g/m*3 22.2 C 0 km/h
1534 13-09-2004 19:05:00 21.9 C 9.84 g/m*3 21.9 C 0 km/h
1535 13-09-2004 19:17:59 21.6 C 9.67 g/m*3 21.6 C 0 km/h
1536 13-09-2004 19:29:59 21.1 C 9.4 g/m*3 21.1 C 0 km/h
1537 13-09-2004 19:41:59 20.7 C 9.54 g/m*3 20.7 C 0 km/h
1538 13-09-2004 19:53:59 20.3 C 9.67 g/m*3 20.3 C 0 km/h
1539 13-09-2004 20:05:59 20 C 9.51 g/m*3 20 C 0 km/h
1540 13-09-2004 20:17:59 19.7 C 9.51 g/m*3 19.7 C 0 km/h
1541 13-09-2004 20:29:59 19.4 C 9.34 g/m*3 19.4 C 0 km/h
1542 13-09-2004 20:41:59 19.1 C 9.51 g/m*3 19.1 C 0 km/h
1543 13-09-2004 20:53:59 18.9 C 9.72 g/m*3 18.9 C 0 km/h
1544 13-09-2004 21:04:59 18.8 C 9.82 g/m*3 18.8 C 0 km/h
1545 13-09-2004 21:17:58 18.8 C 9.66 g/m*3 18.8 C 0 km/h
1546 13-09-2004 21:29:58 18.7 C 9.77 g/m*3 18.7 C 0 km/h
1547 13-09-2004 21:41:58 18.5 C 9.97 g/m*3 18.5 C 0 km/h
1548 13-09-2004 21:53:58 18.5 C 10.13 g/m*3 18.5 C 0 km/h
1549 13-09-2004 22:05:58 18.5 C 10.13 g/m*3 18.5 C 0 km/h
1550 13-09-2004 22:17:59 18.5 C 10.13 g/m*3 18.5 C 0 km/h
Sensor: Nr:Datum:Temp:Abs-Feuchte:Windchill:Wind:
Aussen-T/F 1551 13-09-2004 22:29:59 18.5 C 10.13 g/m*3 18.5 C 0 km/h
1552 13-09-2004 22:41:59 18.4 C 10.07 g/m*3 18.4 C 0 km/h
1553 13-09-2004 22:53:59 18.3 C 10.32 g/m*3 18.3 C 0 km/h
1554 13-09-2004 23:05:59 17.8 C 8.65 g/m*3 17.8 C 0 km/h
1555 13-09-2004 23:17:59 17.4 C 8.15 g/m*3 17.4 C 0 km/h
1556 13-09-2004 23:29:59 17.2 C 8.05 g/m*3 17.2 C 0 km/h
1557 13-09-2004 23:41:59 17.1 C 8.3 g/m*3 17.1 C 0 km/h
1558 13-09-2004 23:53:58 16.9 C 8.34 g/m*3 16.9 C 0 km/h
1559 14-09-2004 00:05:58 16.8 C 8.58 g/m*3 16.8 C 0 km/h
1560 14-09-2004 00:17:59 16.6 C 8.33 g/m*3 16.6 C 0 km/h
1561 14-09-2004 00:29:59 16.5 C 8.43 g/m*3 16.5 C 0 km/h
1562 14-09-2004 00:41:58 16.4 C 8.37 g/m*3 16.4 C 0 km/h
1563 14-09-2004 00:53:58 16.2 C 8.27 g/m*3 16.2 C 0 km/h
1564 14-09-2004 01:05:58 16.1 C 8.36 g/m*3 16.1 C 0 km/h
1565 14-09-2004 01:17:59 16.1 C 8.5 g/m*3 16.1 C 0 km/h
1566 14-09-2004 01:29:59 16.1 C 8.36 g/m*3 16.1 C 0 km/h
1567 14-09-2004 01:41:59 16.2 C 8.69 g/m*3 16.2 C 0 km/h
1568 14-09-2004 01:53:59 16.1 C 8.77 g/m*3 16.1 C 0 km/h
1569 14-09-2004 02:05:58 16 C 8.72 g/m*3 16 C 0 km/h
1570 14-09-2004 02:17:58 16 C 9.13 g/m*3 16 C 0 km/h
1571 14-09-2004 02:29:58 15.9 C 9.48 g/m*3 15.9 C 0 km/h
1572 14-09-2004 02:41:58 15.8 C 9.15 g/m*3 15.8 C 0 km/h
1573 14-09-2004 02:54:00 15.7 C 9.23 g/m*3 15.7 C 0 km/h
1574 14-09-2004 03:06:00 15.6 C 9.31 g/m*3 15.6 C 0 km/h
1575 14-09-2004 03:18:00 15.3 C 9.27 g/m*3 15.3 C 0 km/h
Sensor: Nr:Datum:Temp:Abs-Feuchte:Windchill:Wind:
Aussen-T/F 1576 14-09-2004 03:30:00 15.2 C 9.22 g/m*3 15.2 C 0 km/h
1577 14-09-2004 03:42:00 15.2 C 9.22 g/m*3 15.2 C 0 km/h
1578 14-09-2004 03:54:00 15.1 C 9.16 g/m*3 15.1 C 0 km/h
1579 14-09-2004 04:06:00 15.2 C 9.48 g/m*3 15.2 C 0 km/h
1580 14-09-2004 04:18:00 15.9 C 9.48 g/m*3 15.9 C 0 km/h
1581 14-09-2004 04:30:00 16 C 9.26 g/m*3 16 C 0 km/h
1582 14-09-2004 04:42:59 16 C 9.13 g/m*3 16 C 0 km/h
1583 14-09-2004 04:54:59 16 C 9.13 g/m*3 16 C 0 km/h
1584 14-09-2004 05:06:59 15.6 C 9.18 g/m*3 15.6 C 0 km/h
1585 14-09-2004 05:18:59 15.3 C 9.14 g/m*3 15.3 C 0 km/h
1586 14-09-2004 05:30:59 15 C 9.1 g/m*3 15 C 0 km/h
1587 14-09-2004 05:42:59 14.8 C 9.12 g/m*3 14.8 C 0 km/h
1588 14-09-2004 05:54:59 14.4 C 9.02 g/m*3 14.4 C 0 km/h
1589 14-09-2004 06:05:59 14.1 C 8.98 g/m*3 14.1 C 0 km/h
1590 14-09-2004 06:30:00 13.8 C 9.06 g/m*3 13.8 C 0 km/h
1591 14-09-2004 06:42:00 13.7 C 9 g/m*3 13.7 C 0 km/h
1592 14-09-2004 06:54:59 13.7 C 9.12 g/m*3 13.7 C 0 km/h
1593 14-09-2004 07:06:59 14 C 9.17 g/m*3 14 C 0 km/h
1594 14-09-2004 07:18:59 13.9 C 9.23 g/m*3 13.9 C 0 km/h
1595 14-09-2004 07:30:59 14 C 9.29 g/m*3 14 C 0 km/h
1596 14-09-2004 07:42:59 14 C 9.17 g/m*3 14 C 0 km/h
1597 14-09-2004 07:54:01 14.1 C 9.34 g/m*3 14.1 C 0 km/h
1598 14-09-2004 08:06:02 14 C 9.29 g/m*3 14 C 0 km/h
1599 14-09-2004 08:18:04 14.2 C 9.52 g/m*3 14.2 C 0 km/h
1600 14-09-2004 08:30:04 14.1 C 9.34 g/m*3 14.1 C 0 km/h
Sensor: Nr:Datum:Temp:Abs-Feuchte:Windchill:Wind:
Aussen-T/F 1601 14-09-2004 08:42:05 14.4 C 9.52 g/m*3 14.4 C 0 km/h
1602 14-09-2004 08:54:01 15 C 9.23 g/m*3 15 C 0 km/h
1603 14-09-2004 09:06:01 15.2 C 9.09 g/m*3 15.2 C 0 km/h
1604 14-09-2004 09:18:01 15.4 C 9.07 g/m*3 15.4 C 0 km/h
1605 14-09-2004 09:30:01 15.6 C 8.91 g/m*3 15.6 C 0 km/h
1606 14-09-2004 09:42:01 15.9 C 8.94 g/m*3 15.9 C 0 km/h
1607 14-09-2004 09:54:02 16 C 8.72 g/m*3 16 C 0 km/h
1608 14-09-2004 10:06:02 16.2 C 8.55 g/m*3 16.2 C 0 km/h
1609 14-09-2004 10:18:02 16.4 C 7.96 g/m*3 16.4 C 0 km/h
1610 14-09-2004 10:30:02 16.6 C 8.33 g/m*3 16.6 C 0 km/h
1611 14-09-2004 10:42:02 16.5 C 8.14 g/m*3 16.5 C 0 km/h
1612 14-09-2004 10:54:01 16.8 C 8.01 g/m*3 16.8 C 0 km/h
1613 14-09-2004 11:06:01 16.2 C 7.72 g/m*3 16.2 C 0 km/h
1614 14-09-2004 11:18:01 16.9 C 7.91 g/m*3 16.9 C 0 km/h
1615 14-09-2004 11:30:01 17 C 7.81 g/m*3 17 C 0 km/h
1616 14-09-2004 11:42:01 17.6 C 7.8 g/m*3 17.6 C 0 km/h
1617 14-09-2004 11:54:01 18.4 C 7.55 g/m*3 18.4 C 0 km/h
1618 14-09-2004 12:06:01 18.1 C 7.42 g/m*3 18.1 C 0 km/h
1619 14-09-2004 12:18:01 18.4 C 7.39 g/m*3 18.4 C 0 km/h
1620 14-09-2004 12:30:01 18.7 C 7.2 g/m*3 18.7 C 0 km/h
1621 14-09-2004 12:42:01 19.2 C 7.42 g/m*3 19.2 C 0 km/h
1622 14-09-2004 12:54:01 19.7 C 7.3 g/m*3 19.7 C 0 km/h
1623 14-09-2004 13:06:02 20.1 C 6.95 g/m*3 20.1 C 0 km/h
1624 14-09-2004 13:18:02 20.6 C 6.8 g/m*3 20.6 C 0 km/h
1625 14-09-2004 13:30:02 21.1 C 6.63 g/m*3 21.1 C 0 km/h
Sensor: Nr:Datum:Temp:Abs-Feuchte:Windchill:Wind:
Aussen-T/F 1626 14-09-2004 13:42:02 21.2 C 7.04 g/m*3 21.2 C 0 km/h
1627 14-09-2004 13:54:01 21.1 C 6.82 g/m*3 21.1 C 0 km/h
1628 14-09-2004 14:06:01 21.5 C 6.79 g/m*3 21.5 C 0 km/h
1629 14-09-2004 14:18:01 21.4 C 6.56 g/m*3 21.4 C 0 km/h
1630 14-09-2004 14:30:01 21.5 C 6.98 g/m*3 21.5 C 0 km/h
1631 14-09-2004 14:42:01 20.9 C 6.92 g/m*3 20.9 C 0 km/h
1632 14-09-2004 14:54:01 21.1 C 6.82 g/m*3 21.1 C 0 km/h
1633 14-09-2004 15:06:01 20.8 C 7.06 g/m*3 20.8 C 0 km/h
1634 14-09-2004 15:18:01 21.2 C 7.23 g/m*3 21.2 C 0 km/h
1635 14-09-2004 15:30:01 21.6 C 7.4 g/m*3 21.6 C 0 km/h
1636 14-09-2004 15:42:01 22.2 C 7.07 g/m*3 22.2 C 0 km/h
1637 14-09-2004 15:54:01 21.5 C 6.98 g/m*3 21.5 C 0 km/h
1638 14-09-2004 16:06:01 22 C 6.79 g/m*3 22 C 0 km/h
1639 14-09-2004 16:18:02 21.8 C 6.91 g/m*3 21.8 C 0 km/h
1640 14-09-2004 16:30:02 21.8 C 7.1 g/m*3 21.8 C 0 km/h
1641 14-09-2004 16:42:02 21.3 C 6.9 g/m*3 21.3 C 0 km/h
1642 14-09-2004 16:54:01 21 C 6.78 g/m*3 21 C 0 km/h
1643 14-09-2004 17:06:01 21.7 C 7.06 g/m*3 21.7 C 0 km/h
1644 14-09-2004 17:18:01 22 C 6.99 g/m*3 22 C 0 km/h
1645 14-09-2004 17:30:01 21.9 C 7.14 g/m*3 21.9 C 0 km/h
1646 14-09-2004 17:42:01 20.8 C 6.88 g/m*3 20.8 C 0 km/h
1647 14-09-2004 17:54:01 20.5 C 7.12 g/m*3 20.5 C 0 km/h
1648 14-09-2004 18:06:01 20.2 C 6.99 g/m*3 20.2 C 0 km/h
1649 14-09-2004 18:18:01 20.1 C 7.13 g/m*3 20.1 C 0 km/h
1650 14-09-2004 18:30:01 20.1 C 7.3 g/m*3 20.1 C 0 km/h
Sensor: Nr:Datum:Temp:Abs-Feuchte:Windchill:Wind:
Aussen-T/F 1651 14-09-2004 18:42:00 20 C 7.26 g/m*3 20 C 0 km/h
1652 14-09-2004 18:54:01 19.9 C 7.39 g/m*3 19.9 C 0 km/h
1653 14-09-2004 19:06:01 20.4 C 7.43 g/m*3 20.4 C 0 km/h
1654 14-09-2004 19:18:02 20.8 C 7.6 g/m*3 20.8 C 0 km/h
1655 14-09-2004 19:30:02 20.2 C 7.52 g/m*3 20.2 C 0 km/h
1656 14-09-2004 19:42:02 19.5 C 7.55 g/m*3 19.5 C 0 km/h
1657 14-09-2004 19:54:02 19.1 C 7.38 g/m*3 19.1 C 0 km/h
1658 14-09-2004 20:06:03 18.7 C 7.68 g/m*3 18.7 C 0 km/h
1659 14-09-2004 20:18:02 18.6 C 7.8 g/m*3 18.6 C 0 km/h
1660 14-09-2004 20:30:02 18.1 C 7.88 g/m*3 18.1 C 0 km/h
1661 14-09-2004 20:42:02 18.3 C 8.29 g/m*3 18.3 C 0 km/h
1662 14-09-2004 20:54:01 18.1 C 8.03 g/m*3 18.1 C 0 km/h
1663 14-09-2004 21:06:01 17.7 C 8.3 g/m*3 17.7 C 0 km/h
1664 14-09-2004 21:18:01 17.5 C 8.2 g/m*3 17.5 C 0 km/h
1665 14-09-2004 21:30:01 17.2 C 8.49 g/m*3 17.2 C 0 km/h
1666 14-09-2004 21:42:01 16.9 C 8.63 g/m*3 16.9 C 0 km/h
1667 14-09-2004 21:54:01 16.7 C 8.67 g/m*3 16.7 C 0 km/h
1668 14-09-2004 22:06:01 16.5 C 8.71 g/m*3 16.5 C 0 km/h
1669 14-09-2004 22:18:01 16.4 C 8.65 g/m*3 16.4 C 0 km/h
1670 14-09-2004 22:30:01 16.2 C 8.55 g/m*3 16.2 C 0 km/h
1671 14-09-2004 22:42:01 15.9 C 8.67 g/m*3 15.9 C 0 km/h
1672 14-09-2004 22:54:01 15.8 C 8.75 g/m*3 15.8 C 0 km/h
1673 14-09-2004 23:06:01 15.5 C 8.72 g/m*3 15.5 C 0 km/h
1674 14-09-2004 23:18:01 15.2 C 8.83 g/m*3 15.2 C 0 km/h
1675 14-09-2004 23:30:01 14.9 C 8.92 g/m*3 14.9 C 0 km/h
Sensor: Nr:Datum:Temp:Abs-Feuchte:Windchill:Wind:
Aussen-T/F 1676 14-09-2004 23:42:02 14.6 C 8.88 g/m*3 14.6 C 0 km/h
1677 14-09-2004 23:54:01 14.5 C 8.95 g/m*3 14.5 C 0 km/h
1678 15-09-2004 00:06:01 14.4 C 9.02 g/m*3 14.4 C 0 km/h
1679 15-09-2004 00:18:00 14.3 C 8.97 g/m*3 14.3 C 0 km/h
1680 15-09-2004 00:30:00 14.4 C 9.02 g/m*3 14.4 C 0 km/h
1681 15-09-2004 00:42:00 14 C 8.93 g/m*3 14 C 0 km/h
1682 15-09-2004 00:54:01 13.9 C 9.11 g/m*3 13.9 C 0 km/h
1683 15-09-2004 01:06:01 13.9 C 9.11 g/m*3 13.9 C 0 km/h
1684 15-09-2004 01:18:01 13.6 C 8.94 g/m*3 13.6 C 0 km/h
1685 15-09-2004 01:30:01 13.4 C 8.95 g/m*3 13.4 C 0 km/h
1686 15-09-2004 01:42:01 13.3 C 9.01 g/m*3 13.3 C 0 km/h
1687 15-09-2004 01:54:01 13.2 C 9.07 g/m*3 13.2 C 0 km/h
1688 15-09-2004 02:06:02 13 C 8.96 g/m*3 13 C 0 km/h
1689 15-09-2004 02:18:02 13.2 C 9.07 g/m*3 13.2 C 0 km/h
1690 15-09-2004 02:30:02 13.3 C 9.13 g/m*3 13.3 C 0 km/h
1691 15-09-2004 02:42:02 12.8 C 8.96 g/m*3 12.8 C 0 km/h
1692 15-09-2004 02:54:01 12.7 C 9.02 g/m*3 12.7 C 0 km/h
1693 15-09-2004 03:06:01 12.7 C 9.13 g/m*3 12.7 C 0 km/h
1694 15-09-2004 03:18:01 12.6 C 9.07 g/m*3 12.6 C 0 km/h
1695 15-09-2004 03:30:01 12.5 C 9.02 g/m*3 12.5 C 0 km/h
1696 15-09-2004 03:42:00 12.5 C 9.13 g/m*3 12.5 C 0 km/h
1697 15-09-2004 03:54:00 12.3 C 9.01 g/m*3 12.3 C 0 km/h
1698 15-09-2004 04:06:00 12.1 C 8.9 g/m*3 12.1 C 0 km/h
1699 15-09-2004 04:18:00 12 C 8.85 g/m*3 12 C 0 km/h
1700 15-09-2004 04:30:00 11.8 C 8.95 g/m*3 11.8 C 0 km/h
Sensor: Nr:Datum:Temp:Abs-Feuchte:Windchill:Wind:
Aussen-T/F 1701 15-09-2004 04:42:00 11.7 C 8.89 g/m*3 11.7 C 0 km/h
1702 15-09-2004 04:54:00 11.7 C 8.99 g/m*3 11.7 C 0 km/h
1703 15-09-2004 05:06:00 11.8 C 8.95 g/m*3 11.8 C 0 km/h
1704 15-09-2004 05:18:00 11.9 C 9 g/m*3 11.9 C 0 km/h
1705 15-09-2004 05:30:00 11.7 C 8.89 g/m*3 11.7 C 0 km/h
1706 15-09-2004 05:42:01 11.5 C 8.88 g/m*3 11.5 C 0 km/h
1707 15-09-2004 05:54:01 11.5 C 8.99 g/m*3 11.5 C 0 km/h
1708 15-09-2004 06:06:01 11.5 C 8.99 g/m*3 11.5 C 0 km/h
1709 15-09-2004 06:18:01 11.6 C 8.94 g/m*3 11.6 C 0 km/h
1710 15-09-2004 06:30:01 11.6 C 8.83 g/m*3 11.6 C 0 km/h
1711 15-09-2004 06:42:01 11.5 C 8.78 g/m*3 11.5 C 0 km/h
1712 15-09-2004 06:54:01 11.7 C 8.89 g/m*3 11.7 C 0 km/h
1713 15-09-2004 07:06:00 11.8 C 8.84 g/m*3 11.8 C 0 km/h
1714 15-09-2004 07:18:00 12 C 8.74 g/m*3 12 C 0 km/h
1715 15-09-2004 07:30:00 12.2 C 8.63 g/m*3 12.2 C 0 km/h
1716 15-09-2004 07:42:00 12.4 C 8.63 g/m*3 12.4 C 0 km/h
1717 15-09-2004 07:54:00 12.4 C 8.63 g/m*3 12.4 C 0 km/h
1718 15-09-2004 08:06:00 12.4 C 8.63 g/m*3 12.4 C 0 km/h
1719 15-09-2004 08:18:00 12.6 C 8.63 g/m*3 12.6 C 0 km/h
1720 15-09-2004 08:30:00 12.8 C 8.51 g/m*3 12.8 C 0 km/h
1721 15-09-2004 08:42:00 13 C 8.39 g/m*3 13 C 0 km/h
1722 15-09-2004 08:54:00 13.5 C 8.54 g/m*3 13.5 C 0 km/h
1723 15-09-2004 09:06:00 13.5 C 8.42 g/m*3 13.5 C 0 km/h
1724 15-09-2004 09:18:01 13.5 C 8.54 g/m*3 13.5 C 0 km/h
1725 15-09-2004 09:30:01 13.8 C 8.7 g/m*3 13.8 C 0 km/h
Sensor: Nr:Datum:Temp:Abs-Feuchte:Windchill:Wind:
Aussen-T/F 1726 15-09-2004 09:42:01 14.2 C 8.55 g/m*3 14.2 C 0 km/h
1727 15-09-2004 09:54:01 14.2 C 8.43 g/m*3 14.2 C 0 km/h
1728 15-09-2004 10:06:01 14.4 C 8.28 g/m*3 14.4 C 0 km/h
1729 15-09-2004 10:18:00 14.6 C 8.38 g/m*3 14.6 C 0 km/h
1730 15-09-2004 10:30:00 14.5 C 8.33 g/m*3 14.5 C 0 km/h
1731 15-09-2004 10:42:00 14.7 C 8.31 g/m*3 14.7 C 0 km/h
1732 15-09-2004 10:54:00 15.2 C 8.31 g/m*3 15.2 C 0 km/h
1733 15-09-2004 11:06:00 15.8 C 8.08 g/m*3 15.8 C 0 km/h
1734 15-09-2004 11:18:00 16.2 C 8.14 g/m*3 16.2 C 0 km/h
1735 15-09-2004 11:30:00 16.4 C 8.1 g/m*3 16.4 C 0 km/h
1736 15-09-2004 11:42:00 16.7 C 8.1 g/m*3 16.7 C 0 km/h
1737 15-09-2004 11:54:00 16.8 C 8.15 g/m*3 16.8 C 0 km/h
1738 15-09-2004 12:06:00 15.4 C 8.93 g/m*3 15.4 C 0 km/h
1739 15-09-2004 12:18:00 14.6 C 9.51 g/m*3 14.6 C 0 km/h
1740 15-09-2004 12:30:00 14.9 C 9.81 g/m*3 14.9 C 0 km/h
1741 15-09-2004 12:42:01 15.6 C 9.58 g/m*3 15.6 C 0 km/h
1742 15-09-2004 12:54:01 16.2 C 9.24 g/m*3 16.2 C 0 km/h
1743 15-09-2004 13:06:01 16.6 C 9.04 g/m*3 16.6 C 0 km/h
1744 15-09-2004 13:18:01 16.8 C 8.72 g/m*3 16.8 C 0 km/h
1745 15-09-2004 13:30:01 16.8 C 8.29 g/m*3 16.8 C 0 km/h
1746 15-09-2004 13:42:01 16.8 C 8.29 g/m*3 16.8 C 0 km/h
1747 15-09-2004 13:54:00 17 C 7.96 g/m*3 17 C 0 km/h
1748 15-09-2004 14:06:00 17.2 C 8.05 g/m*3 17.2 C 0 km/h
1749 15-09-2004 14:18:00 17.5 C 8.35 g/m*3 17.5 C 0 km/h
1750 15-09-2004 14:30:00 17.5 C 8.2 g/m*3 17.5 C 0 km/h
Sensor: Nr:Datum:Temp:Abs-Feuchte:Windchill:Wind:
Aussen-T/F 1751 15-09-2004 14:42:00 17.5 C 6.71 g/m*3 17.5 C 0 km/h
1752 15-09-2004 14:54:00 17 C 6.66 g/m*3 17 C 0 km/h
1753 15-09-2004 15:06:00 18 C 6.6 g/m*3 18 C 0 km/h
1754 15-09-2004 15:18:00 19.1 C 6.07 g/m*3 19.1 C 0 km/h
1755 15-09-2004 15:30:00 19.6 C 5.74 g/m*3 19.6 C 0 km/h
1756 15-09-2004 15:42:00 19.8 C 5.12 g/m*3 19.8 C 0 km/h
1757 15-09-2004 15:54:01 19.3 C 5.14 g/m*3 19.3 C 0 km/h
1758 15-09-2004 16:06:01 19.9 C 5.33 g/m*3 19.9 C 0 km/h
1759 15-09-2004 16:18:01 19.8 C 5.3 g/m*3 19.8 C 0 km/h
1760 15-09-2004 16:30:01 19.4 C 5.34 g/m*3 19.4 C 0 km/h
1761 15-09-2004 16:42:01 19.7 C 5.43 g/m*3 19.7 C 0 km/h
1762 15-09-2004 16:54:00 20.3 C 5.63 g/m*3 20.3 C 0 km/h
1763 15-09-2004 17:06:00 20 C 5.7 g/m*3 20 C 0 km/h
1764 15-09-2004 17:18:00 20.3 C 5.8 g/m*3 20.3 C 0 km/h
1765 15-09-2004 17:30:00 19.2 C 6.1 g/m*3 19.2 C 0 km/h
1766 15-09-2004 17:42:00 17.9 C 6.87 g/m*3 17.9 C 0 km/h
1767 15-09-2004 17:54:00 18.2 C 6.99 g/m*3 18.2 C 0 km/h
1768 15-09-2004 18:06:00 18.6 C 6.53 g/m*3 18.6 C 0 km/h
1769 15-09-2004 18:18:00 18.5 C 6.49 g/m*3 18.5 C 0 km/h
1770 15-09-2004 18:30:00 18.6 C 6.68 g/m*3 18.6 C 0 km/h
1771 15-09-2004 18:42:00 17.4 C 6.67 g/m*3 17.4 C 0 km/h
1772 15-09-2004 18:54:00 16.6 C 6.64 g/m*3 16.6 C 0 km/h
1773 15-09-2004 19:06:01 16.8 C 6.72 g/m*3 16.8 C 0 km/h
1774 15-09-2004 19:18:01 17.1 C 6.84 g/m*3 17.1 C 0 km/h
1775 15-09-2004 19:30:01 16.3 C 6.8 g/m*3 16.3 C 0 km/h
Sensor: Nr:Datum:Temp:Abs-Feuchte:Windchill:Wind:
Aussen-T/F 1776 15-09-2004 19:42:01 15.5 C 6.74 g/m*3 15.5 C 0 km/h
1777 15-09-2004 19:54:01 15.1 C 6.58 g/m*3 15.1 C 0 km/h
1778 15-09-2004 20:06:01 14.7 C 6.92 g/m*3 14.7 C 0 km/h
1779 15-09-2004 20:18:00 14.1 C 6.92 g/m*3 14.1 C 0 km/h
1780 15-09-2004 20:30:00 13.8 C 7.03 g/m*3 13.8 C 0 km/h
1781 15-09-2004 20:42:00 13.7 C 7.1 g/m*3 13.7 C 0 km/h
1782 15-09-2004 20:54:00 13.5 C 7.13 g/m*3 13.5 C 0 km/h
1783 15-09-2004 21:06:00 13.2 C 7.23 g/m*3 13.2 C 0 km/h
1784 15-09-2004 21:18:00 13 C 7.14 g/m*3 13 C 0 km/h
1785 15-09-2004 21:30:00 12.7 C 7.35 g/m*3 12.7 C 0 km/h
1786 15-09-2004 21:42:00 12.5 C 7.37 g/m*3 12.5 C 0 km/h
1787 15-09-2004 21:54:00 12.3 C 7.38 g/m*3 12.3 C 0 km/h
1788 15-09-2004 22:06:00 12 C 7.35 g/m*3 12 C 0 km/h
1789 15-09-2004 22:18:00 11.9 C 7.52 g/m*3 11.9 C 0 km/h
1790 15-09-2004 22:30:01 11.7 C 7.64 g/m*3 11.7 C 0 km/h
1791 15-09-2004 22:42:01 11.4 C 7.29 g/m*3 11.4 C 0 km/h
1792 15-09-2004 22:54:01 11.2 C 7.4 g/m*3 11.2 C 0 km/h
1793 15-09-2004 23:06:01 11.1 C 7.35 g/m*3 11.1 C 0 km/h
1794 15-09-2004 23:18:01 10.9 C 7.36 g/m*3 10.9 C 0 km/h
1795 15-09-2004 23:30:01 10.8 C 7.41 g/m*3 10.8 C 0 km/h
1796 15-09-2004 23:42:00 10.6 C 7.42 g/m*3 10.6 C 0 km/h
1797 15-09-2004 23:54:00 10.5 C 7.37 g/m*3 10.5 C 0 km/h
1798 16-09-2004 00:06:00 10.3 C 7.37 g/m*3 10.3 C 0 km/h
1799 16-09-2004 00:18:01 10.2 C 7.42 g/m*3 10.2 C 0 km/h
1800 16-09-2004 00:30:01 9.8 C 7.42 g/m*3 9.8 C 0 km/h
Sensor: Nr:Datum:Temp:Abs-Feuchte:Windchill:Wind:
Aussen-T/F 1801 16-09-2004 00:42:01 9.8 C 7.52 g/m*3 9.8 C 0 km/h
1802 16-09-2004 00:54:01 9.5 C 7.37 g/m*3 9.5 C 0 km/h
1803 16-09-2004 01:06:00 9.5 C 7.46 g/m*3 9.5 C 0 km/h
1804 16-09-2004 01:18:00 9.5 C 7.46 g/m*3 9.5 C 0 km/h
1805 16-09-2004 01:30:00 9.7 C 7.47 g/m*3 9.7 C 0 km/h
1806 16-09-2004 01:42:00 10 C 7.42 g/m*3 10 C 0 km/h
1807 16-09-2004 01:54:00 9.8 C 7.42 g/m*3 9.8 C 0 km/h
1808 16-09-2004 02:06:00 9.6 C 7.42 g/m*3 9.6 C 0 km/h
1809 16-09-2004 02:18:00 9.5 C 7.37 g/m*3 9.5 C 0 km/h
1810 16-09-2004 02:30:00 9.5 C 7.37 g/m*3 9.5 C 0 km/h
1811 16-09-2004 02:42:00 9.1 C 7.28 g/m*3 9.1 C 0 km/h
1812 16-09-2004 02:55:03 8.8 C 7.31 g/m*3 8.8 C 0 km/h
1813 16-09-2004 03:07:03 8.6 C 7.3 g/m*3 8.6 C 0 km/h
1814 16-09-2004 03:19:04 8.5 C 7.34 g/m*3 8.5 C 0 km/h
1815 16-09-2004 03:31:01 8.4 C 7.3 g/m*3 8.4 C 0 km/h
1816 16-09-2004 03:43:01 8.2 C 7.29 g/m*3 8.2 C 0 km/h
1817 16-09-2004 03:55:01 8.1 C 7.24 g/m*3 8.1 C 0 km/h
1818 16-09-2004 04:07:01 8 C 7.19 g/m*3 8 C 0 km/h
1819 16-09-2004 04:19:01 8 C 7.28 g/m*3 8 C 0 km/h
1820 16-09-2004 04:31:00 7.9 C 7.31 g/m*3 7.9 C 0 km/h
1821 16-09-2004 04:43:00 7.7 C 7.22 g/m*3 7.7 C 0 km/h
1822 16-09-2004 04:55:01 7.6 C 7.17 g/m*3 7.6 C 0 km/h
1823 16-09-2004 05:07:01 7.6 C 7.25 g/m*3 7.6 C 0 km/h
1824 16-09-2004 05:19:01 7.4 C 7.16 g/m*3 7.4 C 0 km/h
1825 16-09-2004 05:31:00 7.2 C 7.06 g/m*3 7.2 C 0 km/h
Sensor: Nr:Datum:Temp:Abs-Feuchte:Windchill:Wind:
Aussen-T/F 1826 16-09-2004 05:43:00 7.1 C 7.02 g/m*3 7.1 C 0 km/h
1827 16-09-2004 05:55:01 7.2 C 7.06 g/m*3 7.2 C 0 km/h
1828 16-09-2004 06:07:01 7 C 7.05 g/m*3 7 C 0 km/h
1829 16-09-2004 06:19:00 6.9 C 7.01 g/m*3 6.9 C 0 km/h
1830 16-09-2004 06:31:00 6.9 C 7.01 g/m*3 6.9 C 0 km/h
1831 16-09-2004 06:43:00 6.8 C 6.96 g/m*3 6.8 C 0 km/h
1832 16-09-2004 06:55:02 6.8 C 6.96 g/m*3 6.8 C 0 km/h
1833 16-09-2004 07:07:02 6.7 C 6.91 g/m*3 6.7 C 0 km/h
1834 16-09-2004 07:19:02 6.4 C 6.85 g/m*3 6.4 C 0 km/h
1835 16-09-2004 07:31:01 6.4 C 6.85 g/m*3 6.4 C 0 km/h
1836 16-09-2004 07:43:01 6.4 C 6.85 g/m*3 6.4 C 0 km/h
1837 16-09-2004 07:55:01 6.5 C 6.9 g/m*3 6.5 C 0 km/h
1838 16-09-2004 08:07:01 6.7 C 7.07 g/m*3 6.7 C 0 km/h
1839 16-09-2004 08:19:01 6.8 C 7.11 g/m*3 6.8 C 0 km/h
1840 16-09-2004 08:31:00 7 C 7.13 g/m*3 7 C 0 km/h
1841 16-09-2004 08:43:00 7.4 C 7.24 g/m*3 7.4 C 0 km/h
1842 16-09-2004 08:55:01 7.5 C 7.2 g/m*3 7.5 C 0 km/h
1843 16-09-2004 09:07:01 7.8 C 7.26 g/m*3 7.8 C 0 km/h
1844 16-09-2004 09:19:00 8.1 C 7.24 g/m*3 8.1 C 0 km/h
1845 16-09-2004 09:31:00 8.4 C 7.3 g/m*3 8.4 C 0 km/h
1846 16-09-2004 09:43:00 8.8 C 7.4 g/m*3 8.8 C 0 km/h
1847 16-09-2004 09:55:01 9.3 C 7.46 g/m*3 9.3 C 0 km/h
1848 16-09-2004 10:07:01 9.5 C 7.46 g/m*3 9.5 C 0 km/h
1849 16-09-2004 10:19:01 9.8 C 7.52 g/m*3 9.8 C 0 km/h
1850 16-09-2004 10:31:01 10.4 C 7.81 g/m*3 10.4 C 0 km/h
Sensor: Nr:Datum:Temp:Abs-Feuchte:Windchill:Wind:
Aussen-T/F 1851 16-09-2004 10:43:01 10.9 C 7.96 g/m*3 10.9 C 0 km/h
1852 16-09-2004 10:55:01 11.5 C 8.06 g/m*3 11.5 C 0 km/h
1853 16-09-2004 11:07:01 12.1 C 8.26 g/m*3 12.1 C 0 km/h
1854 16-09-2004 11:19:00 12.5 C 8.25 g/m*3 12.5 C 0 km/h
1855 16-09-2004 11:31:00 13.1 C 8.33 g/m*3 13.1 C 0 km/h
1856 16-09-2004 11:43:00 13.6 C 8.24 g/m*3 13.6 C 0 km/h
1857 16-09-2004 11:55:01 14.2 C 8.3 g/m*3 14.2 C 0 km/h
1858 16-09-2004 12:07:01 14.6 C 8.13 g/m*3 14.6 C 0 km/h
1859 16-09-2004 12:19:01 15 C 7.95 g/m*3 15 C 0 km/h
1860 16-09-2004 12:31:00 15.5 C 7.67 g/m*3 15.5 C 0 km/h
1861 16-09-2004 12:43:00 15.6 C 7.31 g/m*3 15.6 C 0 km/h
1862 16-09-2004 12:55:01 15.8 C 7.27 g/m*3 15.8 C 0 km/h
1863 16-09-2004 13:07:01 16.1 C 7.4 g/m*3 16.1 C 0 km/h
1864 16-09-2004 13:19:00 16.7 C 6.96 g/m*3 16.7 C 0 km/h
1865 16-09-2004 13:31:01 17.5 C 6.11 g/m*3 17.5 C 0 km/h
1866 16-09-2004 13:43:01 17.9 C 6.26 g/m*3 17.9 C 0 km/h
1867 16-09-2004 13:55:01 18.3 C 6.41 g/m*3 18.3 C 0 km/h
1868 16-09-2004 14:07:01 18.7 C 5.92 g/m*3 18.7 C 0 km/h
1869 16-09-2004 14:19:00 19.2 C 5.44 g/m*3 19.2 C 0 km/h
1870 16-09-2004 14:31:00 19.7 C 5.94 g/m*3 19.7 C 0 km/h
1871 16-09-2004 14:43:00 20.5 C 5.69 g/m*3 20.5 C 0 km/h
1872 16-09-2004 14:55:01 21.4 C 5.62 g/m*3 21.4 C 0 km/h
1873 16-09-2004 15:07:01 21.8 C 5.76 g/m*3 21.8 C 0 km/h
1874 16-09-2004 15:19:01 21 C 5.31 g/m*3 21 C 0 km/h
1875 16-09-2004 15:31:00 19.7 C 5.6 g/m*3 19.7 C 0 km/h
Sensor: Nr:Datum:Temp:Abs-Feuchte:Windchill:Wind:
Aussen-T/F 1876 16-09-2004 15:43:00 20.5 C 5.52 g/m*3 20.5 C 0 km/h
1877 16-09-2004 15:55:01 21.2 C 5 g/m*3 21.2 C 0 km/h
1878 16-09-2004 16:07:01 21.3 C 4.85 g/m*3 21.3 C 0 km/h
1879 16-09-2004 16:19:00 21.6 C 4.74 g/m*3 21.6 C 0 km/h
1880 16-09-2004 16:31:00 21.9 C 4.82 g/m*3 21.9 C 0 km/h
1881 16-09-2004 16:43:00 22 C 5.82 g/m*3 22 C 0 km/h
1882 16-09-2004 16:55:02 22 C 5.05 g/m*3 22 C 0 km/h
1883 16-09-2004 17:07:02 22 C 6.02 g/m*3 22 C 0 km/h
1884 16-09-2004 17:19:02 21.2 C 6.12 g/m*3 21.2 C 0 km/h
1885 16-09-2004 17:31:01 22.3 C 6.52 g/m*3 22.3 C 0 km/h
1886 16-09-2004 17:43:01 22.9 C 6.54 g/m*3 22.9 C 0 km/h
1887 16-09-2004 17:55:01 22.7 C 6.26 g/m*3 22.7 C 0 km/h
1888 16-09-2004 18:07:01 21.6 C 6.26 g/m*3 21.6 C 0 km/h
1889 16-09-2004 18:19:01 21.1 C 5.9 g/m*3 21.1 C 0 km/h
1890 16-09-2004 18:31:01 20 C 6.22 g/m*3 20 C 0 km/h
1891 16-09-2004 18:43:01 18.4 C 6.29 g/m*3 18.4 C 0 km/h
1892 16-09-2004 18:55:01 17.4 C 6.08 g/m*3 17.4 C 0 km/h
1893 16-09-2004 19:07:01 16.9 C 6.18 g/m*3 16.9 C 0 km/h
1894 16-09-2004 19:19:01 16.2 C 5.93 g/m*3 16.2 C 0 km/h
1895 16-09-2004 19:31:01 16.1 C 5.76 g/m*3 16.1 C 0 km/h
1896 16-09-2004 19:43:01 15.3 C 6.01 g/m*3 15.3 C 0 km/h
1897 16-09-2004 19:55:01 14.8 C 6.08 g/m*3 14.8 C 0 km/h
1898 16-09-2004 20:07:02 14.3 C 6.02 g/m*3 14.3 C 0 km/h
1899 16-09-2004 20:19:02 13.7 C 6.04 g/m*3 13.7 C 0 km/h
1900 16-09-2004 20:31:02 13.1 C 5.82 g/m*3 13.1 C 0 km/h
Sensor: Nr:Datum:Temp:Abs-Feuchte:Windchill:Wind:
Aussen-T/F 1901 16-09-2004 20:43:02 12.8 C 6.16 g/m*3 12.8 C 0 km/h
1902 16-09-2004 20:55:01 12.5 C 6.27 g/m*3 12.5 C 0 km/h
1903 16-09-2004 21:07:01 12.4 C 6.23 g/m*3 12.4 C 0 km/h
1904 16-09-2004 21:19:01 12.1 C 6.33 g/m*3 12.1 C 0 km/h
1905 16-09-2004 21:31:01 11.9 C 6.35 g/m*3 11.9 C 0 km/h
1906 16-09-2004 21:43:01 11.6 C 6.34 g/m*3 11.6 C 0 km/h
1907 16-09-2004 21:55:01 11.2 C 6.28 g/m*3 11.2 C 0 km/h
1908 16-09-2004 22:07:01 11.1 C 6.25 g/m*3 11.1 C 0 km/h
1909 16-09-2004 22:19:01 11 C 6.31 g/m*3 11 C 0 km/h
1910 16-09-2004 22:31:01 10.8 C 6.33 g/m*3 10.8 C 0 km/h
1911 16-09-2004 22:43:01 10.7 C 6.38 g/m*3 10.7 C 0 km/h
1912 16-09-2004 22:55:01 10.4 C 6.26 g/m*3 10.4 C 0 km/h
1913 16-09-2004 23:07:01 10.1 C 6.24 g/m*3 10.1 C 0 km/h
1914 16-09-2004 23:19:01 9.8 C 6.4 g/m*3 9.8 C 0 km/h
1915 16-09-2004 23:31:00 9.7 C 6.36 g/m*3 9.7 C 0 km/h
1916 16-09-2004 23:43:00 9.5 C 6.37 g/m*3 9.5 C 0 km/h
1917 16-09-2004 23:55:01 9.4 C 6.51 g/m*3 9.4 C 0 km/h
1918 17-09-2004 00:07:02 9.2 C 6.34 g/m*3 9.2 C 0 km/h
1919 17-09-2004 00:19:01 9 C 6.35 g/m*3 9 C 0 km/h
1920 17-09-2004 00:31:01 8.9 C 6.48 g/m*3 8.9 C 0 km/h
1921 17-09-2004 00:43:01 8.6 C 6.27 g/m*3 8.6 C 0 km/h
1922 17-09-2004 00:55:01 8.7 C 6.4 g/m*3 8.7 C 0 km/h
1923 17-09-2004 01:07:01 8.3 C 6.32 g/m*3 8.3 C 0 km/h
1924 17-09-2004 01:19:01 8.1 C 6.41 g/m*3 8.1 C 0 km/h
1925 17-09-2004 01:31:01 8 C 6.45 g/m*3 8 C 0 km/h
Sensor: Nr:Datum:Temp:Abs-Feuchte:Windchill:Wind:
Aussen-T/F 1926 17-09-2004 01:43:01 8 C 6.37 g/m*3 8 C 0 km/h
1927 17-09-2004 01:55:01 7.9 C 6.49 g/m*3 7.9 C 0 km/h
1928 17-09-2004 02:07:01 7.7 C 6.57 g/m*3 7.7 C 0 km/h
1929 17-09-2004 02:19:01 7.6 C 6.44 g/m*3 7.6 C 0 km/h
1930 17-09-2004 02:31:01 7.5 C 6.4 g/m*3 7.5 C 0 km/h
1931 17-09-2004 02:43:01 7.4 C 6.44 g/m*3 7.4 C 0 km/h
1932 17-09-2004 02:55:01 7.1 C 6.32 g/m*3 7.1 C 0 km/h
1933 17-09-2004 03:07:01 7 C 6.35 g/m*3 7 C 0 km/h
1934 17-09-2004 03:19:01 7 C 6.35 g/m*3 7 C 0 km/h
1935 17-09-2004 03:31:00 6.9 C 6.39 g/m*3 6.9 C 0 km/h
1936 17-09-2004 03:43:00 6.9 C 6.39 g/m*3 6.9 C 0 km/h
1937 17-09-2004 03:55:00 6.9 C 6.39 g/m*3 6.9 C 0 km/h
1938 17-09-2004 04:07:00 6.7 C 6.38 g/m*3 6.7 C 0 km/h
1939 17-09-2004 04:19:00 6.6 C 6.42 g/m*3 6.6 C 0 km/h
1940 17-09-2004 04:31:00 6.4 C 6.33 g/m*3 6.4 C 0 km/h
1941 17-09-2004 04:43:00 6.2 C 6.25 g/m*3 6.2 C 0 km/h
1942 17-09-2004 04:55:00 6 C 6.17 g/m*3 6 C 0 km/h
1943 17-09-2004 05:07:00 6 C 6.24 g/m*3 6 C 0 km/h
1944 17-09-2004 05:19:00 5.9 C 6.27 g/m*3 5.9 C 0 km/h
1945 17-09-2004 05:31:00 5.8 C 6.23 g/m*3 5.8 C 0 km/h
1946 17-09-2004 05:43:00 5.7 C 6.19 g/m*3 5.7 C 0 km/h
1947 17-09-2004 05:55:00 5.5 C 6.18 g/m*3 5.5 C 0 km/h
1948 17-09-2004 06:07:01 5.4 C 6.14 g/m*3 5.4 C 0 km/h
1949 17-09-2004 06:19:01 5.3 C 6.1 g/m*3 5.3 C 0 km/h
1950 17-09-2004 06:31:01 5.2 C 6.13 g/m*3 5.2 C 0 km/h
Sensor: Nr:Datum:Temp:Abs-Feuchte:Windchill:Wind:
Aussen-T/F 1951 17-09-2004 06:43:01 5.2 C 6.13 g/m*3 5.2 C 0 km/h
1952 17-09-2004 06:55:01 5.1 C 6.09 g/m*3 5.1 C 0 km/h
1953 17-09-2004 07:07:01 5.1 C 6.16 g/m*3 5.1 C 0 km/h
1954 17-09-2004 07:19:00 5 C 6.12 g/m*3 5 C 0 km/h
1955 17-09-2004 07:31:01 5 C 6.12 g/m*3 5 C 0 km/h
1956 17-09-2004 07:43:01 4.9 C 6.21 g/m*3 4.9 C 0 km/h
1957 17-09-2004 07:55:00 4.9 C 6.21 g/m*3 4.9 C 0 km/h
1958 17-09-2004 08:07:00 5.3 C 6.38 g/m*3 5.3 C 0 km/h
1959 17-09-2004 08:19:00 5.5 C 6.39 g/m*3 5.5 C 0 km/h
1960 17-09-2004 08:31:00 5.7 C 6.48 g/m*3 5.7 C 0 km/h
1961 17-09-2004 08:43:00 5.9 C 6.49 g/m*3 5.9 C 0 km/h
1962 17-09-2004 08:55:00 6.3 C 6.51 g/m*3 6.3 C 0 km/h
1963 17-09-2004 09:07:00 6.5 C 6.6 g/m*3 6.5 C 0 km/h
1964 17-09-2004 09:19:00 6.7 C 6.61 g/m*3 6.7 C 0 km/h
1965 17-09-2004 09:31:00 6.6 C 6.64 g/m*3 6.6 C 0 km/h
1966 17-09-2004 09:43:01 6.8 C 6.81 g/m*3 6.8 C 0 km/h
1967 17-09-2004 09:55:01 7.2 C 6.91 g/m*3 7.2 C 0 km/h
1968 17-09-2004 10:07:01 7.7 C 7.14 g/m*3 7.7 C 0 km/h
1969 17-09-2004 10:19:01 8 C 6.94 g/m*3 8 C 0 km/h
1970 17-09-2004 10:31:01 8.6 C 7.22 g/m*3 8.6 C 0 km/h
1971 17-09-2004 10:43:01 9.2 C 7.41 g/m*3 9.2 C 0 km/h
1972 17-09-2004 10:55:00 10.2 C 7.52 g/m*3 10.2 C 0 km/h
1973 17-09-2004 11:07:00 11.1 C 7.55 g/m*3 11.1 C 0 km/h
1974 17-09-2004 11:19:00 12 C 7.67 g/m*3 12 C 0 km/h
1975 17-09-2004 11:31:00 12.4 C 7.65 g/m*3 12.4 C 0 km/h
Sensor: Nr:Datum:Temp:Abs-Feuchte:Windchill:Wind:
Aussen-T/F 1976 17-09-2004 11:43:00 13.1 C 7.65 g/m*3 13.1 C 0 km/h
1977 17-09-2004 11:55:00 13.8 C 7.86 g/m*3 13.8 C 0 km/h
1978 17-09-2004 12:07:00 14.5 C 7.96 g/m*3 14.5 C 0 km/h
1979 17-09-2004 12:19:00 15.2 C 8.18 g/m*3 15.2 C 0 km/h
1980 17-09-2004 12:31:00 15.6 C 8.38 g/m*3 15.6 C 0 km/h
1981 17-09-2004 12:43:00 16 C 8.45 g/m*3 16 C 0 km/h
1982 17-09-2004 12:55:00 16.4 C 8.37 g/m*3 16.4 C 0 km/h
1983 17-09-2004 13:07:00 17 C 8.54 g/m*3 17 C 0 km/h
1984 17-09-2004 13:19:01 17.7 C 8.6 g/m*3 17.7 C 0 km/h
1985 17-09-2004 13:31:01 18.6 C 8.75 g/m*3 18.6 C 0 km/h
1986 17-09-2004 13:43:01 19.2 C 7.09 g/m*3 19.2 C 0 km/h
1987 17-09-2004 13:55:01 20.1 C 8 g/m*3 20.1 C 0 km/h
1988 17-09-2004 14:07:01 21 C 8.24 g/m*3 21 C 0 km/h
1989 17-09-2004 14:19:01 21.3 C 6.71 g/m*3 21.3 C 0 km/h
1990 17-09-2004 14:31:00 21.9 C 6.75 g/m*3 21.9 C 0 km/h
1991 17-09-2004 14:43:00 22.3 C 6.52 g/m*3 22.3 C 0 km/h
1992 17-09-2004 14:55:00 22 C 6.6 g/m*3 22 C 0 km/h
1993 17-09-2004 15:07:00 22.7 C 6.26 g/m*3 22.7 C 0 km/h
1994 17-09-2004 15:19:00 22.7 C 6.06 g/m*3 22.7 C 0 km/h
1995 17-09-2004 15:31:00 23.2 C 5.61 g/m*3 23.2 C 0 km/h
1996 17-09-2004 15:43:00 24 C 5.87 g/m*3 24 C 0 km/h
1997 17-09-2004 15:55:00 22.8 C 5.49 g/m*3 22.8 C 0 km/h
1998 17-09-2004 16:07:00 23.4 C 5.89 g/m*3 23.4 C 0 km/h
1999 17-09-2004 16:19:00 24.6 C 6.08 g/m*3 24.6 C 0 km/h
2000 17-09-2004 16:31:00 25.1 C 6.25 g/m*3 25.1 C 0 km/h
Sensor: Nr:Datum:Temp:Abs-Feuchte:Windchill:Wind:
Aussen-T/F 2001 17-09-2004 16:43:00 25.4 C 6.12 g/m*3 25.4 C 0 km/h
2002 17-09-2004 16:55:00 25.3 C 6.09 g/m*3 25.3 C 0 km/h
2003 17-09-2004 17:07:01 25.4 C 6.12 g/m*3 25.4 C 0 km/h
2004 17-09-2004 17:19:01 25.3 C 6.55 g/m*3 25.3 C 0 km/h
2005 17-09-2004 17:31:01 25.4 C 5.89 g/m*3 25.4 C 0 km/h
2006 17-09-2004 17:43:01 25.7 C 6.22 g/m*3 25.7 C 0 km/h
2007 17-09-2004 17:55:01 25.1 C 6.48 g/m*3 25.1 C 0 km/h
2008 17-09-2004 18:07:01 25 C 6.22 g/m*3 25 C 0 km/h
2009 17-09-2004 18:19:00 24.3 C 7.08 g/m*3 24.3 C 0 km/h
2010 17-09-2004 18:31:00 24.1 C 7.44 g/m*3 24.1 C 0 km/h
2011 17-09-2004 18:43:00 22.4 C 7.55 g/m*3 22.4 C 0 km/h
2012 17-09-2004 18:55:00 21.7 C 7.44 g/m*3 21.7 C 0 km/h
2013 17-09-2004 19:07:00 20.8 C 7.6 g/m*3 20.8 C 0 km/h
2014 17-09-2004 19:19:00 19.4 C 7.34 g/m*3 19.4 C 0 km/h
2015 17-09-2004 19:31:00 18.3 C 7.19 g/m*3 18.3 C 0 km/h
2016 17-09-2004 19:43:00 17.3 C 7.07 g/m*3 17.3 C 0 km/h
2017 17-09-2004 19:55:00 16.7 C 7.11 g/m*3 16.7 C 0 km/h
2018 17-09-2004 20:07:00 16.4 C 7.12 g/m*3 16.4 C 0 km/h
2019 17-09-2004 20:19:00 15.9 C 7.04 g/m*3 15.9 C 0 km/h
2020 17-09-2004 20:31:00 15.7 C 7.09 g/m*3 15.7 C 0 km/h
2021 17-09-2004 20:43:01 15.6 C 7.18 g/m*3 15.6 C 0 km/h
2022 17-09-2004 20:55:01 15.2 C 7.14 g/m*3 15.2 C 0 km/h
2023 17-09-2004 21:07:01 15 C 7.05 g/m*3 15 C 0 km/h
2024 17-09-2004 21:19:01 14.9 C 7.39 g/m*3 14.9 C 0 km/h
2025 17-09-2004 21:31:01 15 C 7.31 g/m*3 15 C 0 km/h
Sensor: Nr:Datum:Temp:Abs-Feuchte:Windchill:Wind:
Aussen-T/F 2026 17-09-2004 21:43:01 14.9 C 7.39 g/m*3 14.9 C 0 km/h
2027 17-09-2004 21:55:01 15 C 7.18 g/m*3 15 C 0 km/h
2028 17-09-2004 22:07:00 14.9 C 7.52 g/m*3 14.9 C 0 km/h
2029 17-09-2004 22:19:00 14.7 C 7.55 g/m*3 14.7 C 0 km/h
2030 17-09-2004 22:31:00 14.5 C 7.59 g/m*3 14.5 C 0 km/h
2031 17-09-2004 22:43:00 14.3 C 7.49 g/m*3 14.3 C 0 km/h
2032 17-09-2004 22:55:00 14.2 C 7.33 g/m*3 14.2 C 0 km/h
2033 17-09-2004 23:07:00 14.3 C 7.37 g/m*3 14.3 C 0 km/h
2034 17-09-2004 23:19:00 14 C 7.36 g/m*3 14 C 0 km/h
2035 17-09-2004 23:31:00 13.6 C 7.65 g/m*3 13.6 C 0 km/h
2036 17-09-2004 23:43:00 13.1 C 7.65 g/m*3 13.1 C 0 km/h
2037 17-09-2004 23:55:00 12.8 C 7.73 g/m*3 12.8 C 0 km/h
2038 18-09-2004 00:07:00 12.5 C 7.7 g/m*3 12.5 C 0 km/h
2039 18-09-2004 00:19:01 12.2 C 7.66 g/m*3 12.2 C 0 km/h
2040 18-09-2004 00:31:01 11.8 C 7.47 g/m*3 11.8 C 0 km/h
2041 18-09-2004 00:43:01 11.7 C 7.53 g/m*3 11.7 C 0 km/h
2042 18-09-2004 00:55:01 11.4 C 7.6 g/m*3 11.4 C 0 km/h
2043 18-09-2004 01:07:01 11.3 C 7.75 g/m*3 11.3 C 0 km/h
2044 18-09-2004 01:19:01 11.2 C 7.6 g/m*3 11.2 C 0 km/h
2045 18-09-2004 01:31:00 10.9 C 7.56 g/m*3 10.9 C 0 km/h
2046 18-09-2004 01:43:00 10.8 C 7.61 g/m*3 10.8 C 0 km/h
2047 18-09-2004 01:55:00 10.8 C 7.61 g/m*3 10.8 C 0 km/h
2048 18-09-2004 02:07:00 10.4 C 7.42 g/m*3 10.4 C 0 km/h
2049 18-09-2004 02:19:00 10.2 C 7.42 g/m*3 10.2 C 0 km/h
2050 18-09-2004 02:31:00 10 C 7.33 g/m*3 10 C 0 km/h
Sensor: Nr:Datum:Temp:Abs-Feuchte:Windchill:Wind:
Aussen-T/F 2051 18-09-2004 02:43:00 9.8 C 7.42 g/m*3 9.8 C 0 km/h
2052 18-09-2004 02:56:03 9.8 C 7.42 g/m*3 9.8 C 0 km/h
2053 18-09-2004 03:08:03 9.6 C 7.42 g/m*3 9.6 C 0 km/h
2054 18-09-2004 03:20:03 9.4 C 7.42 g/m*3 9.4 C 0 km/h
2055 18-09-2004 03:32:01 9.3 C 7.37 g/m*3 9.3 C 0 km/h
2056 18-09-2004 03:44:01 9 C 7.32 g/m*3 9 C 0 km/h
2057 18-09-2004 03:56:01 9 C 7.32 g/m*3 9 C 0 km/h
2058 18-09-2004 04:08:01 9 C 7.32 g/m*3 9 C 0 km/h
2059 18-09-2004 04:20:01 8.9 C 7.36 g/m*3 8.9 C 0 km/h
2060 18-09-2004 04:32:01 8.8 C 7.31 g/m*3 8.8 C 0 km/h
2061 18-09-2004 04:44:01 8.7 C 7.35 g/m*3 8.7 C 0 km/h
2062 18-09-2004 04:56:02 8.6 C 7.3 g/m*3 8.6 C 0 km/h
2063 18-09-2004 05:08:02 8.6 C 7.3 g/m*3 8.6 C 0 km/h
2064 18-09-2004 05:20:02 8.4 C 7.3 g/m*3 8.4 C 0 km/h
2065 18-09-2004 05:32:02 8.3 C 7.25 g/m*3 8.3 C 0 km/h
2066 18-09-2004 05:44:02 8.2 C 7.2 g/m*3 8.2 C 0 km/h
2067 18-09-2004 05:56:01 8.1 C 7.16 g/m*3 8.1 C 0 km/h
2068 18-09-2004 06:08:01 7.8 C 7.1 g/m*3 7.8 C 0 km/h
2069 18-09-2004 06:20:01 7.6 C 7.01 g/m*3 7.6 C 0 km/h
2070 18-09-2004 06:32:01 7.7 C 7.14 g/m*3 7.7 C 0 km/h
2071 18-09-2004 06:44:01 7.7 C 7.14 g/m*3 7.7 C 0 km/h
2072 18-09-2004 06:56:01 7.6 C 7.09 g/m*3 7.6 C 0 km/h
2073 18-09-2004 07:08:01 7.6 C 7.09 g/m*3 7.6 C 0 km/h
2074 18-09-2004 07:20:01 7.5 C 7.04 g/m*3 7.5 C 0 km/h
2075 18-09-2004 07:32:00 7.5 C 7.04 g/m*3 7.5 C 0 km/h
Sensor: Nr:Datum:Temp:Abs-Feuchte:Windchill:Wind:
Aussen-T/F 2076 18-09-2004 07:44:00 7.8 C 7.18 g/m*3 7.8 C 0 km/h
2077 18-09-2004 07:56:01 7.9 C 7.23 g/m*3 7.9 C 0 km/h
2078 18-09-2004 08:08:02 8 C 7.28 g/m*3 8 C 0 km/h
2079 18-09-2004 08:20:02 8 C 7.19 g/m*3 8 C 0 km/h
2080 18-09-2004 08:32:01 8 C 7.19 g/m*3 8 C 0 km/h
2081 18-09-2004 08:44:01 8.1 C 7.24 g/m*3 8.1 C 0 km/h
2082 18-09-2004 08:56:01 8.1 C 7.24 g/m*3 8.1 C 0 km/h
2083 18-09-2004 09:08:01 8.2 C 7.37 g/m*3 8.2 C 0 km/h
2084 18-09-2004 09:20:01 8.5 C 7.51 g/m*3 8.5 C 0 km/h
2085 18-09-2004 09:32:00 8.7 C 7.61 g/m*3 8.7 C 0 km/h
2086 18-09-2004 09:44:00 9.1 C 7.72 g/m*3 9.1 C 0 km/h
2087 18-09-2004 09:56:01 9.6 C 8.06 g/m*3 9.6 C 0 km/h
2088 18-09-2004 10:08:01 10.1 C 8.13 g/m*3 10.1 C 0 km/h
2089 18-09-2004 10:20:01 10.6 C 8.3 g/m*3 10.6 C 0 km/h
2090 18-09-2004 10:32:00 11.5 C 8.68 g/m*3 11.5 C 0 km/h
2091 18-09-2004 10:44:00 11.9 C 8.58 g/m*3 11.9 C 0 km/h
2092 18-09-2004 10:56:01 12.7 C 8.91 g/m*3 12.7 C 0 km/h
2093 18-09-2004 11:08:02 13.6 C 9.18 g/m*3 13.6 C 0 km/h
2094 18-09-2004 11:20:01 14.5 C 8.95 g/m*3 14.5 C 0 km/h
2095 18-09-2004 11:32:01 15.3 C 9.01 g/m*3 15.3 C 0 km/h
2096 18-09-2004 11:44:01 15.7 C 9.37 g/m*3 15.7 C 0 km/h
2097 18-09-2004 11:56:02 16.2 C 9.52 g/m*3 16.2 C 0 km/h
2098 18-09-2004 12:08:02 16.7 C 9.81 g/m*3 16.7 C 0 km/h
2099 18-09-2004 12:20:02 17.7 C 9.66 g/m*3 17.7 C 0 km/h
2100 18-09-2004 12:32:02 18.2 C 9.48 g/m*3 18.2 C 0 km/h
Sensor: Nr:Datum:Temp:Abs-Feuchte:Windchill:Wind:
Aussen-T/F 2101 18-09-2004 12:44:02 18.7 C 9.29 g/m*3 18.7 C 0 km/h
2102 18-09-2004 12:56:01 20 C 8.3 g/m*3 20 C 0 km/h
2103 18-09-2004 13:08:01 20.4 C 8.67 g/m*3 20.4 C 0 km/h
2104 18-09-2004 13:20:01 21 C 8.43 g/m*3 21 C 0 km/h
2105 18-09-2004 13:32:00 21.6 C 8.16 g/m*3 21.6 C 0 km/h
2106 18-09-2004 13:44:00 22.2 C 8.05 g/m*3 22.2 C 0 km/h
2107 18-09-2004 13:56:01 22.8 C 8.33 g/m*3 22.8 C 0 km/h
2108 18-09-2004 14:08:01 23.3 C 7.95 g/m*3 23.3 C 0 km/h
2109 18-09-2004 14:20:01 23.8 C 7.96 g/m*3 23.8 C 0 km/h
2110 18-09-2004 14:32:00 24.4 C 8.01 g/m*3 24.4 C 0 km/h
2111 18-09-2004 14:44:00 24.5 C 7.83 g/m*3 24.5 C 0 km/h
2112 18-09-2004 14:56:01 24.9 C 8.47 g/m*3 24.9 C 0 km/h
2113 18-09-2004 15:08:01 25.5 C 8.05 g/m*3 25.5 C 0 km/h
2114 18-09-2004 15:20:01 25.6 C 7.86 g/m*3 25.6 C 0 km/h
2115 18-09-2004 15:32:01 25.8 C 7.46 g/m*3 25.8 C 0 km/h
2116 18-09-2004 15:44:01 26 C 7.55 g/m*3 26 C 0 km/h
2117 18-09-2004 15:56:02 26.1 C 7.34 g/m*3 26.1 C 0 km/h
2118 18-09-2004 16:08:02 26.3 C 7.67 g/m*3 26.3 C 0 km/h
2119 18-09-2004 16:20:02 26.4 C 7.97 g/m*3 26.4 C 0 km/h
2120 18-09-2004 16:32:01 26.8 C 7.64 g/m*3 26.8 C 0 km/h
2121 18-09-2004 16:44:01 26.7 C 7.59 g/m*3 26.7 C 0 km/h
2122 18-09-2004 16:56:01 26.5 C 7.26 g/m*3 26.5 C 0 km/h
2123 18-09-2004 17:08:01 26.5 C 7.01 g/m*3 26.5 C 0 km/h
2124 18-09-2004 17:20:01 27.1 C 7.76 g/m*3 27.1 C 0 km/h
2125 18-09-2004 17:32:00 26.8 C 7.13 g/m*3 26.8 C 0 km/h
Sensor: Nr:Datum:Temp:Abs-Feuchte:Windchill:Wind:
Aussen-T/F 2126 18-09-2004 17:44:00 26.9 C 7.17 g/m*3 26.9 C 0 km/h
2127 18-09-2004 17:56:01 27.4 C 8.16 g/m*3 27.4 C 0 km/h
2128 18-09-2004 18:08:01 26.7 C 7.59 g/m*3 26.7 C 0 km/h
2129 18-09-2004 18:20:01 26.1 C 7.59 g/m*3 26.1 C 0 km/h
2130 18-09-2004 18:32:00 25.7 C 8.62 g/m*3 25.7 C 0 km/h
2131 18-09-2004 18:44:00 25.2 C 8.61 g/m*3 25.2 C 0 km/h
2132 18-09-2004 18:56:01 24.6 C 8.55 g/m*3 24.6 C 0 km/h
2133 18-09-2004 19:08:02 23.9 C 8.65 g/m*3 23.9 C 0 km/h
2134 18-09-2004 19:20:02 22.9 C 8.38 g/m*3 22.9 C 0 km/h
2135 18-09-2004 19:32:01 21.7 C 8.58 g/m*3 21.7 C 0 km/h
2136 18-09-2004 19:44:01 20.7 C 8.82 g/m*3 20.7 C 0 km/h
2137 18-09-2004 19:56:01 20 C 8.81 g/m*3 20 C 0 km/h
2138 18-09-2004 20:08:01 19.7 C 8.83 g/m*3 19.7 C 0 km/h
2139 18-09-2004 20:20:01 19.4 C 9.01 g/m*3 19.4 C 0 km/h
2140 18-09-2004 20:32:01 19.2 C 9.23 g/m*3 19.2 C 0 km/h
2141 18-09-2004 20:44:01 18.9 C 9.07 g/m*3 18.9 C 0 km/h
2142 18-09-2004 20:56:01 18.4 C 9.12 g/m*3 18.4 C 0 km/h
2143 18-09-2004 21:08:01 18.2 C 9.17 g/m*3 18.2 C 0 km/h
2144 18-09-2004 21:20:01 17.8 C 9.41 g/m*3 17.8 C 0 km/h
2145 18-09-2004 21:32:01 17.5 C 9.39 g/m*3 17.5 C 0 km/h
2146 18-09-2004 21:44:01 17.2 C 9.37 g/m*3 17.2 C 0 km/h
2147 18-09-2004 21:56:01 16.7 C 9.38 g/m*3 16.7 C 0 km/h
2148 18-09-2004 22:08:01 16.6 C 9.46 g/m*3 16.6 C 0 km/h
2149 18-09-2004 22:20:02 16.4 C 9.49 g/m*3 16.4 C 0 km/h
2150 18-09-2004 22:32:02 16 C 9.4 g/m*3 16 C 0 km/h
Sensor: Nr:Datum:Temp:Abs-Feuchte:Windchill:Wind:
Aussen-T/F 2151 18-09-2004 22:44:02 15.8 C 9.42 g/m*3 15.8 C 0 km/h
2152 18-09-2004 22:56:01 16.1 C 9.32 g/m*3 16.1 C 0 km/h
2153 18-09-2004 23:08:01 15.7 C 9.23 g/m*3 15.7 C 0 km/h
2154 18-09-2004 23:20:01 15.8 C 9.29 g/m*3 15.8 C 0 km/h
2155 18-09-2004 23:32:00 15.6 C 9.31 g/m*3 15.6 C 0 km/h
2156 18-09-2004 23:44:00 15.4 C 9.2 g/m*3 15.4 C 0 km/h
2157 18-09-2004 23:56:01 15.7 C 9.23 g/m*3 15.7 C 0 km/h
2158 19-09-2004 00:08:01 15.8 C 9.15 g/m*3 15.8 C 0 km/h
2159 19-09-2004 00:20:01 15.7 C 9.23 g/m*3 15.7 C 0 km/h
2160 19-09-2004 00:32:01 15.6 C 9.31 g/m*3 15.6 C 0 km/h
2161 19-09-2004 00:44:02 15.4 C 9.33 g/m*3 15.4 C 0 km/h
2162 19-09-2004 00:56:01 15.1 C 9.29 g/m*3 15.1 C 0 km/h
2163 19-09-2004 01:08:01 15.1 C 9.29 g/m*3 15.1 C 0 km/h
2164 19-09-2004 01:20:01 15 C 9.23 g/m*3 15 C 0 km/h
2165 19-09-2004 01:32:00 15.2 C 9.35 g/m*3 15.2 C 0 km/h
2166 19-09-2004 01:44:00 15.4 C 9.46 g/m*3 15.4 C 0 km/h
2167 19-09-2004 01:56:01 15.6 C 9.58 g/m*3 15.6 C 0 km/h
2168 19-09-2004 02:08:01 15.6 C 9.58 g/m*3 15.6 C 0 km/h
2169 19-09-2004 02:20:01 15.6 C 9.71 g/m*3 15.6 C 0 km/h
2170 19-09-2004 02:32:00 15.4 C 9.59 g/m*3 15.4 C 0 km/h
2171 19-09-2004 02:44:00 15.1 C 9.55 g/m*3 15.1 C 0 km/h
2172 19-09-2004 02:57:03 14.7 C 10.2 g/m*3 14.7 C 0 km/h
2173 19-09-2004 03:09:03 14.4 C 10.51 g/m*3 14.4 C 0 km/h
2174 19-09-2004 03:21:03 14.7 C 10.95 g/m*3 14.7 C 0 km/h
2175 19-09-2004 03:33:01 14.5 C 10.94 g/m*3 14.5 C 0 km/h
Sensor: Nr:Datum:Temp:Abs-Feuchte:Windchill:Wind:
Aussen-T/F 2176 19-09-2004 03:45:01 14.4 C 11 g/m*3 14.4 C 0 km/h
2177 19-09-2004 03:57:01 14.5 C 11.19 g/m*3 14.5 C 0 km/h
2178 19-09-2004 04:09:01 14.5 C 11.19 g/m*3 14.5 C 0 km/h
2179 19-09-2004 04:21:01 14.7 C 11.46 g/m*3 14.7 C 0 km/h
2180 19-09-2004 04:33:01 14.5 C 11.32 g/m*3 14.5 C 0 km/h
2181 19-09-2004 04:45:02 14.4 C 11.25 g/m*3 14.4 C 0 km/h
2182 19-09-2004 04:57:02 14.5 C 11.32 g/m*3 14.5 C 0 km/h
2183 19-09-2004 05:09:02 14.6 C 11.51 g/m*3 14.6 C 0 km/h
2184 19-09-2004 05:21:02 14.4 C 11.37 g/m*3 14.4 C 0 km/h
2185 19-09-2004 05:33:01 14.3 C 11.3 g/m*3 14.3 C 0 km/h
2186 19-09-2004 05:45:01 14.3 C 11.3 g/m*3 14.3 C 0 km/h
2187 19-09-2004 05:57:01 14.2 C 11.23 g/m*3 14.2 C 0 km/h
2188 19-09-2004 06:09:01 14.1 C 11.17 g/m*3 14.1 C 0 km/h
2189 19-09-2004 06:21:01 14.1 C 11.29 g/m*3 14.1 C 0 km/h
2190 19-09-2004 06:33:00 14.1 C 11.29 g/m*3 14.1 C 0 km/h
2191 19-09-2004 06:45:01 14.2 C 11.36 g/m*3 14.2 C 0 km/h
2192 19-09-2004 06:57:01 14.2 C 11.36 g/m*3 14.2 C 0 km/h
2193 19-09-2004 07:09:01 14.2 C 11.36 g/m*3 14.2 C 0 km/h
2194 19-09-2004 07:21:00 14.1 C 11.29 g/m*3 14.1 C 0 km/h
2195 19-09-2004 07:33:00 14.2 C 11.36 g/m*3 14.2 C 0 km/h
2196 19-09-2004 07:45:01 14.3 C 11.43 g/m*3 14.3 C 0 km/h
2197 19-09-2004 07:57:01 14.4 C 11.37 g/m*3 14.4 C 0 km/h
2198 19-09-2004 08:09:02 14.5 C 11.44 g/m*3 14.5 C 0 km/h
2199 19-09-2004 08:21:02 14.4 C 11.25 g/m*3 14.4 C 0 km/h
2200 19-09-2004 08:33:01 14.3 C 11.18 g/m*3 14.3 C 0 km/h
Sensor: Nr:Datum:Temp:Abs-Feuchte:Windchill:Wind:
Aussen-T/F 2201 19-09-2004 08:45:01 14.4 C 11.25 g/m*3 14.4 C 0 km/h
2202 19-09-2004 08:57:01 14.4 C 11.37 g/m*3 14.4 C 0 km/h
2203 19-09-2004 09:09:01 14.3 C 11.3 g/m*3 14.3 C 0 km/h
2204 19-09-2004 09:21:01 14.5 C 11.44 g/m*3 14.5 C 0 km/h
2205 19-09-2004 09:33:01 14.4 C 11.37 g/m*3 14.4 C 0 km/h
2206 19-09-2004 09:45:01 14.6 C 11.39 g/m*3 14.6 C 0 km/h
2207 19-09-2004 09:57:01 14.7 C 11.46 g/m*3 14.7 C 0 km/h
2208 19-09-2004 10:09:01 14.7 C 11.46 g/m*3 14.7 C 0 km/h
2209 19-09-2004 10:21:01 15 C 11.41 g/m*3 15 C 0 km/h
2210 19-09-2004 10:33:00 15.5 C 11.63 g/m*3 15.5 C 0 km/h
2211 19-09-2004 10:45:01 15.5 C 11.37 g/m*3 15.5 C 0 km/h
2212 19-09-2004 10:57:01 16.2 C 11.45 g/m*3 16.2 C 0 km/h
2213 19-09-2004 11:09:01 16.4 C 11.45 g/m*3 16.4 C 0 km/h
2214 19-09-2004 11:21:00 16.6 C 11.58 g/m*3 16.6 C 0 km/h
2215 19-09-2004 11:33:01 16.8 C 11.72 g/m*3 16.8 C 0 km/h
2216 19-09-2004 11:45:01 16.8 C 11.72 g/m*3 16.8 C 0 km/h
2217 19-09-2004 11:57:01 16.6 C 11.44 g/m*3 16.6 C 0 km/h
2218 19-09-2004 12:09:00 17.1 C 11.94 g/m*3 17.1 C 0 km/h
2219 19-09-2004 12:21:00 17.4 C 11.56 g/m*3 17.4 C 0 km/h
2220 19-09-2004 12:33:00 17.8 C 11.54 g/m*3 17.8 C 0 km/h
2221 19-09-2004 12:45:01 17.6 C 11.4 g/m*3 17.6 C 0 km/h
2222 19-09-2004 12:57:01 17.6 C 11.4 g/m*3 17.6 C 0 km/h
2223 19-09-2004 13:09:01 18.5 C 12.02 g/m*3 18.5 C 0 km/h
2224 19-09-2004 13:21:01 18.8 C 11.6 g/m*3 18.8 C 0 km/h
2225 19-09-2004 13:33:01 18.9 C 11.83 g/m*3 18.9 C 0 km/h
Sensor: Nr:Datum:Temp:Abs-Feuchte:Windchill:Wind:
Aussen-T/F 2226 19-09-2004 13:45:01 20.1 C 11.65 g/m*3 20.1 C 0 km/h
2227 19-09-2004 13:57:01 21 C 11.17 g/m*3 21 C 0 km/h
2228 19-09-2004 14:09:01 20.3 C 10.55 g/m*3 20.3 C 0 km/h
2229 19-09-2004 14:21:01 19.9 C 10.31 g/m*3 19.9 C 0 km/h
2230 19-09-2004 14:33:00 20.7 C 10.62 g/m*3 20.7 C 0 km/h
2231 19-09-2004 14:45:01 20.9 C 9.29 g/m*3 20.9 C 0 km/h
2232 19-09-2004 14:57:01 20.2 C 8.92 g/m*3 20.2 C 0 km/h
2233 19-09-2004 15:09:01 21 C 9.34 g/m*3 21 C 0 km/h
2234 19-09-2004 15:21:01 20.5 C 8.54 g/m*3 20.5 C 0 km/h
2235 19-09-2004 15:33:01 21.7 C 9.16 g/m*3 21.7 C 0 km/h
2236 19-09-2004 15:45:01 22.9 C 8.38 g/m*3 22.9 C 0 km/h
2237 19-09-2004 15:57:01 22.6 C 8.44 g/m*3 22.6 C 0 km/h
2238 19-09-2004 16:09:01 22.6 C 9.44 g/m*3 22.6 C 0 km/h
2239 19-09-2004 16:21:01 21.8 C 10.17 g/m*3 21.8 C 0 km/h
2240 19-09-2004 16:33:00 21.8 C 9.98 g/m*3 21.8 C 0 km/h
2241 19-09-2004 16:45:01 21.9 C 10.61 g/m*3 21.9 C 0 km/h
2242 19-09-2004 16:57:01 21.4 C 10.12 g/m*3 21.4 C 0 km/h
2243 19-09-2004 17:09:01 20.8 C 10.14 g/m*3 20.8 C 0 km/h
2244 19-09-2004 17:21:01 20.9 C 8.92 g/m*3 20.9 C 0 km/h
2245 19-09-2004 17:33:00 20.3 C 9.85 g/m*3 20.3 C 0 km/h
2246 19-09-2004 17:45:01 19.6 C 9.79 g/m*3 19.6 C 0 km/h
2247 19-09-2004 17:57:01 19.1 C 9.84 g/m*3 19.1 C 0 km/h
2248 19-09-2004 18:09:01 18.9 C 9.72 g/m*3 18.9 C 0 km/h
2249 19-09-2004 18:21:01 18.5 C 9.81 g/m*3 18.5 C 0 km/h
2250 19-09-2004 18:33:00 19.3 C 8.96 g/m*3 19.3 C 0 km/h
Sensor: Nr:Datum:Temp:Abs-Feuchte:Windchill:Wind:
Aussen-T/F 2251 19-09-2004 18:45:02 19.7 C 7.81 g/m*3 19.7 C 0 km/h
2252 19-09-2004 18:57:02 20.4 C 7.96 g/m*3 20.4 C 0 km/h
2253 19-09-2004 19:09:02 20.3 C 7.91 g/m*3 20.3 C 0 km/h
2254 19-09-2004 19:21:02 19.3 C 7.13 g/m*3 19.3 C 0 km/h
2255 19-09-2004 19:33:01 18.1 C 8.19 g/m*3 18.1 C 0 km/h
2256 19-09-2004 19:45:01 17.1 C 8.3 g/m*3 17.1 C 0 km/h
2257 19-09-2004 19:57:01 16.4 C 8.23 g/m*3 16.4 C 0 km/h
2258 19-09-2004 20:09:01 15.7 C 8.03 g/m*3 15.7 C 0 km/h
2259 19-09-2004 20:21:01 15.4 C 7.88 g/m*3 15.4 C 0 km/h
2260 19-09-2004 20:33:00 15.1 C 7.87 g/m*3 15.1 C 0 km/h
2261 19-09-2004 20:45:01 14.7 C 8.18 g/m*3 14.7 C 0 km/h
2262 19-09-2004 20:57:01 14.7 C 8.31 g/m*3 14.7 C 0 km/h
2263 19-09-2004 21:09:01 14.4 C 7.91 g/m*3 14.4 C 0 km/h
2264 19-09-2004 21:21:01 14.4 C 8.03 g/m*3 14.4 C 0 km/h
2265 19-09-2004 21:33:00 14.3 C 8.23 g/m*3 14.3 C 0 km/h
2266 19-09-2004 21:45:01 14.4 C 8.28 g/m*3 14.4 C 0 km/h
2267 19-09-2004 21:57:01 14.4 C 8.16 g/m*3 14.4 C 0 km/h
2268 19-09-2004 22:09:01 14.3 C 8.11 g/m*3 14.3 C 0 km/h
2269 19-09-2004 22:21:02 14.1 C 8.13 g/m*3 14.1 C 0 km/h
2270 19-09-2004 22:33:01 13.8 C 7.98 g/m*3 13.8 C 0 km/h
2271 19-09-2004 22:45:01 13.7 C 8.05 g/m*3 13.7 C 0 km/h
2272 19-09-2004 22:57:01 13.3 C 7.97 g/m*3 13.3 C 0 km/h
2273 19-09-2004 23:09:01 12.9 C 7.89 g/m*3 12.9 C 0 km/h
2274 19-09-2004 23:21:01 12.5 C 7.59 g/m*3 12.5 C 0 km/h
2275 19-09-2004 23:33:00 12.4 C 7.43 g/m*3 12.4 C 0 km/h
Sensor: Nr:Datum:Temp:Abs-Feuchte:Windchill:Wind:
Aussen-T/F 2276 19-09-2004 23:45:01 12 C 7.35 g/m*3 12 C 0 km/h
2277 19-09-2004 23:57:01 11.7 C 7.64 g/m*3 11.7 C 0 km/h
2278 20-09-2004 00:09:01 11.5 C 7.85 g/m*3 11.5 C 0 km/h
2279 20-09-2004 00:21:01 11.3 C 7.65 g/m*3 11.3 C 0 km/h
2280 20-09-2004 00:33:01 11.1 C 7.66 g/m*3 11.1 C 0 km/h
2281 20-09-2004 00:45:01 10.9 C 7.66 g/m*3 10.9 C 0 km/h
2282 20-09-2004 00:57:01 10.7 C 7.56 g/m*3 10.7 C 0 km/h
2283 20-09-2004 01:09:01 10.6 C 7.61 g/m*3 10.6 C 0 km/h
2284 20-09-2004 01:21:01 10.8 C 7.81 g/m*3 10.8 C 0 km/h
2285 20-09-2004 01:33:00 10.9 C 7.86 g/m*3 10.9 C 0 km/h
2286 20-09-2004 01:45:01 10.7 C 7.76 g/m*3 10.7 C 0 km/h
2287 20-09-2004 01:57:01 10.7 C 7.66 g/m*3 10.7 C 0 km/h
2288 20-09-2004 02:09:01 10.6 C 7.61 g/m*3 10.6 C 0 km/h
2289 20-09-2004 02:21:01 10.3 C 7.57 g/m*3 10.3 C 0 km/h
2290 20-09-2004 02:33:00 10.4 C 7.71 g/m*3 10.4 C 0 km/h
2291 20-09-2004 02:46:03 10.4 C 7.61 g/m*3 10.4 C 0 km/h
2292 20-09-2004 02:58:03 10.4 C 7.61 g/m*3 10.4 C 0 km/h
2293 20-09-2004 03:10:03 10.4 C 7.61 g/m*3 10.4 C 0 km/h
2294 20-09-2004 03:22:03 10.2 C 7.52 g/m*3 10.2 C 0 km/h
2295 20-09-2004 03:34:01 10.2 C 7.61 g/m*3 10.2 C 0 km/h
2296 20-09-2004 03:46:01 10.3 C 7.57 g/m*3 10.3 C 0 km/h
2297 20-09-2004 03:58:01 10.2 C 7.52 g/m*3 10.2 C 0 km/h
2298 20-09-2004 04:10:01 10.1 C 7.47 g/m*3 10.1 C 0 km/h
2299 20-09-2004 04:22:01 10.1 C 7.47 g/m*3 10.1 C 0 km/h
2300 20-09-2004 04:34:00 10.1 C 7.47 g/m*3 10.1 C 0 km/h
Sensor: Nr:Datum:Temp:Abs-Feuchte:Windchill:Wind:
Aussen-T/F 2301 20-09-2004 04:46:01 10 C 7.42 g/m*3 10 C 0 km/h
2302 20-09-2004 04:58:01 9.8 C 7.42 g/m*3 9.8 C 0 km/h
2303 20-09-2004 05:10:01 9.8 C 7.52 g/m*3 9.8 C 0 km/h
2304 20-09-2004 05:22:01 9.7 C 7.47 g/m*3 9.7 C 0 km/h
2305 20-09-2004 05:34:01 9.6 C 7.42 g/m*3 9.6 C 0 km/h
2306 20-09-2004 05:46:01 9.7 C 7.47 g/m*3 9.7 C 0 km/h
2307 20-09-2004 05:58:01 9.6 C 7.42 g/m*3 9.6 C 0 km/h
2308 20-09-2004 06:10:01 9.5 C 7.37 g/m*3 9.5 C 0 km/h
2309 20-09-2004 06:22:00 9.5 C 7.37 g/m*3 9.5 C 0 km/h
2310 20-09-2004 06:34:00 9.5 C 7.37 g/m*3 9.5 C 0 km/h
2311 20-09-2004 06:46:01 9.6 C 7.42 g/m*3 9.6 C 0 km/h
2312 20-09-2004 06:58:01 9.6 C 7.42 g/m*3 9.6 C 0 km/h
2313 20-09-2004 07:10:01 9.6 C 7.42 g/m*3 9.6 C 0 km/h
2314 20-09-2004 07:22:00 9.3 C 7.37 g/m*3 9.3 C 0 km/h
2315 20-09-2004 07:34:00 9.1 C 7.36 g/m*3 9.1 C 0 km/h
2316 20-09-2004 07:46:01 9.2 C 7.5 g/m*3 9.2 C 0 km/h
2317 20-09-2004 07:58:01 9.2 C 7.5 g/m*3 9.2 C 0 km/h
2318 20-09-2004 08:10:01 9.2 C 7.5 g/m*3 9.2 C 0 km/h
2319 20-09-2004 08:22:00 9.3 C 7.55 g/m*3 9.3 C 0 km/h
2320 20-09-2004 08:34:01 9.6 C 7.6 g/m*3 9.6 C 0 km/h
2321 20-09-2004 08:46:01 9.9 C 7.66 g/m*3 9.9 C 0 km/h
2322 20-09-2004 08:58:01 10 C 7.42 g/m*3 10 C 0 km/h
2323 20-09-2004 09:10:01 10.3 C 7.57 g/m*3 10.3 C 0 km/h
2324 20-09-2004 09:22:00 10.6 C 7.61 g/m*3 10.6 C 0 km/h
2325 20-09-2004 09:34:00 10.9 C 7.66 g/m*3 10.9 C 0 km/h
Sensor: Nr:Datum:Temp:Abs-Feuchte:Windchill:Wind:
Aussen-T/F 2326 20-09-2004 09:46:01 11 C 7.61 g/m*3 11 C 0 km/h
2327 20-09-2004 09:58:01 11.3 C 7.75 g/m*3 11.3 C 0 km/h
2328 20-09-2004 10:10:01 11.8 C 7.89 g/m*3 11.8 C 0 km/h
2329 20-09-2004 10:22:00 12.1 C 7.94 g/m*3 12.1 C 0 km/h
2330 20-09-2004 10:34:00 12.8 C 7.84 g/m*3 12.8 C 0 km/h
2331 20-09-2004 10:46:01 13.3 C 7.97 g/m*3 13.3 C 0 km/h
2332 20-09-2004 10:58:01 13.7 C 7.93 g/m*3 13.7 C 0 km/h
2333 20-09-2004 11:10:01 14 C 7.6 g/m*3 14 C 0 km/h
2334 20-09-2004 11:22:00 14.3 C 7.49 g/m*3 14.3 C 0 km/h
2335 20-09-2004 11:34:00 14.7 C 7.68 g/m*3 14.7 C 0 km/h
2336 20-09-2004 11:46:02 15.1 C 7.74 g/m*3 15.1 C 0 km/h
2337 20-09-2004 11:58:02 15.3 C 7.57 g/m*3 15.3 C 0 km/h
2338 20-09-2004 12:10:02 15.4 C 7.49 g/m*3 15.4 C 0 km/h
2339 20-09-2004 12:22:01 15.6 C 7.71 g/m*3 15.6 C 0 km/h
2340 20-09-2004 12:34:01 15.8 C 7.54 g/m*3 15.8 C 0 km/h
2341 20-09-2004 12:46:01 15.8 C 7.54 g/m*3 15.8 C 0 km/h
2342 20-09-2004 12:58:01 16.4 C 7.54 g/m*3 16.4 C 0 km/h
2343 20-09-2004 13:10:01 16.7 C 7.39 g/m*3 16.7 C 0 km/h
2344 20-09-2004 13:22:00 16.6 C 7.2 g/m*3 16.6 C 0 km/h
2345 20-09-2004 13:34:00 16.8 C 7.15 g/m*3 16.8 C 0 km/h
2346 20-09-2004 13:46:01 17.1 C 7.13 g/m*3 17.1 C 0 km/h
2347 20-09-2004 13:58:01 17.2 C 7.03 g/m*3 17.2 C 0 km/h
2348 20-09-2004 14:10:01 17 C 6.95 g/m*3 17 C 0 km/h
2349 20-09-2004 14:22:01 17.1 C 7.13 g/m*3 17.1 C 0 km/h
2350 20-09-2004 14:34:01 17.3 C 7.22 g/m*3 17.3 C 0 km/h
Sensor: Nr:Datum:Temp:Abs-Feuchte:Windchill:Wind:
Aussen-T/F 2351 20-09-2004 14:46:02 17.3 C 7.37 g/m*3 17.3 C 0 km/h
2352 20-09-2004 14:58:02 17.5 C 7.31 g/m*3 17.5 C 0 km/h
2353 20-09-2004 15:10:02 17.2 C 7.18 g/m*3 17.2 C 0 km/h
2354 20-09-2004 15:22:02 17.3 C 7.37 g/m*3 17.3 C 0 km/h
2355 20-09-2004 15:34:02 17 C 7.23 g/m*3 17 C 0 km/h
2356 20-09-2004 15:46:01 17 C 7.23 g/m*3 17 C 0 km/h
2357 20-09-2004 15:58:01 17 C 7.23 g/m*3 17 C 0 km/h
2358 20-09-2004 16:10:01 17 C 7.38 g/m*3 17 C 0 km/h
2359 20-09-2004 16:22:01 17.1 C 7.13 g/m*3 17.1 C 0 km/h
2360 20-09-2004 16:34:00 17.2 C 7.32 g/m*3 17.2 C 0 km/h
2361 20-09-2004 16:46:01 17.3 C 7.22 g/m*3 17.3 C 0 km/h
2362 20-09-2004 16:58:01 17.4 C 7.26 g/m*3 17.4 C 0 km/h
2363 20-09-2004 17:10:01 17.5 C 7.31 g/m*3 17.5 C 0 km/h
2364 20-09-2004 17:22:01 17.6 C 7.35 g/m*3 17.6 C 0 km/h
2365 20-09-2004 17:34:00 17.4 C 7.11 g/m*3 17.4 C 0 km/h
2366 20-09-2004 17:46:01 17.4 C 7.11 g/m*3 17.4 C 0 km/h
2367 20-09-2004 17:58:01 17.4 C 6.97 g/m*3 17.4 C 0 km/h
2368 20-09-2004 18:10:01 17.4 C 6.82 g/m*3 17.4 C 0 km/h
2369 20-09-2004 18:22:02 17.3 C 6.78 g/m*3 17.3 C 0 km/h
2370 20-09-2004 18:34:01 17.2 C 6.88 g/m*3 17.2 C 0 km/h
2371 20-09-2004 18:46:01 17.1 C 6.84 g/m*3 17.1 C 0 km/h
2372 20-09-2004 18:58:01 17 C 6.8 g/m*3 17 C 0 km/h
2373 20-09-2004 19:10:01 16.8 C 7.01 g/m*3 16.8 C 0 km/h
2374 20-09-2004 19:22:01 16.7 C 6.96 g/m*3 16.7 C 0 km/h
2375 20-09-2004 19:34:00 16.6 C 7.06 g/m*3 16.6 C 0 km/h
Sensor: Nr:Datum:Temp:Abs-Feuchte:Windchill:Wind:
Aussen-T/F 2376 20-09-2004 19:46:01 16.6 C 7.06 g/m*3 16.6 C 0 km/h
2377 20-09-2004 19:58:01 16.6 C 7.06 g/m*3 16.6 C 0 km/h
2378 20-09-2004 20:10:01 16.5 C 7.02 g/m*3 16.5 C 0 km/h
2379 20-09-2004 20:22:01 16.4 C 6.98 g/m*3 16.4 C 0 km/h
2380 20-09-2004 20:34:01 16.5 C 7.02 g/m*3 16.5 C 0 km/h
2381 20-09-2004 20:46:01 16.3 C 7.08 g/m*3 16.3 C 0 km/h
2382 20-09-2004 20:58:01 16 C 7.08 g/m*3 16 C 0 km/h
2383 20-09-2004 21:10:01 16.2 C 7.17 g/m*3 16.2 C 0 km/h
2384 20-09-2004 21:22:01 15.8 C 7.13 g/m*3 15.8 C 0 km/h
2385 20-09-2004 21:34:01 16 C 7.08 g/m*3 16 C 0 km/h
2386 20-09-2004 21:46:01 16.1 C 7.13 g/m*3 16.1 C 0 km/h
2387 20-09-2004 21:58:01 16.1 C 7.26 g/m*3 16.1 C 0 km/h
2388 20-09-2004 22:10:02 16.1 C 7.26 g/m*3 16.1 C 0 km/h
2389 20-09-2004 22:22:02 16.2 C 7.31 g/m*3 16.2 C 0 km/h
2390 20-09-2004 22:34:02 16.1 C 7.4 g/m*3 16.1 C 0 km/h
2391 20-09-2004 22:46:01 16.1 C 7.54 g/m*3 16.1 C 0 km/h
2392 20-09-2004 22:58:01 15.9 C 7.72 g/m*3 15.9 C 0 km/h
2393 20-09-2004 23:10:01 15.9 C 7.85 g/m*3 15.9 C 0 km/h
2394 20-09-2004 23:22:00 15.9 C 7.85 g/m*3 15.9 C 0 km/h
2395 20-09-2004 23:34:00 15.9 C 7.99 g/m*3 15.9 C 0 km/h
2396 20-09-2004 23:46:01 15.9 C 7.99 g/m*3 15.9 C 0 km/h
2397 20-09-2004 23:58:01 15.8 C 8.08 g/m*3 15.8 C 0 km/h
2398 21-09-2004 00:10:01 15.8 C 8.08 g/m*3 15.8 C 0 km/h
2399 21-09-2004 00:22:01 15.7 C 8.03 g/m*3 15.7 C 0 km/h
2400 21-09-2004 00:34:01 15.7 C 8.16 g/m*3 15.7 C 0 km/h
Sensor: Nr:Datum:Temp:Abs-Feuchte:Windchill:Wind:
Aussen-T/F 2401 21-09-2004 00:46:01 15.8 C 8.21 g/m*3 15.8 C 0 km/h
2402 21-09-2004 00:58:01 15.8 C 8.21 g/m*3 15.8 C 0 km/h
2403 21-09-2004 01:10:01 15.9 C 8.26 g/m*3 15.9 C 0 km/h
2404 21-09-2004 01:22:01 15.8 C 8.35 g/m*3 15.8 C 0 km/h
2405 21-09-2004 01:34:00 15.2 C 8.7 g/m*3 15.2 C 0 km/h
2406 21-09-2004 01:46:01 15.1 C 8.77 g/m*3 15.1 C 0 km/h
2407 21-09-2004 01:58:01 14.4 C 9.27 g/m*3 14.4 C 0 km/h
2408 21-09-2004 02:10:01 14.4 C 9.27 g/m*3 14.4 C 0 km/h
2409 21-09-2004 02:22:01 14.1 C 9.47 g/m*3 14.1 C 0 km/h
2410 21-09-2004 02:34:01 14 C 9.53 g/m*3 14 C 0 km/h
2411 21-09-2004 02:47:03 14.3 C 9.46 g/m*3 14.3 C 0 km/h
2412 21-09-2004 02:59:03 14.3 C 9.46 g/m*3 14.3 C 0 km/h
2413 21-09-2004 03:11:03 14.1 C 9.34 g/m*3 14.1 C 0 km/h
2414 21-09-2004 03:23:03 14.1 C 9.47 g/m*3 14.1 C 0 km/h
2415 21-09-2004 03:35:01 14 C 9.53 g/m*3 14 C 0 km/h
2416 21-09-2004 03:47:01 14 C 9.65 g/m*3 14 C 0 km/h
2417 21-09-2004 03:59:01 13.5 C 9.94 g/m*3 13.5 C 0 km/h
2418 21-09-2004 04:11:01 13.2 C 10.1 g/m*3 13.2 C 0 km/h
2419 21-09-2004 04:23:01 13 C 10.09 g/m*3 13 C 0 km/h
2420 21-09-2004 04:35:01 12.9 C 10.14 g/m*3 12.9 C 0 km/h
2421 21-09-2004 04:47:02 13 C 10.09 g/m*3 13 C 0 km/h
2422 21-09-2004 04:59:02 13.1 C 10.04 g/m*3 13.1 C 0 km/h
2423 21-09-2004 05:11:02 13 C 9.75 g/m*3 13 C 0 km/h
2424 21-09-2004 05:23:02 13.1 C 9.36 g/m*3 13.1 C 0 km/h
2425 21-09-2004 05:35:01 13.4 C 8.6 g/m*3 13.4 C 0 km/h
Sensor: Nr:Datum:Temp:Abs-Feuchte:Windchill:Wind:
Aussen-T/F 2426 21-09-2004 05:47:01 13.3 C 8.2 g/m*3 13.3 C 0 km/h
2427 21-09-2004 05:59:01 13.5 C 7.6 g/m*3 13.5 C 0 km/h
2428 21-09-2004 06:11:01 13.6 C 7.18 g/m*3 13.6 C 0 km/h
2429 21-09-2004 06:23:00 13.8 C 7.15 g/m*3 13.8 C 0 km/h
2430 21-09-2004 06:35:00 13.5 C 7.02 g/m*3 13.5 C 0 km/h
2431 21-09-2004 06:47:01 13.4 C 7.09 g/m*3 13.4 C 0 km/h
2432 21-09-2004 06:59:01 13.3 C 7.05 g/m*3 13.3 C 0 km/h
2433 21-09-2004 07:11:01 13.3 C 7.16 g/m*3 13.3 C 0 km/h
2434 21-09-2004 07:23:00 13.3 C 7.28 g/m*3 13.3 C 0 km/h
2435 21-09-2004 07:35:00 13.3 C 7.39 g/m*3 13.3 C 0 km/h
2436 21-09-2004 07:47:01 13.1 C 7.3 g/m*3 13.1 C 0 km/h
2437 21-09-2004 07:59:01 13.1 C 7.3 g/m*3 13.1 C 0 km/h
2438 21-09-2004 08:11:02 13.2 C 7.46 g/m*3 13.2 C 0 km/h
2439 21-09-2004 08:23:01 13 C 7.48 g/m*3 13 C 0 km/h
2440 21-09-2004 08:35:01 13.1 C 7.65 g/m*3 13.1 C 0 km/h
2441 21-09-2004 08:47:01 13.1 C 7.65 g/m*3 13.1 C 0 km/h
2442 21-09-2004 08:59:01 13 C 7.6 g/m*3 13 C 0 km/h
2443 21-09-2004 09:11:01 13 C 7.71 g/m*3 13 C 0 km/h
2444 21-09-2004 09:23:00 13.2 C 7.46 g/m*3 13.2 C 0 km/h
2445 21-09-2004 09:35:00 13.5 C 7.13 g/m*3 13.5 C 0 km/h
2446 21-09-2004 09:47:01 13.8 C 6.67 g/m*3 13.8 C 0 km/h
2447 21-09-2004 09:59:01 13.9 C 6.95 g/m*3 13.9 C 0 km/h
2448 21-09-2004 10:11:01 14.1 C 6.19 g/m*3 14.1 C 0 km/h
2449 21-09-2004 10:23:01 14.3 C 6.14 g/m*3 14.3 C 0 km/h
2450 21-09-2004 10:35:00 14.5 C 6.22 g/m*3 14.5 C 0 km/h
Sensor: Nr:Datum:Temp:Abs-Feuchte:Windchill:Wind:
Aussen-T/F 2451 21-09-2004 10:47:01 14.3 C 6.02 g/m*3 14.3 C 0 km/h
2452 21-09-2004 10:59:01 14.6 C 5.88 g/m*3 14.6 C 0 km/h
2453 21-09-2004 11:11:01 14.8 C 5.95 g/m*3 14.8 C 0 km/h
2454 21-09-2004 11:23:01 15 C 5.77 g/m*3 15 C 0 km/h
2455 21-09-2004 11:35:01 15.3 C 5.88 g/m*3 15.3 C 0 km/h
2456 21-09-2004 11:47:01 15.5 C 5.82 g/m*3 15.5 C 0 km/h
2457 21-09-2004 11:59:01 15.8 C 5.79 g/m*3 15.8 C 0 km/h
2458 21-09-2004 12:11:01 15.8 C 5.65 g/m*3 15.8 C 0 km/h
2459 21-09-2004 12:23:00 16 C 5.59 g/m*3 16 C 0 km/h
2460 21-09-2004 12:35:00 15.9 C 5.42 g/m*3 15.9 C 0 km/h
2461 21-09-2004 12:47:01 16.4 C 5.58 g/m*3 16.4 C 0 km/h
2462 21-09-2004 12:59:01 16.5 C 5.48 g/m*3 16.5 C 0 km/h
2463 21-09-2004 13:11:01 16.7 C 5.4 g/m*3 16.7 C 0 km/h
2464 21-09-2004 13:23:00 17.2 C 5.56 g/m*3 17.2 C 0 km/h
2465 21-09-2004 13:35:00 17.4 C 5.48 g/m*3 17.4 C 0 km/h
2466 21-09-2004 13:47:01 17.2 C 5.13 g/m*3 17.2 C 0 km/h
2467 21-09-2004 13:59:01 17.8 C 5.31 g/m*3 17.8 C 0 km/h
2468 21-09-2004 14:11:01 18.1 C 5.1 g/m*3 18.1 C 0 km/h
2469 21-09-2004 14:23:00 17.4 C 4.89 g/m*3 17.4 C 0 km/h
2470 21-09-2004 14:35:00 17.5 C 5.22 g/m*3 17.5 C 0 km/h
2471 21-09-2004 14:47:01 17.1 C 5.09 g/m*3 17.1 C 0 km/h
2472 21-09-2004 14:59:01 17.4 C 5.19 g/m*3 17.4 C 0 km/h
2473 21-09-2004 15:11:02 18.2 C 4.97 g/m*3 18.2 C 0 km/h
2474 21-09-2004 15:23:02 18 C 5.07 g/m*3 18 C 0 km/h
2475 21-09-2004 15:35:01 18 C 4.92 g/m*3 18 C 0 km/h
Sensor: Nr:Datum:Temp:Abs-Feuchte:Windchill:Wind:
Aussen-T/F 2476 21-09-2004 15:47:01 18.2 C 5.28 g/m*3 18.2 C 0 km/h
2477 21-09-2004 15:59:01 18.2 C 4.97 g/m*3 18.2 C 0 km/h
2478 21-09-2004 16:11:01 18.7 C 4.96 g/m*3 18.7 C 0 km/h
2479 21-09-2004 16:23:01 18.1 C 4.94 g/m*3 18.1 C 0 km/h
2480 21-09-2004 16:35:00 18.4 C 5.19 g/m*3 18.4 C 0 km/h
2481 21-09-2004 16:47:01 18.6 C 5.09 g/m*3 18.6 C 0 km/h
2482 21-09-2004 16:59:01 18.2 C 5.13 g/m*3 18.2 C 0 km/h
2483 21-09-2004 17:11:02 18 C 5.07 g/m*3 18 C 0 km/h
2484 21-09-2004 17:23:01 18.2 C 5.28 g/m*3 18.2 C 0 km/h
2485 21-09-2004 17:35:01 18.2 C 5.13 g/m*3 18.2 C 0 km/h
2486 21-09-2004 17:47:02 17.8 C 5.16 g/m*3 17.8 C 0 km/h
2487 21-09-2004 17:59:02 18 C 5.07 g/m*3 18 C 0 km/h
2488 21-09-2004 18:11:02 17.8 C 5.31 g/m*3 17.8 C 0 km/h
2489 21-09-2004 18:23:02 17.9 C 5.34 g/m*3 17.9 C 0 km/h
2490 21-09-2004 18:35:02 17.2 C 5.42 g/m*3 17.2 C 0 km/h
2491 21-09-2004 18:47:01 17.1 C 5.39 g/m*3 17.1 C 0 km/h
2492 21-09-2004 18:59:01 16.3 C 5.41 g/m*3 16.3 C 0 km/h
2493 21-09-2004 19:11:01 15.8 C 5.52 g/m*3 15.8 C 0 km/h
2494 21-09-2004 19:23:01 15.5 C 5.55 g/m*3 15.5 C 0 km/h
2495 21-09-2004 19:35:01 15.1 C 5.55 g/m*3 15.1 C 0 km/h
2496 21-09-2004 19:47:02 14.8 C 5.7 g/m*3 14.8 C 0 km/h
2497 21-09-2004 19:59:02 14.4 C 5.81 g/m*3 14.4 C 0 km/h
2498 21-09-2004 20:11:02 14.4 C 5.93 g/m*3 14.4 C 0 km/h
2499 21-09-2004 20:23:02 14.3 C 5.9 g/m*3 14.3 C 0 km/h
2500 21-09-2004 20:35:02 14 C 5.91 g/m*3 14 C 0 km/h
Sensor: Nr:Datum:Temp:Abs-Feuchte:Windchill:Wind:
Aussen-T/F 2501 21-09-2004 20:47:02 13.9 C 5.99 g/m*3 13.9 C 0 km/h
2502 21-09-2004 20:59:02 13.8 C 5.84 g/m*3 13.8 C 0 km/h
2503 21-09-2004 21:11:02 13.7 C 5.92 g/m*3 13.7 C 0 km/h
2504 21-09-2004 21:23:02 13.8 C 5.96 g/m*3 13.8 C 0 km/h
2505 21-09-2004 21:35:02 13.7 C 5.92 g/m*3 13.7 C 0 km/h
2506 21-09-2004 21:47:01 13.5 C 5.97 g/m*3 13.5 C 0 km/h
2507 21-09-2004 21:59:01 13.5 C 6.08 g/m*3 13.5 C 0 km/h
2508 21-09-2004 22:11:01 13.6 C 6 g/m*3 13.6 C 0 km/h
2509 21-09-2004 22:23:01 13.5 C 6.08 g/m*3 13.5 C 0 km/h
2510 21-09-2004 22:35:01 13.2 C 6.09 g/m*3 13.2 C 0 km/h
2511 21-09-2004 22:47:01 13.3 C 6.12 g/m*3 13.3 C 0 km/h
2512 21-09-2004 22:59:01 13.1 C 6.05 g/m*3 13.1 C 0 km/h
2513 21-09-2004 23:11:01 13.1 C 6.16 g/m*3 13.1 C 0 km/h
2514 21-09-2004 23:23:01 13 C 6.12 g/m*3 13 C 0 km/h
2515 21-09-2004 23:35:00 13 C 6.12 g/m*3 13 C 0 km/h
2516 21-09-2004 23:47:01 12.9 C 6.31 g/m*3 12.9 C 0 km/h
2517 21-09-2004 23:59:01 12.8 C 6.38 g/m*3 12.8 C 0 km/h
2518 22-09-2004 00:11:01 12.7 C 6.46 g/m*3 12.7 C 0 km/h
2519 22-09-2004 00:23:01 12.4 C 6.45 g/m*3 12.4 C 0 km/h
2520 22-09-2004 00:35:01 12.2 C 6.37 g/m*3 12.2 C 0 km/h
2521 22-09-2004 00:47:01 12.2 C 6.47 g/m*3 12.2 C 0 km/h
2522 22-09-2004 00:59:01 12.1 C 6.43 g/m*3 12.1 C 0 km/h
2523 22-09-2004 01:11:01 12.1 C 6.54 g/m*3 12.1 C 0 km/h
2524 22-09-2004 01:23:01 12.2 C 6.58 g/m*3 12.2 C 0 km/h
2525 22-09-2004 01:35:01 12.3 C 6.62 g/m*3 12.3 C 0 km/h
Sensor: Nr:Datum:Temp:Abs-Feuchte:Windchill:Wind:
Aussen-T/F 2526 22-09-2004 01:47:01 12.2 C 6.58 g/m*3 12.2 C 0 km/h
2527 22-09-2004 01:59:01 12.2 C 6.58 g/m*3 12.2 C 0 km/h
2528 22-09-2004 02:11:01 12.5 C 6.6 g/m*3 12.5 C 0 km/h
2529 22-09-2004 02:23:01 12.5 C 6.49 g/m*3 12.5 C 0 km/h
2530 22-09-2004 02:35:00 12.4 C 6.56 g/m*3 12.4 C 0 km/h
2531 22-09-2004 02:48:03 12.4 C 6.56 g/m*3 12.4 C 0 km/h
2532 22-09-2004 03:00:03 12.3 C 6.52 g/m*3 12.3 C 0 km/h
2533 22-09-2004 03:12:03 12.1 C 6.54 g/m*3 12.1 C 0 km/h
2534 22-09-2004 03:24:03 12 C 6.5 g/m*3 12 C 0 km/h
2535 22-09-2004 03:36:01 11.8 C 6.63 g/m*3 11.8 C 0 km/h
2536 22-09-2004 03:48:01 11.7 C 6.59 g/m*3 11.7 C 0 km/h
2537 22-09-2004 04:00:01 11.7 C 6.59 g/m*3 11.7 C 0 km/h
2538 22-09-2004 04:12:01 11.7 C 6.48 g/m*3 11.7 C 0 km/h
2539 22-09-2004 04:24:02 11.5 C 6.51 g/m*3 11.5 C 0 km/h
2540 22-09-2004 04:36:01 11.4 C 6.47 g/m*3 11.4 C 0 km/h
2541 22-09-2004 04:48:01 11.3 C 6.43 g/m*3 11.3 C 0 km/h
2542 22-09-2004 05:00:01 11.3 C 6.43 g/m*3 11.3 C 0 km/h
2543 22-09-2004 05:12:01 11.2 C 6.49 g/m*3 11.2 C 0 km/h
2544 22-09-2004 05:24:01 11.1 C 6.45 g/m*3 11.1 C 0 km/h
2545 22-09-2004 05:36:00 11 C 6.41 g/m*3 11 C 0 km/h
2546 22-09-2004 05:48:01 11.1 C 6.35 g/m*3 11.1 C 0 km/h
2547 22-09-2004 06:00:01 10.9 C 6.37 g/m*3 10.9 C 0 km/h
2548 22-09-2004 06:12:01 10.8 C 6.42 g/m*3 10.8 C 0 km/h
2549 22-09-2004 06:24:01 11 C 6.31 g/m*3 11 C 0 km/h
2550 22-09-2004 06:36:00 11 C 6.41 g/m*3 11 C 0 km/h
Sensor: Nr:Datum:Temp:Abs-Feuchte:Windchill:Wind:
Aussen-T/F 2551 22-09-2004 06:48:01 10.8 C 6.52 g/m*3 10.8 C 0 km/h
2552 22-09-2004 07:00:01 10.7 C 6.48 g/m*3 10.7 C 0 km/h
2553 22-09-2004 07:12:01 10.6 C 6.54 g/m*3 10.6 C 0 km/h
2554 22-09-2004 07:24:00 10.7 C 6.48 g/m*3 10.7 C 0 km/h
2555 22-09-2004 07:36:00 10.7 C 6.48 g/m*3 10.7 C 0 km/h
2556 22-09-2004 07:48:02 10.7 C 6.48 g/m*3 10.7 C 0 km/h
2557 22-09-2004 08:00:02 10.7 C 6.48 g/m*3 10.7 C 0 km/h
2558 22-09-2004 08:12:02 10.8 C 6.42 g/m*3 10.8 C 0 km/h
2559 22-09-2004 08:24:01 11 C 6.31 g/m*3 11 C 0 km/h
2560 22-09-2004 08:36:01 11.2 C 6.28 g/m*3 11.2 C 0 km/h
2561 22-09-2004 08:48:01 11.5 C 6.3 g/m*3 11.5 C 0 km/h
2562 22-09-2004 09:00:01 11.7 C 6.38 g/m*3 11.7 C 0 km/h
2563 22-09-2004 09:12:01 11.9 C 6.46 g/m*3 11.9 C 0 km/h
2564 22-09-2004 09:24:00 11.9 C 6.46 g/m*3 11.9 C 0 km/h
2565 22-09-2004 09:36:00 11.8 C 6.53 g/m*3 11.8 C 0 km/h
2566 22-09-2004 09:48:01 11.7 C 6.69 g/m*3 11.7 C 0 km/h
2567 22-09-2004 10:00:01 11.9 C 6.78 g/m*3 11.9 C 0 km/h
2568 22-09-2004 10:12:01 12.4 C 6.77 g/m*3 12.4 C 0 km/h
2569 22-09-2004 10:24:00 12.9 C 6.88 g/m*3 12.9 C 0 km/h
2570 22-09-2004 10:36:00 13 C 6.8 g/m*3 13 C 0 km/h
2571 22-09-2004 10:48:01 13.3 C 6.93 g/m*3 13.3 C 0 km/h
2572 22-09-2004 11:00:01 13.5 C 6.78 g/m*3 13.5 C 0 km/h
2573 22-09-2004 11:12:02 13.3 C 6.7 g/m*3 13.3 C 0 km/h
2574 22-09-2004 11:24:01 13.2 C 6.66 g/m*3 13.2 C 0 km/h
2575 22-09-2004 11:36:01 13.6 C 6.59 g/m*3 13.6 C 0 km/h
Sensor: Nr:Datum:Temp:Abs-Feuchte:Windchill:Wind:
Aussen-T/F 2576 22-09-2004 11:48:01 13.7 C 6.51 g/m*3 13.7 C 0 km/h
2577 22-09-2004 12:00:01 14.2 C 6.59 g/m*3 14.2 C 0 km/h
2578 22-09-2004 12:12:01 14.4 C 6.43 g/m*3 14.4 C 0 km/h
2579 22-09-2004 12:24:00 14.9 C 6.63 g/m*3 14.9 C 0 km/h
2580 22-09-2004 12:36:00 15.1 C 6.06 g/m*3 15.1 C 0 km/h
2581 22-09-2004 12:48:01 15.4 C 6.18 g/m*3 15.4 C 0 km/h
2582 22-09-2004 13:00:01 15.2 C 5.97 g/m*3 15.2 C 0 km/h
2583 22-09-2004 13:12:01 15.6 C 5.98 g/m*3 15.6 C 0 km/h
2584 22-09-2004 13:24:00 15.6 C 6.12 g/m*3 15.6 C 0 km/h
2585 22-09-2004 13:36:00 15.8 C 6.19 g/m*3 15.8 C 0 km/h
2586 22-09-2004 13:48:01 15.7 C 6.02 g/m*3 15.7 C 0 km/h
2587 22-09-2004 14:00:01 15.6 C 6.12 g/m*3 15.6 C 0 km/h
2588 22-09-2004 14:12:01 15.1 C 5.93 g/m*3 15.1 C 0 km/h
2589 22-09-2004 14:24:00 15 C 5.77 g/m*3 15 C 0 km/h
2590 22-09-2004 14:36:01 15 C 6.03 g/m*3 15 C 0 km/h
2591 22-09-2004 14:48:01 14.8 C 6.21 g/m*3 14.8 C 0 km/h
2592 22-09-2004 15:00:01 14.8 C 6.33 g/m*3 14.8 C 0 km/h
2593 22-09-2004 15:12:01 14.5 C 6.59 g/m*3 14.5 C 0 km/h
2594 22-09-2004 15:24:00 13.8 C 7.15 g/m*3 13.8 C 0 km/h
2595 22-09-2004 15:36:00 13.4 C 7.44 g/m*3 13.4 C 0 km/h
2596 22-09-2004 15:48:01 12.8 C 7.95 g/m*3 12.8 C 0 km/h
2597 22-09-2004 16:00:01 12.5 C 8.14 g/m*3 12.5 C 0 km/h
2598 22-09-2004 16:12:01 12.1 C 8.47 g/m*3 12.1 C 0 km/h
2599 22-09-2004 16:24:01 11.8 C 8.74 g/m*3 11.8 C 0 km/h
2600 22-09-2004 16:36:00 11.7 C 8.89 g/m*3 11.7 C 0 km/h
Sensor: Nr:Datum:Temp:Abs-Feuchte:Windchill:Wind:
Aussen-T/F 2601 22-09-2004 16:48:01 11.6 C 8.94 g/m*3 11.6 C 0 km/h
2602 22-09-2004 17:00:01 11.5 C 8.99 g/m*3 11.5 C 0 km/h
2603 22-09-2004 17:12:01 11.4 C 9.03 g/m*3 11.4 C 0 km/h
2604 22-09-2004 17:24:01 11.5 C 9.09 g/m*3 11.5 C 0 km/h
2605 22-09-2004 17:36:01 11.5 C 9.19 g/m*3 11.5 C 0 km/h
2606 22-09-2004 17:48:02 11.6 C 9.25 g/m*3 11.6 C 0 km/h
2607 22-09-2004 18:00:02 11.7 C 9.41 g/m*3 11.7 C 0 km/h
2608 22-09-2004 18:12:02 11.7 C 9.41 g/m*3 11.7 C 0 km/h
2609 22-09-2004 18:24:02 11.7 C 9.52 g/m*3 11.7 C 0 km/h
2610 22-09-2004 18:36:02 11.7 C 9.52 g/m*3 11.7 C 0 km/h
2611 22-09-2004 18:48:01 11.8 C 9.58 g/m*3 11.8 C 0 km/h
2612 22-09-2004 19:00:01 11.8 C 9.58 g/m*3 11.8 C 0 km/h
2613 22-09-2004 19:12:00 11.9 C 9.74 g/m*3 11.9 C 0 km/h
2614 22-09-2004 19:24:00 12 C 9.7 g/m*3 12 C 0 km/h
2615 22-09-2004 19:36:00 12.1 C 9.76 g/m*3 12.1 C 0 km/h
2616 22-09-2004 19:48:01 12.2 C 9.93 g/m*3 12.2 C 0 km/h
2617 22-09-2004 20:00:01 12.2 C 9.93 g/m*3 12.2 C 0 km/h
2618 22-09-2004 20:12:00 12.3 C 9.99 g/m*3 12.3 C 0 km/h
2619 22-09-2004 20:24:00 12.4 C 10.05 g/m*3 12.4 C 0 km/h
2620 22-09-2004 20:36:00 12.5 C 10.11 g/m*3 12.5 C 0 km/h
2621 22-09-2004 20:48:01 12.5 C 10.11 g/m*3 12.5 C 0 km/h
2622 22-09-2004 21:00:01 12.6 C 10.29 g/m*3 12.6 C 0 km/h
2623 22-09-2004 21:12:01 12.6 C 10.29 g/m*3 12.6 C 0 km/h
2624 22-09-2004 21:24:01 12.7 C 10.35 g/m*3 12.7 C 0 km/h
2625 22-09-2004 21:36:01 12.8 C 10.3 g/m*3 12.8 C 0 km/h
Sensor: Nr:Datum:Temp:Abs-Feuchte:Windchill:Wind:
Aussen-T/F 2626 22-09-2004 21:48:01 12.8 C 10.3 g/m*3 12.8 C 0 km/h
2627 22-09-2004 22:00:01 12.9 C 10.37 g/m*3 12.9 C 0 km/h
2628 22-09-2004 22:12:01 13 C 10.43 g/m*3 13 C 0 km/h
2629 22-09-2004 22:24:02 13 C 10.43 g/m*3 13 C 0 km/h
2630 22-09-2004 22:36:02 13 C 10.43 g/m*3 13 C 0 km/h
2631 22-09-2004 22:48:01 13.1 C 10.5 g/m*3 13.1 C 0 km/h
2632 22-09-2004 23:00:01 13.1 C 10.5 g/m*3 13.1 C 0 km/h
2633 22-09-2004 23:12:01 13.4 C 10.69 g/m*3 13.4 C 0 km/h
2634 22-09-2004 23:24:00 13.3 C 10.63 g/m*3 13.3 C 0 km/h
2635 22-09-2004 23:36:00 13.3 C 10.63 g/m*3 13.3 C 0 km/h
2636 22-09-2004 23:48:01 13.2 C 10.56 g/m*3 13.2 C 0 km/h
2637 23-09-2004 00:00:01 13.2 C 10.56 g/m*3 13.2 C 0 km/h
2638 23-09-2004 00:12:01 13.2 C 10.56 g/m*3 13.2 C 0 km/h
2639 23-09-2004 00:24:01 13.3 C 10.63 g/m*3 13.3 C 0 km/h
2640 23-09-2004 00:36:00 13.4 C 10.58 g/m*3 13.4 C 0 km/h
2641 23-09-2004 00:48:01 13.5 C 10.64 g/m*3 13.5 C 0 km/h
2642 23-09-2004 01:00:01 13.5 C 10.64 g/m*3 13.5 C 0 km/h
2643 23-09-2004 01:12:01 13.5 C 10.53 g/m*3 13.5 C 0 km/h
2644 23-09-2004 01:24:02 13.6 C 10.59 g/m*3 13.6 C 0 km/h
2645 23-09-2004 01:36:02 13.5 C 10.64 g/m*3 13.5 C 0 km/h
2646 23-09-2004 01:48:01 13.1 C 10.38 g/m*3 13.1 C 0 km/h
2647 23-09-2004 02:00:01 13 C 10.43 g/m*3 13 C 0 km/h
2648 23-09-2004 02:12:01 12.8 C 10.42 g/m*3 12.8 C 0 km/h
2649 23-09-2004 02:24:01 12.5 C 10.11 g/m*3 12.5 C 0 km/h
2650 23-09-2004 02:36:00 12.3 C 10.1 g/m*3 12.3 C 0 km/h
Sensor: Nr:Datum:Temp:Abs-Feuchte:Windchill:Wind:
Aussen-T/F 2651 23-09-2004 02:49:02 12.2 C 10.04 g/m*3 12.2 C 0 km/h
2652 23-09-2004 03:01:02 12.2 C 9.93 g/m*3 12.2 C 0 km/h
2653 23-09-2004 03:13:03 12.2 C 10.04 g/m*3 12.2 C 0 km/h
2654 23-09-2004 03:25:03 12.1 C 9.97 g/m*3 12.1 C 0 km/h
2655 23-09-2004 03:37:01 12.1 C 9.97 g/m*3 12.1 C 0 km/h
2656 23-09-2004 03:49:01 12.1 C 9.97 g/m*3 12.1 C 0 km/h
2657 23-09-2004 04:01:01 12.1 C 9.97 g/m*3 12.1 C 0 km/h
2658 23-09-2004 04:13:01 12 C 10.02 g/m*3 12 C 0 km/h
2659 23-09-2004 04:25:01 11.9 C 9.96 g/m*3 11.9 C 0 km/h
2660 23-09-2004 04:37:01 11.8 C 9.89 g/m*3 11.8 C 0 km/h
2661 23-09-2004 04:49:01 11.8 C 9.89 g/m*3 11.8 C 0 km/h
2662 23-09-2004 05:01:01 11.7 C 9.83 g/m*3 11.7 C 0 km/h
2663 23-09-2004 05:13:01 11.8 C 9.89 g/m*3 11.8 C 0 km/h
2664 23-09-2004 05:25:01 11.8 C 9.89 g/m*3 11.8 C 0 km/h
2665 23-09-2004 05:37:00 11.8 C 10 g/m*3 11.8 C 0 km/h
2666 23-09-2004 05:49:01 11.7 C 9.94 g/m*3 11.7 C 0 km/h
2667 23-09-2004 06:01:01 11.7 C 9.94 g/m*3 11.7 C 0 km/h
2668 23-09-2004 06:13:01 11.7 C 9.94 g/m*3 11.7 C 0 km/h
2669 23-09-2004 06:25:00 11.7 C 9.94 g/m*3 11.7 C 0 km/h
2670 23-09-2004 06:37:00 11.7 C 9.94 g/m*3 11.7 C 0 km/h
2671 23-09-2004 06:49:01 11.8 C 10 g/m*3 11.8 C 0 km/h
2672 23-09-2004 07:01:01 12 C 10.12 g/m*3 12 C 0 km/h
2673 23-09-2004 07:13:01 12.7 C 10.58 g/m*3 12.7 C 0 km/h
2674 23-09-2004 07:25:02 13 C 10.77 g/m*3 13 C 0 km/h
2675 23-09-2004 07:37:01 12.9 C 10.71 g/m*3 12.9 C 0 km/h
Sensor: Nr:Datum:Temp:Abs-Feuchte:Windchill:Wind:
Aussen-T/F 2676 23-09-2004 07:49:01 13.2 C 10.91 g/m*3 13.2 C 0 km/h
2677 23-09-2004 08:01:01 13.3 C 10.98 g/m*3 13.3 C 0 km/h
2678 23-09-2004 08:13:01 13.4 C 11.04 g/m*3 13.4 C 0 km/h
2679 23-09-2004 08:25:00 13.6 C 11.18 g/m*3 13.6 C 0 km/h
2680 23-09-2004 08:37:00 13.8 C 11.32 g/m*3 13.8 C 0 km/h
2681 23-09-2004 08:49:01 13.9 C 11.39 g/m*3 13.9 C 0 km/h
2682 23-09-2004 09:01:01 14.1 C 11.53 g/m*3 14.1 C 0 km/h
2683 23-09-2004 09:13:01 14.4 C 11.74 g/m*3 14.4 C 0 km/h
2684 23-09-2004 09:25:00 14.4 C 11.74 g/m*3 14.4 C 0 km/h
2685 23-09-2004 09:37:00 14.5 C 11.82 g/m*3 14.5 C 0 km/h
2686 23-09-2004 09:49:01 14.7 C 11.96 g/m*3 14.7 C 0 km/h
2687 23-09-2004 10:01:01 14.9 C 12.11 g/m*3 14.9 C 0 km/h
2688 23-09-2004 10:13:01 15 C 12.05 g/m*3 15 C 0 km/h
2689 23-09-2004 10:25:00 15.2 C 12.2 g/m*3 15.2 C 0 km/h
2690 23-09-2004 10:37:00 15.4 C 12.22 g/m*3 15.4 C 0 km/h
2691 23-09-2004 10:49:01 15.7 C 12.44 g/m*3 15.7 C 0 km/h
2692 23-09-2004 11:01:02 15.8 C 12.38 g/m*3 15.8 C 0 km/h
2693 23-09-2004 11:13:02 16.4 C 12.56 g/m*3 16.4 C 0 km/h
2694 23-09-2004 11:25:02 16.3 C 12.35 g/m*3 16.3 C 0 km/h
2695 23-09-2004 11:37:01 16.5 C 12.36 g/m*3 16.5 C 0 km/h
2696 23-09-2004 11:49:01 16.4 C 12.28 g/m*3 16.4 C 0 km/h
2697 23-09-2004 12:01:01 16.3 C 12.35 g/m*3 16.3 C 0 km/h
2698 23-09-2004 12:13:01 16.4 C 12.42 g/m*3 16.4 C 0 km/h
2699 23-09-2004 12:25:00 16.6 C 12.57 g/m*3 16.6 C 0 km/h
2700 23-09-2004 12:37:00 17 C 12.59 g/m*3 17 C 0 km/h
Sensor: Nr:Datum:Temp:Abs-Feuchte:Windchill:Wind:
Aussen-T/F 2701 23-09-2004 12:49:01 17.3 C 12.52 g/m*3 17.3 C 0 km/h
2702 23-09-2004 13:01:01 17.3 C 12.52 g/m*3 17.3 C 0 km/h
2703 23-09-2004 13:13:01 17 C 12.59 g/m*3 17 C 0 km/h
2704 23-09-2004 13:25:00 17.1 C 12.81 g/m*3 17.1 C 0 km/h
2705 23-09-2004 13:37:00 17.5 C 13.12 g/m*3 17.5 C 0 km/h
2706 23-09-2004 13:49:01 17.9 C 13.28 g/m*3 17.9 C 0 km/h
2707 23-09-2004 14:01:01 18.5 C 13.29 g/m*3 18.5 C 0 km/h
2708 23-09-2004 14:13:01 18.1 C 12.82 g/m*3 18.1 C 0 km/h
2709 23-09-2004 14:25:01 17.2 C 12.45 g/m*3 17.2 C 0 km/h
2710 23-09-2004 14:37:00 16.4 C 12.28 g/m*3 16.4 C 0 km/h
2711 23-09-2004 14:49:01 15.9 C 12.46 g/m*3 15.9 C 0 km/h
2712 23-09-2004 15:01:02 16.3 C 12.76 g/m*3 16.3 C 0 km/h
2713 23-09-2004 15:13:02 16.8 C 13.15 g/m*3 16.8 C 0 km/h
2714 23-09-2004 15:25:02 17.5 C 12.82 g/m*3 17.5 C 0 km/h
2715 23-09-2004 15:37:01 17.2 C 12.3 g/m*3 17.2 C 0 km/h
2716 23-09-2004 15:49:01 15.4 C 11.17 g/m*3 15.4 C 0 km/h
2717 23-09-2004 16:01:01 14.5 C 11.07 g/m*3 14.5 C 0 km/h
2718 23-09-2004 16:13:01 14.4 C 11.13 g/m*3 14.4 C 0 km/h
2719 23-09-2004 16:25:01 14.3 C 11.06 g/m*3 14.3 C 0 km/h
2720 23-09-2004 16:37:00 13.6 C 10.47 g/m*3 13.6 C 0 km/h
2721 23-09-2004 16:49:01 13.3 C 10.28 g/m*3 13.3 C 0 km/h
2722 23-09-2004 17:01:01 13.1 C 10.04 g/m*3 13.1 C 0 km/h
2723 23-09-2004 17:13:01 12.9 C 9.92 g/m*3 12.9 C 0 km/h
2724 23-09-2004 17:25:02 12.7 C 9.68 g/m*3 12.7 C 0 km/h
2725 23-09-2004 17:37:01 12.7 C 9.8 g/m*3 12.7 C 0 km/h
Sensor: Nr:Datum:Temp:Abs-Feuchte:Windchill:Wind:
Aussen-T/F 2726 23-09-2004 17:49:02 12.6 C 9.85 g/m*3 12.6 C 0 km/h
2727 23-09-2004 18:01:03 12.5 C 9.78 g/m*3 12.5 C 0 km/h
2728 23-09-2004 18:13:03 12.4 C 9.72 g/m*3 12.4 C 0 km/h
2729 23-09-2004 18:25:02 12.5 C 9.68 g/m*3 12.5 C 0 km/h
2730 23-09-2004 18:37:02 12.4 C 9.4 g/m*3 12.4 C 0 km/h
2731 23-09-2004 18:49:01 12.4 C 9.29 g/m*3 12.4 C 0 km/h
2732 23-09-2004 19:01:02 12.3 C 9.23 g/m*3 12.3 C 0 km/h
2733 23-09-2004 19:13:02 12.5 C 9.24 g/m*3 12.5 C 0 km/h
2734 23-09-2004 19:25:01 12.5 C 8.91 g/m*3 12.5 C 0 km/h
2735 23-09-2004 19:37:01 12.5 C 8.69 g/m*3 12.5 C 0 km/h
2736 23-09-2004 19:49:01 12.5 C 8.47 g/m*3 12.5 C 0 km/h
2737 23-09-2004 20:01:01 12.4 C 8.41 g/m*3 12.4 C 0 km/h
2738 23-09-2004 20:13:01 12.4 C 8.3 g/m*3 12.4 C 0 km/h
2739 23-09-2004 20:25:01 11.9 C 8.58 g/m*3 11.9 C 0 km/h
2740 23-09-2004 20:37:01 11.4 C 8.52 g/m*3 11.4 C 0 km/h
2741 23-09-2004 20:49:02 11 C 8.31 g/m*3 11 C 0 km/h
2742 23-09-2004 21:01:01 10.9 C 8.26 g/m*3 10.9 C 0 km/h
2743 23-09-2004 21:13:01 10.7 C 8.25 g/m*3 10.7 C 0 km/h
2744 23-09-2004 21:25:02 10.7 C 8.15 g/m*3 10.7 C 0 km/h
2745 23-09-2004 21:37:02 10.6 C 8.2 g/m*3 10.6 C 0 km/h
2746 23-09-2004 21:49:01 10.5 C 8.15 g/m*3 10.5 C 0 km/h
2747 23-09-2004 22:01:01 10.5 C 8.24 g/m*3 10.5 C 0 km/h
2748 23-09-2004 22:13:01 10.3 C 8.14 g/m*3 10.3 C 0 km/h
2749 23-09-2004 22:25:01 10.3 C 8.24 g/m*3 10.3 C 0 km/h
2750 23-09-2004 22:37:01 10.4 C 8.19 g/m*3 10.4 C 0 km/h
Sensor: Nr:Datum:Temp:Abs-Feuchte:Windchill:Wind:
Aussen-T/F 2751 23-09-2004 22:49:01 11 C 8.21 g/m*3 11 C 0 km/h
2752 23-09-2004 23:01:01 11.1 C 7.96 g/m*3 11.1 C 0 km/h
2753 23-09-2004 23:13:01 11.1 C 7.96 g/m*3 11.1 C 0 km/h
2754 23-09-2004 23:25:01 11 C 7.91 g/m*3 11 C 0 km/h
2755 23-09-2004 23:37:01 10.8 C 8.01 g/m*3 10.8 C 0 km/h
2756 23-09-2004 23:49:01 10.8 C 8.01 g/m*3 10.8 C 0 km/h
2757 24-09-2004 00:01:01 10.4 C 7.9 g/m*3 10.4 C 0 km/h
2758 24-09-2004 00:13:01 10.6 C 8 g/m*3 10.6 C 0 km/h
2759 24-09-2004 00:25:01 10.6 C 8 g/m*3 10.6 C 0 km/h
2760 24-09-2004 00:37:01 10.9 C 7.96 g/m*3 10.9 C 0 km/h
2761 24-09-2004 00:49:01 11.2 C 7.8 g/m*3 11.2 C 0 km/h
2762 24-09-2004 01:01:01 11.2 C 7.7 g/m*3 11.2 C 0 km/h
2763 24-09-2004 01:13:01 11.4 C 7.7 g/m*3 11.4 C 0 km/h
2764 24-09-2004 01:25:01 11.3 C 7.65 g/m*3 11.3 C 0 km/h
2765 24-09-2004 01:37:01 11.1 C 7.76 g/m*3 11.1 C 0 km/h
2766 24-09-2004 01:49:01 11 C 7.81 g/m*3 11 C 0 km/h
2767 24-09-2004 02:01:01 11.2 C 7.7 g/m*3 11.2 C 0 km/h
2768 24-09-2004 02:13:01 11.2 C 7.7 g/m*3 11.2 C 0 km/h
2769 24-09-2004 02:25:01 11.3 C 7.65 g/m*3 11.3 C 0 km/h
2770 24-09-2004 02:37:01 11.3 C 7.65 g/m*3 11.3 C 0 km/h
2771 24-09-2004 02:50:03 11.3 C 7.65 g/m*3 11.3 C 0 km/h
2772 24-09-2004 03:02:03 11.2 C 7.7 g/m*3 11.2 C 0 km/h
2773 24-09-2004 03:14:03 11.1 C 7.76 g/m*3 11.1 C 0 km/h
2774 24-09-2004 03:26:03 10.8 C 7.91 g/m*3 10.8 C 0 km/h
2775 24-09-2004 03:38:01 10.3 C 8.14 g/m*3 10.3 C 0 km/h
Sensor: Nr:Datum:Temp:Abs-Feuchte:Windchill:Wind:
Aussen-T/F 2776 24-09-2004 03:50:01 10.1 C 8.23 g/m*3 10.1 C 0 km/h
2777 24-09-2004 04:02:01 10.2 C 8.28 g/m*3 10.2 C 0 km/h
2778 24-09-2004 04:14:01 10.3 C 8.33 g/m*3 10.3 C 0 km/h
2779 24-09-2004 04:26:01 10.2 C 8.28 g/m*3 10.2 C 0 km/h
2780 24-09-2004 04:38:01 10 C 8.36 g/m*3 10 C 0 km/h
2781 24-09-2004 04:50:01 10 C 8.36 g/m*3 10 C 0 km/h
2782 24-09-2004 05:02:01 10 C 8.46 g/m*3 10 C 0 km/h
2783 24-09-2004 05:14:01 10 C 8.46 g/m*3 10 C 0 km/h
2784 24-09-2004 05:26:01 10.1 C 8.51 g/m*3 10.1 C 0 km/h
2785 24-09-2004 05:38:01 10 C 8.46 g/m*3 10 C 0 km/h
2786 24-09-2004 05:50:02 10 C 8.46 g/m*3 10 C 0 km/h
2787 24-09-2004 06:02:02 9.9 C 8.4 g/m*3 9.9 C 0 km/h
2788 24-09-2004 06:14:02 10 C 8.36 g/m*3 10 C 0 km/h
2789 24-09-2004 06:26:02 10 C 8.36 g/m*3 10 C 0 km/h
2790 24-09-2004 06:38:01 10 C 8.36 g/m*3 10 C 0 km/h
2791 24-09-2004 06:50:01 10 C 8.46 g/m*3 10 C 0 km/h
2792 24-09-2004 07:02:01 10 C 8.46 g/m*3 10 C 0 km/h
2793 24-09-2004 07:14:01 10 C 8.36 g/m*3 10 C 0 km/h
2794 24-09-2004 07:26:01 9.8 C 8.35 g/m*3 9.8 C 0 km/h
2795 24-09-2004 07:38:01 9.5 C 8.19 g/m*3 9.5 C 0 km/h
2796 24-09-2004 07:50:02 9.2 C 8.04 g/m*3 9.2 C 0 km/h
2797 24-09-2004 08:02:02 9.4 C 8.23 g/m*3 9.4 C 0 km/h
2798 24-09-2004 08:14:02 9.7 C 8.48 g/m*3 9.7 C 0 km/h
2799 24-09-2004 08:26:02 9.8 C 8.54 g/m*3 9.8 C 0 km/h
2800 24-09-2004 08:38:01 9.8 C 8.35 g/m*3 9.8 C 0 km/h
Sensor: Nr:Datum:Temp:Abs-Feuchte:Windchill:Wind:
Aussen-T/F 2801 24-09-2004 08:50:01 10.2 C 8.28 g/m*3 10.2 C 0 km/h
2802 24-09-2004 09:02:01 10.5 C 8.24 g/m*3 10.5 C 0 km/h
2803 24-09-2004 09:14:01 10 C 7.99 g/m*3 10 C 0 km/h
2804 24-09-2004 09:26:01 10.2 C 8.18 g/m*3 10.2 C 0 km/h
2805 24-09-2004 09:38:01 10.7 C 8.15 g/m*3 10.7 C 0 km/h
2806 24-09-2004 09:50:01 10.7 C 8.05 g/m*3 10.7 C 0 km/h
2807 24-09-2004 10:02:01 11 C 7.91 g/m*3 11 C 0 km/h
2808 24-09-2004 10:14:01 11.2 C 8.01 g/m*3 11.2 C 0 km/h
2809 24-09-2004 10:26:01 11 C 7.81 g/m*3 11 C 0 km/h
2810 24-09-2004 10:38:00 11.4 C 7.8 g/m*3 11.4 C 0 km/h
2811 24-09-2004 10:50:01 11.8 C 7.68 g/m*3 11.8 C 0 km/h
2812 24-09-2004 11:02:01 11.8 C 7.58 g/m*3 11.8 C 0 km/h
2813 24-09-2004 11:14:01 12.1 C 7.51 g/m*3 12.1 C 0 km/h
2814 24-09-2004 11:26:02 12.4 C 7.43 g/m*3 12.4 C 0 km/h
2815 24-09-2004 11:38:01 12.3 C 7.17 g/m*3 12.3 C 0 km/h
2816 24-09-2004 11:50:01 12.4 C 6.88 g/m*3 12.4 C 0 km/h
2817 24-09-2004 12:02:01 12.8 C 6.94 g/m*3 12.8 C 0 km/h
2818 24-09-2004 12:14:01 13.3 C 6.93 g/m*3 13.3 C 0 km/h
2819 24-09-2004 12:26:00 13 C 6.69 g/m*3 13 C 0 km/h
2820 24-09-2004 12:38:00 13.3 C 6.82 g/m*3 13.3 C 0 km/h
2821 24-09-2004 12:50:01 11.5 C 7.33 g/m*3 11.5 C 0 km/h
2822 24-09-2004 13:02:01 11.7 C 8.16 g/m*3 11.7 C 0 km/h
2823 24-09-2004 13:14:01 12.7 C 8.01 g/m*3 12.7 C 0 km/h
2824 24-09-2004 13:26:01 13.7 C 7.46 g/m*3 13.7 C 0 km/h
2825 24-09-2004 13:38:00 13.4 C 6.97 g/m*3 13.4 C 0 km/h
Sensor: Nr:Datum:Temp:Abs-Feuchte:Windchill:Wind:
Aussen-T/F 2826 24-09-2004 13:50:01 13.3 C 6.82 g/m*3 13.3 C 0 km/h
2827 24-09-2004 14:02:01 14.4 C 7.05 g/m*3 14.4 C 0 km/h
2828 24-09-2004 14:14:01 14.4 C 6.68 g/m*3 14.4 C 0 km/h
2829 24-09-2004 14:26:01 14.2 C 6.84 g/m*3 14.2 C 0 km/h
2830 24-09-2004 14:38:00 14 C 6.75 g/m*3 14 C 0 km/h
2831 24-09-2004 14:50:01 13.6 C 6.71 g/m*3 13.6 C 0 km/h
2832 24-09-2004 15:02:01 14.2 C 6.84 g/m*3 14.2 C 0 km/h
2833 24-09-2004 15:14:01 14.7 C 6.92 g/m*3 14.7 C 0 km/h
2834 24-09-2004 15:26:01 14.8 C 6.84 g/m*3 14.8 C 0 km/h
2835 24-09-2004 15:38:00 14.5 C 6.72 g/m*3 14.5 C 0 km/h
2836 24-09-2004 15:50:02 14.4 C 6.55 g/m*3 14.4 C 0 km/h
2837 24-09-2004 16:02:02 15.1 C 6.19 g/m*3 15.1 C 0 km/h
2838 24-09-2004 16:14:02 16 C 6.4 g/m*3 16 C 0 km/h
2839 24-09-2004 16:26:02 15.6 C 6.38 g/m*3 15.6 C 0 km/h
2840 24-09-2004 16:38:01 15.4 C 6.44 g/m*3 15.4 C 0 km/h
2841 24-09-2004 16:50:01 15.6 C 6.52 g/m*3 15.6 C 0 km/h
2842 24-09-2004 17:02:01 16.5 C 6.32 g/m*3 16.5 C 0 km/h
2843 24-09-2004 17:14:01 15.8 C 6.19 g/m*3 15.8 C 0 km/h
2844 24-09-2004 17:26:01 15.7 C 6.29 g/m*3 15.7 C 0 km/h
2845 24-09-2004 17:38:00 15.8 C 6.33 g/m*3 15.8 C 0 km/h
2846 24-09-2004 17:50:01 14.8 C 5.95 g/m*3 14.8 C 0 km/h
2847 24-09-2004 18:02:02 14.6 C 6.13 g/m*3 14.6 C 0 km/h
2848 24-09-2004 18:14:02 14.4 C 6.18 g/m*3 14.4 C 0 km/h
2849 24-09-2004 18:26:01 14.3 C 6.51 g/m*3 14.3 C 0 km/h
2850 24-09-2004 18:38:00 14 C 6.51 g/m*3 14 C 0 km/h
Sensor: Nr:Datum:Temp:Abs-Feuchte:Windchill:Wind:
Aussen-T/F 2851 24-09-2004 18:50:01 13.7 C 6.63 g/m*3 13.7 C 0 km/h
2852 24-09-2004 19:02:01 13.5 C 6.78 g/m*3 13.5 C 0 km/h
2853 24-09-2004 19:14:01 13.5 C 6.78 g/m*3 13.5 C 0 km/h
2854 24-09-2004 19:26:02 13.3 C 6.93 g/m*3 13.3 C 0 km/h
2855 24-09-2004 19:38:02 13.2 C 7 g/m*3 13.2 C 0 km/h
2856 24-09-2004 19:50:01 13.2 C 6.89 g/m*3 13.2 C 0 km/h
2857 24-09-2004 20:02:01 13 C 6.92 g/m*3 13 C 0 km/h
2858 24-09-2004 20:14:01 12.9 C 6.99 g/m*3 12.9 C 0 km/h
2859 24-09-2004 20:26:01 12.8 C 7.06 g/m*3 12.8 C 0 km/h
2860 24-09-2004 20:38:00 12.8 C 7.17 g/m*3 12.8 C 0 km/h
2861 24-09-2004 20:50:01 12.5 C 7.37 g/m*3 12.5 C 0 km/h
2862 24-09-2004 21:02:01 12.4 C 7.54 g/m*3 12.4 C 0 km/h
2863 24-09-2004 21:14:01 12.5 C 7.48 g/m*3 12.5 C 0 km/h
2864 24-09-2004 21:26:01 12.5 C 7.48 g/m*3 12.5 C 0 km/h
2865 24-09-2004 21:38:00 12.5 C 7.48 g/m*3 12.5 C 0 km/h
2866 24-09-2004 21:50:01 12.5 C 7.59 g/m*3 12.5 C 0 km/h
2867 24-09-2004 22:02:01 12.5 C 7.59 g/m*3 12.5 C 0 km/h
2868 24-09-2004 22:14:01 12.4 C 7.76 g/m*3 12.4 C 0 km/h
2869 24-09-2004 22:26:01 12.2 C 7.99 g/m*3 12.2 C 0 km/h
2870 24-09-2004 22:38:01 12.1 C 8.15 g/m*3 12.1 C 0 km/h
2871 24-09-2004 22:50:02 12.2 C 8.2 g/m*3 12.2 C 0 km/h
2872 24-09-2004 23:02:02 12.1 C 8.36 g/m*3 12.1 C 0 km/h
2873 24-09-2004 23:14:02 12 C 8.42 g/m*3 12 C 0 km/h
2874 24-09-2004 23:26:02 12 C 8.42 g/m*3 12 C 0 km/h
2875 24-09-2004 23:38:01 11.8 C 8.42 g/m*3 11.8 C 0 km/h
Sensor: Nr:Datum:Temp:Abs-Feuchte:Windchill:Wind:
Aussen-T/F 2876 24-09-2004 23:50:01 11.9 C 8.37 g/m*3 11.9 C 0 km/h
2877 25-09-2004 00:02:01 12 C 8.31 g/m*3 12 C 0 km/h
2878 25-09-2004 00:14:01 12.1 C 8.26 g/m*3 12.1 C 0 km/h
2879 25-09-2004 00:26:01 12.1 C 8.15 g/m*3 12.1 C 0 km/h
2880 25-09-2004 00:38:01 12.1 C 8.15 g/m*3 12.1 C 0 km/h
2881 25-09-2004 00:50:03 12 C 8.1 g/m*3 12 C 0 km/h
2882 25-09-2004 01:02:01 12 C 8.1 g/m*3 12 C 0 km/h
2883 25-09-2004 01:14:01 12.1 C 8.15 g/m*3 12.1 C 0 km/h
2884 25-09-2004 01:26:01 12 C 8.1 g/m*3 12 C 0 km/h
2885 25-09-2004 01:38:01 12 C 8.21 g/m*3 12 C 0 km/h
2886 25-09-2004 01:50:01 12 C 8.21 g/m*3 12 C 0 km/h
2887 25-09-2004 02:02:01 12 C 8.31 g/m*3 12 C 0 km/h
2888 25-09-2004 02:14:01 11.9 C 8.37 g/m*3 11.9 C 0 km/h
2889 25-09-2004 02:26:01 11.7 C 8.47 g/m*3 11.7 C 0 km/h
2890 25-09-2004 02:38:01 11.5 C 8.57 g/m*3 11.5 C 0 km/h
2891 25-09-2004 02:51:03 11.6 C 8.63 g/m*3 11.6 C 0 km/h
2892 25-09-2004 03:03:03 11.7 C 8.58 g/m*3 11.7 C 0 km/h
2893 25-09-2004 03:15:03 11.7 C 8.58 g/m*3 11.7 C 0 km/h
2894 25-09-2004 03:27:03 11.6 C 8.63 g/m*3 11.6 C 0 km/h
2895 25-09-2004 03:39:01 11.6 C 8.63 g/m*3 11.6 C 0 km/h
2896 25-09-2004 03:51:01 11.5 C 8.57 g/m*3 11.5 C 0 km/h
2897 25-09-2004 04:03:01 11.5 C 8.57 g/m*3 11.5 C 0 km/h
2898 25-09-2004 04:15:01 11.4 C 8.62 g/m*3 11.4 C 0 km/h
2899 25-09-2004 04:27:01 11.4 C 8.62 g/m*3 11.4 C 0 km/h
2900 25-09-2004 04:39:01 11.5 C 8.57 g/m*3 11.5 C 0 km/h
Sensor: Nr:Datum:Temp:Abs-Feuchte:Windchill:Wind:
Aussen-T/F 2901 25-09-2004 04:51:01 11.5 C 8.47 g/m*3 11.5 C 0 km/h
2902 25-09-2004 05:03:01 11.3 C 8.47 g/m*3 11.3 C 0 km/h
2903 25-09-2004 05:15:01 11.4 C 8.52 g/m*3 11.4 C 0 km/h
2904 25-09-2004 05:27:01 11.4 C 8.52 g/m*3 11.4 C 0 km/h
2905 25-09-2004 05:39:02 11.4 C 8.52 g/m*3 11.4 C 0 km/h
2906 25-09-2004 05:51:02 11.4 C 8.42 g/m*3 11.4 C 0 km/h
2907 25-09-2004 06:03:02 11.4 C 8.31 g/m*3 11.4 C 0 km/h
2908 25-09-2004 06:15:02 11.5 C 8.37 g/m*3 11.5 C 0 km/h
2909 25-09-2004 06:27:02 11.5 C 8.26 g/m*3 11.5 C 0 km/h
2910 25-09-2004 06:39:01 11.4 C 8.31 g/m*3 11.4 C 0 km/h
2911 25-09-2004 06:51:01 11.3 C 8.26 g/m*3 11.3 C 0 km/h
2912 25-09-2004 07:03:01 11.3 C 8.26 g/m*3 11.3 C 0 km/h
2913 25-09-2004 07:15:01 11.2 C 8.31 g/m*3 11.2 C 0 km/h
2914 25-09-2004 07:27:01 11.2 C 8.41 g/m*3 11.2 C 0 km/h
2915 25-09-2004 07:39:00 11.3 C 8.36 g/m*3 11.3 C 0 km/h
2916 25-09-2004 07:51:01 11.4 C 8.31 g/m*3 11.4 C 0 km/h
2917 25-09-2004 08:03:01 11.5 C 8.26 g/m*3 11.5 C 0 km/h
2918 25-09-2004 08:15:01 11.5 C 8.16 g/m*3 11.5 C 0 km/h
2919 25-09-2004 08:27:01 11.6 C 8.21 g/m*3 11.6 C 0 km/h
2920 25-09-2004 08:39:00 11.6 C 8.21 g/m*3 11.6 C 0 km/h
2921 25-09-2004 08:51:02 11.6 C 8.11 g/m*3 11.6 C 0 km/h
2922 25-09-2004 09:03:02 11.6 C 8 g/m*3 11.6 C 0 km/h
2923 25-09-2004 09:15:02 11.7 C 8.05 g/m*3 11.7 C 0 km/h
2924 25-09-2004 09:27:02 11.7 C 7.95 g/m*3 11.7 C 0 km/h
2925 25-09-2004 09:39:01 11.9 C 7.94 g/m*3 11.9 C 0 km/h
Sensor: Nr:Datum:Temp:Abs-Feuchte:Windchill:Wind:
Aussen-T/F 2926 25-09-2004 09:51:01 11.8 C 7.89 g/m*3 11.8 C 0 km/h
2927 25-09-2004 10:03:01 11.7 C 7.84 g/m*3 11.7 C 0 km/h
2928 25-09-2004 10:15:00 11.7 C 7.84 g/m*3 11.7 C 0 km/h
2929 25-09-2004 10:27:00 11.6 C 7.9 g/m*3 11.6 C 0 km/h
2930 25-09-2004 10:39:00 11.6 C 7.9 g/m*3 11.6 C 0 km/h
2931 25-09-2004 10:51:01 12 C 7.67 g/m*3 12 C 0 km/h
2932 25-09-2004 11:03:01 12.4 C 7.65 g/m*3 12.4 C 0 km/h
2933 25-09-2004 11:15:00 12.1 C 7.51 g/m*3 12.1 C 0 km/h
2934 25-09-2004 11:27:00 12.1 C 7.61 g/m*3 12.1 C 0 km/h
2935 25-09-2004 11:39:00 12.5 C 7.7 g/m*3 12.5 C 0 km/h
2936 25-09-2004 11:51:01 12.7 C 7.46 g/m*3 12.7 C 0 km/h
2937 25-09-2004 12:03:01 13 C 7.26 g/m*3 13 C 0 km/h
2938 25-09-2004 12:15:00 13.2 C 7.35 g/m*3 13.2 C 0 km/h
2939 25-09-2004 12:27:00 13.1 C 7.07 g/m*3 13.1 C 0 km/h
2940 25-09-2004 12:39:00 13.2 C 7.23 g/m*3 13.2 C 0 km/h
2941 25-09-2004 12:51:02 13.1 C 6.73 g/m*3 13.1 C 0 km/h
2942 25-09-2004 13:03:02 13.1 C 6.85 g/m*3 13.1 C 0 km/h
2943 25-09-2004 13:15:01 13.4 C 6.86 g/m*3 13.4 C 0 km/h
2944 25-09-2004 13:27:01 13.8 C 6.79 g/m*3 13.8 C 0 km/h
2945 25-09-2004 13:39:01 14.2 C 6.47 g/m*3 14.2 C 0 km/h
2946 25-09-2004 13:51:01 13.8 C 6.31 g/m*3 13.8 C 0 km/h
2947 25-09-2004 14:03:01 13.3 C 6.12 g/m*3 13.3 C 0 km/h
2948 25-09-2004 14:15:01 13 C 5.9 g/m*3 13 C 0 km/h
2949 25-09-2004 14:27:01 13.3 C 5.89 g/m*3 13.3 C 0 km/h
2950 25-09-2004 14:39:00 14.4 C 6.43 g/m*3 14.4 C 0 km/h
Sensor: Nr:Datum:Temp:Abs-Feuchte:Windchill:Wind:
Aussen-T/F 2951 25-09-2004 14:51:01 14.7 C 5.92 g/m*3 14.7 C 0 km/h
2952 25-09-2004 15:03:01 14.8 C 6.21 g/m*3 14.8 C 0 km/h
2953 25-09-2004 15:15:01 15.5 C 5.82 g/m*3 15.5 C 0 km/h
2954 25-09-2004 15:27:01 15.7 C 5.75 g/m*3 15.7 C 0 km/h
2955 25-09-2004 15:39:01 14.8 C 5.57 g/m*3 14.8 C 0 km/h
2956 25-09-2004 15:51:01 14.8 C 5.7 g/m*3 14.8 C 0 km/h
2957 25-09-2004 16:03:01 14.4 C 5.56 g/m*3 14.4 C 0 km/h
2958 25-09-2004 16:15:01 14.7 C 5.79 g/m*3 14.7 C 0 km/h
2959 25-09-2004 16:27:01 15.1 C 5.68 g/m*3 15.1 C 0 km/h
2960 25-09-2004 16:39:01 15.2 C 5.84 g/m*3 15.2 C 0 km/h
2961 25-09-2004 16:51:01 15.2 C 5.97 g/m*3 15.2 C 0 km/h
2962 25-09-2004 17:03:01 15 C 5.64 g/m*3 15 C 0 km/h
2963 25-09-2004 17:15:01 14.9 C 5.74 g/m*3 14.9 C 0 km/h
2964 25-09-2004 17:27:01 14.5 C 5.72 g/m*3 14.5 C 0 km/h
2965 25-09-2004 17:39:00 14.2 C 5.62 g/m*3 14.2 C 0 km/h
2966 25-09-2004 17:51:01 14.1 C 5.83 g/m*3 14.1 C 0 km/h
2967 25-09-2004 18:03:01 13.9 C 6.11 g/m*3 13.9 C 0 km/h
2968 25-09-2004 18:15:01 13.8 C 6.2 g/m*3 13.8 C 0 km/h
2969 25-09-2004 18:27:01 13.6 C 7.06 g/m*3 13.6 C 0 km/h
2970 25-09-2004 18:39:00 13.2 C 6.66 g/m*3 13.2 C 0 km/h
2971 25-09-2004 18:51:01 13.1 C 6.73 g/m*3 13.1 C 0 km/h
2972 25-09-2004 19:03:02 12.9 C 6.88 g/m*3 12.9 C 0 km/h
2973 25-09-2004 19:15:02 12.5 C 7.04 g/m*3 12.5 C 0 km/h
2974 25-09-2004 19:27:02 12.2 C 7.01 g/m*3 12.2 C 0 km/h
2975 25-09-2004 19:39:01 12.1 C 7.18 g/m*3 12.1 C 0 km/h
Sensor: Nr:Datum:Temp:Abs-Feuchte:Windchill:Wind:
Aussen-T/F 2976 25-09-2004 19:51:01 12 C 7.25 g/m*3 12 C 0 km/h
2977 25-09-2004 20:03:01 12 C 7.35 g/m*3 12 C 0 km/h
2978 25-09-2004 20:15:01 11.9 C 7.41 g/m*3 11.9 C 0 km/h
2979 25-09-2004 20:27:01 12 C 7.46 g/m*3 12 C 0 km/h
2980 25-09-2004 20:39:00 11.9 C 7.52 g/m*3 11.9 C 0 km/h
2981 25-09-2004 20:51:01 11.9 C 7.52 g/m*3 11.9 C 0 km/h
2982 25-09-2004 21:03:01 12 C 7.35 g/m*3 12 C 0 km/h
2983 25-09-2004 21:15:01 12 C 7.35 g/m*3 12 C 0 km/h
2984 25-09-2004 21:27:01 12 C 7.35 g/m*3 12 C 0 km/h
2985 25-09-2004 21:39:00 12 C 7.35 g/m*3 12 C 0 km/h
2986 25-09-2004 21:51:01 12 C 7.14 g/m*3 12 C 0 km/h
2987 25-09-2004 22:03:01 11.9 C 7.2 g/m*3 11.9 C 0 km/h
2988 25-09-2004 22:15:01 11.8 C 7.26 g/m*3 11.8 C 0 km/h
2989 25-09-2004 22:27:01 11.4 C 7.6 g/m*3 11.4 C 0 km/h
2990 25-09-2004 22:39:01 11.1 C 7.76 g/m*3 11.1 C 0 km/h
2991 25-09-2004 22:51:01 10.9 C 7.76 g/m*3 10.9 C 0 km/h
2992 25-09-2004 23:03:01 10.9 C 7.66 g/m*3 10.9 C 0 km/h
2993 25-09-2004 23:15:01 11.2 C 7.5 g/m*3 11.2 C 0 km/h
2994 25-09-2004 23:27:01 11.2 C 7.3 g/m*3 11.2 C 0 km/h
2995 25-09-2004 23:39:00 11.3 C 7.24 g/m*3 11.3 C 0 km/h
2996 25-09-2004 23:51:01 11.4 C 7.08 g/m*3 11.4 C 0 km/h
2997 26-09-2004 00:03:01 11.4 C 7.08 g/m*3 11.4 C 0 km/h
2998 26-09-2004 00:15:01 11.2 C 7.2 g/m*3 11.2 C 0 km/h
2999 26-09-2004 00:27:01 11.2 C 7.2 g/m*3 11.2 C 0 km/h
3000 26-09-2004 00:39:01 11.3 C 7.14 g/m*3 11.3 C 0 km/h
Sensor: Nr:Datum:Temp:Abs-Feuchte:Windchill:Wind:
Aussen-T/F 3001 26-09-2004 00:51:01 11.1 C 7.15 g/m*3 11.1 C 0 km/h
3002 26-09-2004 01:03:01 10.7 C 7.37 g/m*3 10.7 C 0 km/h
3003 26-09-2004 01:15:01 10.6 C 7.52 g/m*3 10.6 C 0 km/h
3004 26-09-2004 01:27:01 10.4 C 7.61 g/m*3 10.4 C 0 km/h
3005 26-09-2004 01:39:01 10.4 C 7.71 g/m*3 10.4 C 0 km/h
3006 26-09-2004 01:51:01 10.6 C 7.71 g/m*3 10.6 C 0 km/h
3007 26-09-2004 02:03:01 10.5 C 7.66 g/m*3 10.5 C 0 km/h
3008 26-09-2004 02:15:01 10.1 C 7.85 g/m*3 10.1 C 0 km/h
3009 26-09-2004 02:27:01 9.8 C 7.98 g/m*3 9.8 C 0 km/h
3010 26-09-2004 02:39:01 9.8 C 7.98 g/m*3 9.8 C 0 km/h
3011 26-09-2004 02:52:03 9.7 C 8.02 g/m*3 9.7 C 0 km/h
3012 26-09-2004 03:04:03 9.8 C 8.07 g/m*3 9.8 C 0 km/h
3013 26-09-2004 03:16:03 9.8 C 8.07 g/m*3 9.8 C 0 km/h
3014 26-09-2004 03:28:03 9.8 C 8.07 g/m*3 9.8 C 0 km/h
3015 26-09-2004 03:40:01 10 C 7.99 g/m*3 10 C 0 km/h
3016 26-09-2004 03:52:01 10 C 7.89 g/m*3 10 C 0 km/h
3017 26-09-2004 04:04:01 10.1 C 8.04 g/m*3 10.1 C 0 km/h
3018 26-09-2004 04:16:01 10.1 C 8.13 g/m*3 10.1 C 0 km/h
3019 26-09-2004 04:28:01 10.1 C 8.04 g/m*3 10.1 C 0 km/h
3020 26-09-2004 04:40:01 10.1 C 8.13 g/m*3 10.1 C 0 km/h
3021 26-09-2004 04:52:01 10 C 8.17 g/m*3 10 C 0 km/h
3022 26-09-2004 05:04:01 10 C 8.17 g/m*3 10 C 0 km/h
3023 26-09-2004 05:16:01 10 C 8.17 g/m*3 10 C 0 km/h
3024 26-09-2004 05:28:01 10.1 C 8.32 g/m*3 10.1 C 0 km/h
3025 26-09-2004 05:40:02 10 C 8.27 g/m*3 10 C 0 km/h
Sensor: Nr:Datum:Temp:Abs-Feuchte:Windchill:Wind:
Aussen-T/F 3026 26-09-2004 05:52:01 10.1 C 8.32 g/m*3 10.1 C 0 km/h
3027 26-09-2004 06:04:02 10.1 C 8.32 g/m*3 10.1 C 0 km/h
3028 26-09-2004 06:16:02 10.2 C 8.37 g/m*3 10.2 C 0 km/h
3029 26-09-2004 06:28:02 10.2 C 8.37 g/m*3 10.2 C 0 km/h
3030 26-09-2004 06:40:01 10.4 C 8.38 g/m*3 10.4 C 0 km/h
3031 26-09-2004 06:52:01 10.4 C 8.38 g/m*3 10.4 C 0 km/h
3032 26-09-2004 07:04:01 10.3 C 8.43 g/m*3 10.3 C 0 km/h
3033 26-09-2004 07:16:01 10.2 C 8.47 g/m*3 10.2 C 0 km/h
3034 26-09-2004 07:28:01 10.2 C 8.56 g/m*3 10.2 C 0 km/h
3035 26-09-2004 07:40:00 10.2 C 8.56 g/m*3 10.2 C 0 km/h
3036 26-09-2004 07:52:01 10.3 C 8.62 g/m*3 10.3 C 0 km/h
3037 26-09-2004 08:04:01 10.4 C 8.67 g/m*3 10.4 C 0 km/h
3038 26-09-2004 08:16:00 10.7 C 8.84 g/m*3 10.7 C 0 km/h
3039 26-09-2004 08:28:00 10.7 C 8.84 g/m*3 10.7 C 0 km/h
3040 26-09-2004 08:40:00 10.7 C 8.74 g/m*3 10.7 C 0 km/h
3041 26-09-2004 08:52:01 10.7 C 8.84 g/m*3 10.7 C 0 km/h
3042 26-09-2004 09:04:01 10.7 C 8.94 g/m*3 10.7 C 0 km/h
3043 26-09-2004 09:16:02 10.7 C 8.94 g/m*3 10.7 C 0 km/h
3044 26-09-2004 09:28:02 11 C 9.11 g/m*3 11 C 0 km/h
3045 26-09-2004 09:40:01 11.5 C 9.4 g/m*3 11.5 C 0 km/h
3046 26-09-2004 09:52:01 11.7 C 9.41 g/m*3 11.7 C 0 km/h
3047 26-09-2004 10:04:01 12.1 C 9.54 g/m*3 12.1 C 0 km/h
3048 26-09-2004 10:16:01 12.5 C 9.68 g/m*3 12.5 C 0 km/h
3049 26-09-2004 10:28:01 12.6 C 9.4 g/m*3 12.6 C 0 km/h
3050 26-09-2004 10:40:00 13 C 9.53 g/m*3 13 C 0 km/h
Sensor: Nr:Datum:Temp:Abs-Feuchte:Windchill:Wind:
Aussen-T/F 3051 26-09-2004 10:52:01 13.4 C 9.3 g/m*3 13.4 C 0 km/h
3052 26-09-2004 11:04:01 13.5 C 9.24 g/m*3 13.5 C 0 km/h
3053 26-09-2004 11:16:01 13.4 C 9.18 g/m*3 13.4 C 0 km/h
3054 26-09-2004 11:28:01 14.1 C 8.98 g/m*3 14.1 C 0 km/h
3055 26-09-2004 11:40:00 14 C 8.56 g/m*3 14 C 0 km/h
3056 26-09-2004 11:52:01 14.2 C 8.55 g/m*3 14.2 C 0 km/h
3057 26-09-2004 12:04:01 14.9 C 8.92 g/m*3 14.9 C 0 km/h
3058 26-09-2004 12:16:01 15.2 C 8.7 g/m*3 15.2 C 0 km/h
3059 26-09-2004 12:28:01 15 C 8.46 g/m*3 15 C 0 km/h
3060 26-09-2004 12:40:01 15.3 C 8.23 g/m*3 15.3 C 0 km/h
3061 26-09-2004 12:52:02 15.4 C 8.41 g/m*3 15.4 C 0 km/h
3062 26-09-2004 13:04:02 15.5 C 8.2 g/m*3 15.5 C 0 km/h
3063 26-09-2004 13:16:01 16.4 C 7.68 g/m*3 16.4 C 0 km/h
3064 26-09-2004 13:28:01 16.9 C 7.91 g/m*3 16.9 C 0 km/h
3065 26-09-2004 13:40:01 17.4 C 7.71 g/m*3 17.4 C 0 km/h
3066 26-09-2004 13:52:01 16.4 C 7.4 g/m*3 16.4 C 0 km/h
3067 26-09-2004 14:04:01 16.5 C 7.3 g/m*3 16.5 C 0 km/h
3068 26-09-2004 14:16:01 17 C 7.23 g/m*3 17 C 0 km/h
3069 26-09-2004 14:28:01 17.2 C 7.32 g/m*3 17.2 C 0 km/h
3070 26-09-2004 14:40:00 17.6 C 7.05 g/m*3 17.6 C 0 km/h
3071 26-09-2004 14:52:01 16.8 C 7.01 g/m*3 16.8 C 0 km/h
3072 26-09-2004 15:04:01 16.2 C 6.9 g/m*3 16.2 C 0 km/h
3073 26-09-2004 15:16:01 16.5 C 7.16 g/m*3 16.5 C 0 km/h
3074 26-09-2004 15:28:01 16.8 C 7.58 g/m*3 16.8 C 0 km/h
3075 26-09-2004 15:40:00 16.6 C 7.49 g/m*3 16.6 C 0 km/h
Sensor: Nr:Datum:Temp:Abs-Feuchte:Windchill:Wind:
Aussen-T/F 3076 26-09-2004 15:52:01 16.3 C 7.63 g/m*3 16.3 C 0 km/h
3077 26-09-2004 16:04:02 15.9 C 7.45 g/m*3 15.9 C 0 km/h
3078 26-09-2004 16:16:02 16.1 C 7.54 g/m*3 16.1 C 0 km/h
3079 26-09-2004 16:28:02 16.4 C 7.54 g/m*3 16.4 C 0 km/h
3080 26-09-2004 16:40:01 16.9 C 7.77 g/m*3 16.9 C 0 km/h
3081 26-09-2004 16:52:01 16.7 C 7.39 g/m*3 16.7 C 0 km/h
3082 26-09-2004 17:04:01 16.8 C 8.01 g/m*3 16.8 C 0 km/h
3083 26-09-2004 17:16:01 16.3 C 8.46 g/m*3 16.3 C 0 km/h
3084 26-09-2004 17:28:01 15.7 C 8.43 g/m*3 15.7 C 0 km/h
3085 26-09-2004 17:40:00 15.2 C 8.31 g/m*3 15.2 C 0 km/h
3086 26-09-2004 17:52:01 14.8 C 8.49 g/m*3 14.8 C 0 km/h
3087 26-09-2004 18:04:01 14.5 C 8.46 g/m*3 14.5 C 0 km/h
3088 26-09-2004 18:16:01 14.2 C 8.43 g/m*3 14.2 C 0 km/h
3089 26-09-2004 18:28:01 13.6 C 8.47 g/m*3 13.6 C 0 km/h
3090 26-09-2004 18:40:00 13.4 C 8.37 g/m*3 13.4 C 0 km/h
3091 26-09-2004 18:52:01 13.4 C 8.37 g/m*3 13.4 C 0 km/h
3092 26-09-2004 19:04:02 13.3 C 8.43 g/m*3 13.3 C 0 km/h
3093 26-09-2004 19:16:01 12.9 C 8.34 g/m*3 12.9 C 0 km/h
3094 26-09-2004 19:28:01 12.4 C 8.19 g/m*3 12.4 C 0 km/h
3095 26-09-2004 19:40:01 12.1 C 8.26 g/m*3 12.1 C 0 km/h
3096 26-09-2004 19:52:01 12.3 C 8.47 g/m*3 12.3 C 0 km/h
3097 26-09-2004 20:04:01 12.5 C 8.47 g/m*3 12.5 C 0 km/h
3098 26-09-2004 20:16:01 12.6 C 8.52 g/m*3 12.6 C 0 km/h
3099 26-09-2004 20:28:01 12.7 C 8.57 g/m*3 12.7 C 0 km/h
3100 26-09-2004 20:40:01 12.7 C 8.46 g/m*3 12.7 C 0 km/h
Sensor: Nr:Datum:Temp:Abs-Feuchte:Windchill:Wind:
Aussen-T/F 3101 26-09-2004 20:52:01 12.7 C 8.46 g/m*3 12.7 C 0 km/h
3102 26-09-2004 21:04:01 12.9 C 8.23 g/m*3 12.9 C 0 km/h
3103 26-09-2004 21:16:01 13 C 8.28 g/m*3 13 C 0 km/h
3104 26-09-2004 21:28:01 12.9 C 8.34 g/m*3 12.9 C 0 km/h
3105 26-09-2004 21:40:00 12.9 C 8.45 g/m*3 12.9 C 0 km/h
3106 26-09-2004 21:52:01 12.8 C 8.51 g/m*3 12.8 C 0 km/h
3107 26-09-2004 22:04:01 12.8 C 8.51 g/m*3 12.8 C 0 km/h
3108 26-09-2004 22:16:02 12.7 C 8.46 g/m*3 12.7 C 0 km/h
3109 26-09-2004 22:28:02 12.7 C 8.46 g/m*3 12.7 C 0 km/h
3110 26-09-2004 22:40:02 12.7 C 8.46 g/m*3 12.7 C 0 km/h
3111 26-09-2004 22:52:01 12.7 C 8.46 g/m*3 12.7 C 0 km/h
3112 26-09-2004 23:04:01 12.6 C 8.41 g/m*3 12.6 C 0 km/h
3113 26-09-2004 23:16:01 12.7 C 8.35 g/m*3 12.7 C 0 km/h
3114 26-09-2004 23:28:01 12.7 C 8.35 g/m*3 12.7 C 0 km/h
3115 26-09-2004 23:40:00 12.6 C 8.3 g/m*3 12.6 C 0 km/h
3116 26-09-2004 23:52:01 12.4 C 8.3 g/m*3 12.4 C 0 km/h
3117 27-09-2004 00:04:01 12 C 8.21 g/m*3 12 C 0 km/h
3118 27-09-2004 00:16:01 12.1 C 8.36 g/m*3 12.1 C 0 km/h
3119 27-09-2004 00:28:01 12.2 C 8.42 g/m*3 12.2 C 0 km/h
3120 27-09-2004 00:40:01 12.3 C 8.36 g/m*3 12.3 C 0 km/h
3121 27-09-2004 00:52:02 12.2 C 8.42 g/m*3 12.2 C 0 km/h
3122 27-09-2004 01:04:02 12.2 C 8.42 g/m*3 12.2 C 0 km/h
3123 27-09-2004 01:16:02 12.2 C 8.52 g/m*3 12.2 C 0 km/h
3124 27-09-2004 01:28:02 12.1 C 8.47 g/m*3 12.1 C 0 km/h
3125 27-09-2004 01:40:02 12.1 C 8.58 g/m*3 12.1 C 0 km/h
Sensor: Nr:Datum:Temp:Abs-Feuchte:Windchill:Wind:
Aussen-T/F 3126 27-09-2004 01:52:01 12 C 8.53 g/m*3 12 C 0 km/h
3127 27-09-2004 02:04:01 11.9 C 8.58 g/m*3 11.9 C 0 km/h
3128 27-09-2004 02:16:01 12 C 8.53 g/m*3 12 C 0 km/h
3129 27-09-2004 02:28:01 12.2 C 8.52 g/m*3 12.2 C 0 km/h
3130 27-09-2004 02:40:01 12.3 C 8.58 g/m*3 12.3 C 0 km/h
3131 27-09-2004 02:53:03 12.3 C 8.58 g/m*3 12.3 C 0 km/h
3132 27-09-2004 03:05:03 12 C 8.53 g/m*3 12 C 0 km/h
3133 27-09-2004 03:17:03 11.8 C 8.53 g/m*3 11.8 C 0 km/h
3134 27-09-2004 03:29:03 11.7 C 8.58 g/m*3 11.7 C 0 km/h
3135 27-09-2004 03:41:01 11.5 C 8.57 g/m*3 11.5 C 0 km/h
3136 27-09-2004 03:53:01 11.5 C 8.68 g/m*3 11.5 C 0 km/h
3137 27-09-2004 04:05:01 11.5 C 8.68 g/m*3 11.5 C 0 km/h
3138 27-09-2004 04:17:01 11.7 C 8.89 g/m*3 11.7 C 0 km/h
3139 27-09-2004 04:29:01 11.8 C 8.84 g/m*3 11.8 C 0 km/h
3140 27-09-2004 04:41:01 11.8 C 8.84 g/m*3 11.8 C 0 km/h
3141 27-09-2004 04:53:01 11.8 C 8.84 g/m*3 11.8 C 0 km/h
3142 27-09-2004 05:05:01 12 C 8.85 g/m*3 12 C 0 km/h
3143 27-09-2004 05:17:01 12 C 8.85 g/m*3 12 C 0 km/h
3144 27-09-2004 05:29:01 12.1 C 8.9 g/m*3 12.1 C 0 km/h
3145 27-09-2004 05:41:01 12.2 C 8.96 g/m*3 12.2 C 0 km/h
3146 27-09-2004 05:53:01 12.2 C 8.96 g/m*3 12.2 C 0 km/h
3147 27-09-2004 06:05:02 12.3 C 9.01 g/m*3 12.3 C 0 km/h
3148 27-09-2004 06:17:02 12.4 C 9.07 g/m*3 12.4 C 0 km/h
3149 27-09-2004 06:29:02 12.5 C 9.13 g/m*3 12.5 C 0 km/h
3150 27-09-2004 06:41:02 12.6 C 9.07 g/m*3 12.6 C 0 km/h
Sensor: Nr:Datum:Temp:Abs-Feuchte:Windchill:Wind:
Aussen-T/F 3151 27-09-2004 06:53:01 12.5 C 9.13 g/m*3 12.5 C 0 km/h
3152 27-09-2004 07:05:01 12.5 C 9.13 g/m*3 12.5 C 0 km/h
3153 27-09-2004 07:17:01 12.6 C 9.18 g/m*3 12.6 C 0 km/h
3154 27-09-2004 07:29:01 12.7 C 9.13 g/m*3 12.7 C 0 km/h
3155 27-09-2004 07:41:00 12.7 C 9.13 g/m*3 12.7 C 0 km/h
3156 27-09-2004 07:53:01 12.7 C 9.24 g/m*3 12.7 C 0 km/h
3157 27-09-2004 08:05:01 12.9 C 9.24 g/m*3 12.9 C 0 km/h
3158 27-09-2004 08:17:01 12.8 C 9.3 g/m*3 12.8 C 0 km/h
3159 27-09-2004 08:29:01 12.7 C 9.35 g/m*3 12.7 C 0 km/h
3160 27-09-2004 08:41:00 12.5 C 9.57 g/m*3 12.5 C 0 km/h
3161 27-09-2004 08:53:01 12.5 C 9.68 g/m*3 12.5 C 0 km/h
3162 27-09-2004 09:05:01 12.6 C 9.74 g/m*3 12.6 C 0 km/h
3163 27-09-2004 09:17:01 12.8 C 9.74 g/m*3 12.8 C 0 km/h
3164 27-09-2004 09:29:01 13 C 9.75 g/m*3 13 C 0 km/h
3165 27-09-2004 09:41:00 13.4 C 9.76 g/m*3 13.4 C 0 km/h
3166 27-09-2004 09:53:01 13.5 C 9.71 g/m*3 13.5 C 0 km/h
3167 27-09-2004 10:05:02 13.7 C 9.83 g/m*3 13.7 C 0 km/h
3168 27-09-2004 10:17:02 13.8 C 9.77 g/m*3 13.8 C 0 km/h
3169 27-09-2004 10:29:02 13.9 C 9.83 g/m*3 13.9 C 0 km/h
3170 27-09-2004 10:41:01 14 C 9.77 g/m*3 14 C 0 km/h
3171 27-09-2004 10:53:01 14.2 C 9.77 g/m*3 14.2 C 0 km/h
3172 27-09-2004 11:05:01 14.7 C 9.95 g/m*3 14.7 C 0 km/h
3173 27-09-2004 11:17:01 14.7 C 9.69 g/m*3 14.7 C 0 km/h
3174 27-09-2004 11:29:01 14.6 C 9.76 g/m*3 14.6 C 0 km/h
3175 27-09-2004 11:41:00 14.5 C 9.83 g/m*3 14.5 C 0 km/h
Sensor: Nr:Datum:Temp:Abs-Feuchte:Windchill:Wind:
Aussen-T/F 3176 27-09-2004 11:53:01 14.6 C 9.76 g/m*3 14.6 C 0 km/h
3177 27-09-2004 12:05:01 14.6 C 9.76 g/m*3 14.6 C 0 km/h
3178 27-09-2004 12:17:01 14.7 C 9.95 g/m*3 14.7 C 0 km/h
3179 27-09-2004 12:29:01 15.3 C 9.79 g/m*3 15.3 C 0 km/h
3180 27-09-2004 12:41:00 15.5 C 9.65 g/m*3 15.5 C 0 km/h
3181 27-09-2004 12:53:01 15.7 C 9.77 g/m*3 15.7 C 0 km/h
3182 27-09-2004 13:05:01 16 C 9.67 g/m*3 16 C 0 km/h
3183 27-09-2004 13:17:01 16.1 C 9.73 g/m*3 16.1 C 0 km/h
3184 27-09-2004 13:29:01 16.2 C 9.79 g/m*3 16.2 C 0 km/h
3185 27-09-2004 13:41:00 16.2 C 9.65 g/m*3 16.2 C 0 km/h
3186 27-09-2004 13:53:01 16.4 C 9.77 g/m*3 16.4 C 0 km/h
3187 27-09-2004 14:05:01 16.6 C 9.75 g/m*3 16.6 C 0 km/h
3188 27-09-2004 14:17:02 16.4 C 9.77 g/m*3 16.4 C 0 km/h
3189 27-09-2004 14:29:02 16.5 C 9.83 g/m*3 16.5 C 0 km/h
3190 27-09-2004 14:41:01 16.4 C 9.91 g/m*3 16.4 C 0 km/h
3191 27-09-2004 14:53:01 16.3 C 9.85 g/m*3 16.3 C 0 km/h
3192 27-09-2004 15:05:01 15.8 C 10.23 g/m*3 15.8 C 0 km/h
3193 27-09-2004 15:17:01 15.4 C 10.38 g/m*3 15.4 C 0 km/h
3194 27-09-2004 15:29:01 15.3 C 10.58 g/m*3 15.3 C 0 km/h
3195 27-09-2004 15:41:00 15.1 C 10.84 g/m*3 15.1 C 0 km/h
3196 27-09-2004 15:53:01 15.4 C 11.04 g/m*3 15.4 C 0 km/h
3197 27-09-2004 16:05:01 15.8 C 11.17 g/m*3 15.8 C 0 km/h
3198 27-09-2004 16:17:01 16 C 10.9 g/m*3 16 C 0 km/h
3199 27-09-2004 16:29:01 15.9 C 11.1 g/m*3 15.9 C 0 km/h
3200 27-09-2004 16:41:00 16 C 11.04 g/m*3 16 C 0 km/h
Sensor: Nr:Datum:Temp:Abs-Feuchte:Windchill:Wind:
Aussen-T/F 3201 27-09-2004 16:53:00 16.1 C 11.1 g/m*3 16.1 C 0 km/h
3202 27-09-2004 17:05:00 16.1 C 10.97 g/m*3 16.1 C 0 km/h
3203 27-09-2004 17:17:00 16.4 C 10.89 g/m*3 16.4 C 0 km/h
3204 27-09-2004 17:29:00 16.3 C 10.82 g/m*3 16.3 C 0 km/h
3205 27-09-2004 17:41:01 16.2 C 10.89 g/m*3 16.2 C 0 km/h
3206 27-09-2004 17:53:02 16.2 C 10.89 g/m*3 16.2 C 0 km/h
3207 27-09-2004 18:05:02 16.2 C 10.89 g/m*3 16.2 C 0 km/h
3208 27-09-2004 18:17:02 16.1 C 10.83 g/m*3 16.1 C 0 km/h
3209 27-09-2004 18:29:02 16 C 10.76 g/m*3 16 C 0 km/h
3210 27-09-2004 18:41:02 15.9 C 10.83 g/m*3 15.9 C 0 km/h
3211 27-09-2004 18:53:01 15.9 C 10.97 g/m*3 15.9 C 0 km/h
3212 27-09-2004 19:05:00 15.8 C 10.77 g/m*3 15.8 C 0 km/h
3213 27-09-2004 19:17:00 15.5 C 10.71 g/m*3 15.5 C 0 km/h
3214 27-09-2004 19:29:00 15.5 C 10.84 g/m*3 15.5 C 0 km/h
3215 27-09-2004 19:41:00 15.4 C 10.77 g/m*3 15.4 C 0 km/h
3216 27-09-2004 19:53:01 15.3 C 10.71 g/m*3 15.3 C 0 km/h
3217 27-09-2004 20:05:01 15.2 C 10.64 g/m*3 15.2 C 0 km/h
3218 27-09-2004 20:17:00 15 C 10.64 g/m*3 15 C 0 km/h
3219 27-09-2004 20:29:00 14.8 C 10.77 g/m*3 14.8 C 0 km/h
3220 27-09-2004 20:41:00 14.7 C 10.7 g/m*3 14.7 C 0 km/h
3221 27-09-2004 20:53:01 14.5 C 10.7 g/m*3 14.5 C 0 km/h
3222 27-09-2004 21:05:01 14.5 C 10.7 g/m*3 14.5 C 0 km/h
3223 27-09-2004 21:17:01 14.5 C 10.7 g/m*3 14.5 C 0 km/h
3224 27-09-2004 21:29:01 14.4 C 10.63 g/m*3 14.4 C 0 km/h
3225 27-09-2004 21:41:01 14.2 C 10.5 g/m*3 14.2 C 0 km/h